<?xml version="1.0" encoding="UTF-8" standalone="no" ?>
<gpx xmlns="http://www.topografix.com/GPX/1/1" xmlns:xsi="http://www.w3.org/2001/XMLSchema-instance" xsi:schemaLocation="http://www.topografix.com/GPX/1/1 http://www.topografix.com/GPX/1/1/gpx.xsd" version="1.1" creator="VisuGPX - https://www.visugpx.com">
  <metadata>
    <name>23 CCC Flémalle - Riemst - Flémalle</name>
    <desc><![CDATA[Randonnée au départ de l'Auto5 de Flémalle.
Flémalle - Jemeppe - Grâce - Berleur - Rocourt - Liers - Milmort - Houtain St Siméon - Bassenge - Wonck - Riemst - Millen - Vieren - Othée - Villers l'Evêque - Voroux Goreux - Velroux - Hozémont - Awirs - Chokier - Flémalle.]]></desc>
  </metadata>
  <trk>
    <name><![CDATA[23 CCC]]></name>
    <extensions>
      <line xmlns="http://www.topografix.com/GPX/gpx_style/0/2">
        <color>0000FF</color>
        <width>4</width>
      </line>
    </extensions>
    <trkseg>
      <trkpt lat="50.60426" lon="5.48424">
        <ele>65</ele>
        <time>2018-11-03T21:45:11Z</time>
      </trkpt>
      <trkpt lat="50.60403" lon="5.48441">
        <ele>65</ele>
        <time>2018-11-03T21:46:11Z</time>
      </trkpt>
      <trkpt lat="50.60349" lon="5.48517">
        <ele>64</ele>
        <time>2018-11-03T21:47:11Z</time>
      </trkpt>
      <trkpt lat="50.60364" lon="5.48551">
        <ele>63</ele>
        <time>2018-11-03T21:48:11Z</time>
      </trkpt>
      <trkpt lat="50.60378" lon="5.4853">
        <ele>64</ele>
        <time>2018-11-03T21:49:11Z</time>
      </trkpt>
      <trkpt lat="50.60422" lon="5.48473">
        <ele>64</ele>
        <time>2018-11-03T21:50:11Z</time>
      </trkpt>
      <trkpt lat="50.60489" lon="5.48394">
        <ele>67</ele>
        <time>2018-11-03T21:51:11Z</time>
      </trkpt>
      <trkpt lat="50.60511" lon="5.48413">
        <ele>67</ele>
        <time>2018-11-03T21:52:11Z</time>
      </trkpt>
      <trkpt lat="50.60529" lon="5.48455">
        <ele>67</ele>
        <time>2018-11-03T21:53:11Z</time>
      </trkpt>
      <trkpt lat="50.60584" lon="5.48579">
        <ele>64</ele>
        <time>2018-11-03T21:54:11Z</time>
      </trkpt>
      <trkpt lat="50.60613" lon="5.48646">
        <ele>64</ele>
        <time>2018-11-03T21:55:11Z</time>
      </trkpt>
      <trkpt lat="50.60667" lon="5.48768">
        <ele>64</ele>
        <time>2018-11-03T21:56:11Z</time>
      </trkpt>
      <trkpt lat="50.60728" lon="5.48885">
        <ele>64</ele>
        <time>2018-11-03T21:57:11Z</time>
      </trkpt>
      <trkpt lat="50.60746" lon="5.48921">
        <ele>64</ele>
        <time>2018-11-03T21:58:11Z</time>
      </trkpt>
      <trkpt lat="50.60783" lon="5.48996">
        <ele>65</ele>
        <time>2018-11-03T21:59:11Z</time>
      </trkpt>
      <trkpt lat="50.6085" lon="5.49112">
        <ele>65</ele>
        <time>2018-11-03T22:00:11Z</time>
      </trkpt>
      <trkpt lat="50.60906" lon="5.49202">
        <ele>64</ele>
        <time>2018-11-03T22:01:11Z</time>
      </trkpt>
      <trkpt lat="50.60987" lon="5.49322">
        <ele>65</ele>
        <time>2018-11-03T22:02:11Z</time>
      </trkpt>
      <trkpt lat="50.61018" lon="5.4937">
        <ele>64</ele>
        <time>2018-11-03T22:03:11Z</time>
      </trkpt>
      <trkpt lat="50.61069" lon="5.49447">
        <ele>62</ele>
        <time>2018-11-03T22:04:11Z</time>
      </trkpt>
      <trkpt lat="50.61111" lon="5.4951">
        <ele>64</ele>
        <time>2018-11-03T22:05:11Z</time>
      </trkpt>
      <trkpt lat="50.61151" lon="5.4957">
        <ele>66</ele>
        <time>2018-11-03T22:06:11Z</time>
      </trkpt>
      <trkpt lat="50.61189" lon="5.49629">
        <ele>67</ele>
        <time>2018-11-03T22:07:11Z</time>
      </trkpt>
      <trkpt lat="50.6123" lon="5.4969">
        <ele>66</ele>
        <time>2018-11-03T22:08:11Z</time>
      </trkpt>
      <trkpt lat="50.61271" lon="5.49757">
        <ele>62</ele>
        <time>2018-11-03T22:09:11Z</time>
      </trkpt>
      <trkpt lat="50.61304" lon="5.49816">
        <ele>61</ele>
        <time>2018-11-03T22:10:11Z</time>
      </trkpt>
      <trkpt lat="50.61349" lon="5.49894">
        <ele>61</ele>
        <time>2018-11-03T22:11:11Z</time>
      </trkpt>
      <trkpt lat="50.61413" lon="5.5">
        <ele>63</ele>
        <time>2018-11-03T22:12:11Z</time>
      </trkpt>
      <trkpt lat="50.61465" lon="5.50093">
        <ele>63</ele>
        <time>2018-11-03T22:13:11Z</time>
      </trkpt>
      <trkpt lat="50.61495" lon="5.5006">
        <ele>63</ele>
        <time>2018-11-03T22:14:11Z</time>
      </trkpt>
      <trkpt lat="50.61556" lon="5.50009">
        <ele>64</ele>
        <time>2018-11-03T22:15:11Z</time>
      </trkpt>
      <trkpt lat="50.61579" lon="5.49989">
        <ele>64</ele>
        <time>2018-11-03T22:16:11Z</time>
      </trkpt>
      <trkpt lat="50.61603" lon="5.49964">
        <ele>65</ele>
        <time>2018-11-03T22:17:11Z</time>
      </trkpt>
      <trkpt lat="50.61623" lon="5.49943">
        <ele>65</ele>
        <time>2018-11-03T22:18:11Z</time>
      </trkpt>
      <trkpt lat="50.6165" lon="5.49906">
        <ele>66</ele>
        <time>2018-11-03T22:19:11Z</time>
      </trkpt>
      <trkpt lat="50.61676" lon="5.49873">
        <ele>66</ele>
        <time>2018-11-03T22:20:11Z</time>
      </trkpt>
      <trkpt lat="50.61715" lon="5.49844">
        <ele>67</ele>
        <time>2018-11-03T22:21:11Z</time>
      </trkpt>
      <trkpt lat="50.61747" lon="5.49827">
        <ele>68</ele>
        <time>2018-11-03T22:22:11Z</time>
      </trkpt>
      <trkpt lat="50.61786" lon="5.49805">
        <ele>69</ele>
        <time>2018-11-03T22:23:11Z</time>
      </trkpt>
      <trkpt lat="50.61813" lon="5.49783">
        <ele>69</ele>
        <time>2018-11-03T22:24:11Z</time>
      </trkpt>
      <trkpt lat="50.61841" lon="5.49756">
        <ele>70</ele>
        <time>2018-11-03T22:25:11Z</time>
      </trkpt>
      <trkpt lat="50.6189" lon="5.49708">
        <ele>72</ele>
        <time>2018-11-03T22:26:11Z</time>
      </trkpt>
      <trkpt lat="50.6192" lon="5.49681">
        <ele>72</ele>
        <time>2018-11-03T22:27:11Z</time>
      </trkpt>
      <trkpt lat="50.61951" lon="5.49647">
        <ele>75</ele>
        <time>2018-11-03T22:28:11Z</time>
      </trkpt>
      <trkpt lat="50.61986" lon="5.49608">
        <ele>77</ele>
        <time>2018-11-03T22:29:11Z</time>
      </trkpt>
      <trkpt lat="50.62035" lon="5.49597">
        <ele>79</ele>
        <time>2018-11-03T22:30:11Z</time>
      </trkpt>
      <trkpt lat="50.62087" lon="5.49597">
        <ele>80</ele>
        <time>2018-11-03T22:31:11Z</time>
      </trkpt>
      <trkpt lat="50.62134" lon="5.496">
        <ele>80</ele>
        <time>2018-11-03T22:32:11Z</time>
      </trkpt>
      <trkpt lat="50.62155" lon="5.49606">
        <ele>80</ele>
        <time>2018-11-03T22:33:11Z</time>
      </trkpt>
      <trkpt lat="50.62164" lon="5.49623">
        <ele>80</ele>
        <time>2018-11-03T22:34:11Z</time>
      </trkpt>
      <trkpt lat="50.62178" lon="5.49652">
        <ele>81</ele>
        <time>2018-11-03T22:35:11Z</time>
      </trkpt>
      <trkpt lat="50.62193" lon="5.4968">
        <ele>81</ele>
        <time>2018-11-03T22:36:11Z</time>
      </trkpt>
      <trkpt lat="50.6222" lon="5.49711">
        <ele>81</ele>
        <time>2018-11-03T22:37:11Z</time>
      </trkpt>
      <trkpt lat="50.62256" lon="5.49746">
        <ele>82</ele>
        <time>2018-11-03T22:38:11Z</time>
      </trkpt>
      <trkpt lat="50.62279" lon="5.49764">
        <ele>85</ele>
        <time>2018-11-03T22:39:11Z</time>
      </trkpt>
      <trkpt lat="50.62315" lon="5.49801">
        <ele>88</ele>
        <time>2018-11-03T22:40:11Z</time>
      </trkpt>
      <trkpt lat="50.62338" lon="5.49832">
        <ele>89</ele>
        <time>2018-11-03T22:41:11Z</time>
      </trkpt>
      <trkpt lat="50.62374" lon="5.49882">
        <ele>92</ele>
        <time>2018-11-03T22:42:11Z</time>
      </trkpt>
      <trkpt lat="50.62399" lon="5.49914">
        <ele>93</ele>
        <time>2018-11-03T22:43:11Z</time>
      </trkpt>
      <trkpt lat="50.62453" lon="5.49986">
        <ele>97</ele>
        <time>2018-11-03T22:44:11Z</time>
      </trkpt>
      <trkpt lat="50.62541" lon="5.50106">
        <ele>102</ele>
        <time>2018-11-03T22:45:11Z</time>
      </trkpt>
      <trkpt lat="50.62612" lon="5.5021">
        <ele>107</ele>
        <time>2018-11-03T22:46:11Z</time>
      </trkpt>
      <trkpt lat="50.62679" lon="5.50309">
        <ele>114</ele>
        <time>2018-11-03T22:47:11Z</time>
      </trkpt>
      <trkpt lat="50.6275" lon="5.50412">
        <ele>108</ele>
        <time>2018-11-03T22:48:11Z</time>
      </trkpt>
      <trkpt lat="50.62821" lon="5.50528">
        <ele>107</ele>
        <time>2018-11-03T22:49:11Z</time>
      </trkpt>
      <trkpt lat="50.62847" lon="5.5057">
        <ele>106</ele>
        <time>2018-11-03T22:50:11Z</time>
      </trkpt>
      <trkpt lat="50.62883" lon="5.50631">
        <ele>106</ele>
        <time>2018-11-03T22:51:11Z</time>
      </trkpt>
      <trkpt lat="50.6292" lon="5.50688">
        <ele>106</ele>
        <time>2018-11-03T22:52:11Z</time>
      </trkpt>
      <trkpt lat="50.62946" lon="5.50709">
        <ele>105</ele>
        <time>2018-11-03T22:53:11Z</time>
      </trkpt>
      <trkpt lat="50.62964" lon="5.50724">
        <ele>105</ele>
        <time>2018-11-03T22:54:11Z</time>
      </trkpt>
      <trkpt lat="50.62984" lon="5.5074">
        <ele>104</ele>
        <time>2018-11-03T22:55:11Z</time>
      </trkpt>
      <trkpt lat="50.6311" lon="5.50841">
        <ele>104</ele>
        <time>2018-11-03T22:56:11Z</time>
      </trkpt>
      <trkpt lat="50.63164" lon="5.50889">
        <ele>108</ele>
        <time>2018-11-03T22:57:11Z</time>
      </trkpt>
      <trkpt lat="50.63202" lon="5.50927">
        <ele>109</ele>
        <time>2018-11-03T22:58:11Z</time>
      </trkpt>
      <trkpt lat="50.63208" lon="5.50944">
        <ele>110</ele>
        <time>2018-11-03T22:59:11Z</time>
      </trkpt>
      <trkpt lat="50.63227" lon="5.50979">
        <ele>110</ele>
        <time>2018-11-03T23:00:11Z</time>
      </trkpt>
      <trkpt lat="50.6325" lon="5.51003">
        <ele>107</ele>
        <time>2018-11-03T23:01:11Z</time>
      </trkpt>
      <trkpt lat="50.63274" lon="5.51048">
        <ele>112</ele>
        <time>2018-11-03T23:02:11Z</time>
      </trkpt>
      <trkpt lat="50.6331" lon="5.51117">
        <ele>114</ele>
        <time>2018-11-03T23:03:11Z</time>
      </trkpt>
      <trkpt lat="50.63335" lon="5.51153">
        <ele>111</ele>
        <time>2018-11-03T23:04:11Z</time>
      </trkpt>
      <trkpt lat="50.63383" lon="5.51234">
        <ele>116</ele>
        <time>2018-11-03T23:05:11Z</time>
      </trkpt>
      <trkpt lat="50.6345" lon="5.51343">
        <ele>117</ele>
        <time>2018-11-03T23:06:11Z</time>
      </trkpt>
      <trkpt lat="50.63524" lon="5.51455">
        <ele>118</ele>
        <time>2018-11-03T23:07:11Z</time>
      </trkpt>
      <trkpt lat="50.63624" lon="5.51604">
        <ele>123</ele>
        <time>2018-11-03T23:08:11Z</time>
      </trkpt>
      <trkpt lat="50.63649" lon="5.51638">
        <ele>123</ele>
        <time>2018-11-03T23:09:11Z</time>
      </trkpt>
      <trkpt lat="50.63656" lon="5.51664">
        <ele>123</ele>
        <time>2018-11-03T23:10:11Z</time>
      </trkpt>
      <trkpt lat="50.63679" lon="5.51698">
        <ele>123</ele>
        <time>2018-11-03T23:11:11Z</time>
      </trkpt>
      <trkpt lat="50.63696" lon="5.5171">
        <ele>124</ele>
        <time>2018-11-03T23:12:11Z</time>
      </trkpt>
      <trkpt lat="50.63731" lon="5.51772">
        <ele>124</ele>
        <time>2018-11-03T23:13:11Z</time>
      </trkpt>
      <trkpt lat="50.63744" lon="5.51797">
        <ele>123</ele>
        <time>2018-11-03T23:14:11Z</time>
      </trkpt>
      <trkpt lat="50.63779" lon="5.51874">
        <ele>126</ele>
        <time>2018-11-03T23:15:11Z</time>
      </trkpt>
      <trkpt lat="50.63798" lon="5.5192">
        <ele>127</ele>
        <time>2018-11-03T23:16:11Z</time>
      </trkpt>
      <trkpt lat="50.63813" lon="5.51959">
        <ele>127</ele>
        <time>2018-11-03T23:17:11Z</time>
      </trkpt>
      <trkpt lat="50.63855" lon="5.52079">
        <ele>128</ele>
        <time>2018-11-03T23:18:11Z</time>
      </trkpt>
      <trkpt lat="50.63878" lon="5.52145">
        <ele>133</ele>
        <time>2018-11-03T23:19:11Z</time>
      </trkpt>
      <trkpt lat="50.63889" lon="5.52176">
        <ele>134</ele>
        <time>2018-11-03T23:20:11Z</time>
      </trkpt>
      <trkpt lat="50.63911" lon="5.52216">
        <ele>137</ele>
        <time>2018-11-03T23:21:11Z</time>
      </trkpt>
      <trkpt lat="50.63952" lon="5.52268">
        <ele>140</ele>
        <time>2018-11-03T23:22:11Z</time>
      </trkpt>
      <trkpt lat="50.63974" lon="5.52285">
        <ele>141</ele>
        <time>2018-11-03T23:23:11Z</time>
      </trkpt>
      <trkpt lat="50.64028" lon="5.52313">
        <ele>143</ele>
        <time>2018-11-03T23:24:11Z</time>
      </trkpt>
      <trkpt lat="50.64123" lon="5.52364">
        <ele>150</ele>
        <time>2018-11-03T23:25:11Z</time>
      </trkpt>
      <trkpt lat="50.64158" lon="5.52383">
        <ele>153</ele>
        <time>2018-11-03T23:26:11Z</time>
      </trkpt>
      <trkpt lat="50.64186" lon="5.52408">
        <ele>154</ele>
        <time>2018-11-03T23:27:11Z</time>
      </trkpt>
      <trkpt lat="50.64212" lon="5.52445">
        <ele>157</ele>
        <time>2018-11-03T23:28:11Z</time>
      </trkpt>
      <trkpt lat="50.64296" lon="5.52572">
        <ele>163</ele>
        <time>2018-11-03T23:29:11Z</time>
      </trkpt>
      <trkpt lat="50.64304" lon="5.52589">
        <ele>163</ele>
        <time>2018-11-03T23:30:11Z</time>
      </trkpt>
      <trkpt lat="50.64316" lon="5.52594">
        <ele>163</ele>
        <time>2018-11-03T23:31:11Z</time>
      </trkpt>
      <trkpt lat="50.64327" lon="5.52623">
        <ele>163</ele>
        <time>2018-11-03T23:32:11Z</time>
      </trkpt>
      <trkpt lat="50.64355" lon="5.5272">
        <ele>168</ele>
        <time>2018-11-03T23:33:11Z</time>
      </trkpt>
      <trkpt lat="50.64381" lon="5.52802">
        <ele>170</ele>
        <time>2018-11-03T23:34:11Z</time>
      </trkpt>
      <trkpt lat="50.64391" lon="5.52814">
        <ele>170</ele>
        <time>2018-11-03T23:35:11Z</time>
      </trkpt>
      <trkpt lat="50.6441" lon="5.5282">
        <ele>170</ele>
        <time>2018-11-03T23:36:11Z</time>
      </trkpt>
      <trkpt lat="50.64467" lon="5.52831">
        <ele>173</ele>
        <time>2018-11-03T23:37:11Z</time>
      </trkpt>
      <trkpt lat="50.64529" lon="5.52825">
        <ele>176</ele>
        <time>2018-11-03T23:38:11Z</time>
      </trkpt>
      <trkpt lat="50.64544" lon="5.5282">
        <ele>176</ele>
        <time>2018-11-03T23:39:11Z</time>
      </trkpt>
      <trkpt lat="50.64634" lon="5.52784">
        <ele>179</ele>
        <time>2018-11-03T23:40:11Z</time>
      </trkpt>
      <trkpt lat="50.64653" lon="5.52771">
        <ele>179</ele>
        <time>2018-11-03T23:41:11Z</time>
      </trkpt>
      <trkpt lat="50.64669" lon="5.52748">
        <ele>180</ele>
        <time>2018-11-03T23:42:11Z</time>
      </trkpt>
      <trkpt lat="50.64679" lon="5.52723">
        <ele>180</ele>
        <time>2018-11-03T23:43:11Z</time>
      </trkpt>
      <trkpt lat="50.64693" lon="5.52673">
        <ele>181</ele>
        <time>2018-11-03T23:44:11Z</time>
      </trkpt>
      <trkpt lat="50.6471" lon="5.52624">
        <ele>182</ele>
        <time>2018-11-03T23:45:11Z</time>
      </trkpt>
      <trkpt lat="50.64739" lon="5.52546">
        <ele>183</ele>
        <time>2018-11-03T23:46:11Z</time>
      </trkpt>
      <trkpt lat="50.64758" lon="5.5251">
        <ele>184</ele>
        <time>2018-11-03T23:47:11Z</time>
      </trkpt>
      <trkpt lat="50.64769" lon="5.52493">
        <ele>184</ele>
        <time>2018-11-03T23:48:11Z</time>
      </trkpt>
      <trkpt lat="50.64834" lon="5.5243">
        <ele>184</ele>
        <time>2018-11-03T23:49:11Z</time>
      </trkpt>
      <trkpt lat="50.6489" lon="5.52376">
        <ele>185</ele>
        <time>2018-11-03T23:50:11Z</time>
      </trkpt>
      <trkpt lat="50.64928" lon="5.52354">
        <ele>186</ele>
        <time>2018-11-03T23:51:11Z</time>
      </trkpt>
      <trkpt lat="50.64973" lon="5.52343">
        <ele>188</ele>
        <time>2018-11-03T23:52:11Z</time>
      </trkpt>
      <trkpt lat="50.64995" lon="5.52349">
        <ele>189</ele>
        <time>2018-11-03T23:53:11Z</time>
      </trkpt>
      <trkpt lat="50.65018" lon="5.52366">
        <ele>189</ele>
        <time>2018-11-03T23:54:11Z</time>
      </trkpt>
      <trkpt lat="50.65062" lon="5.52416">
        <ele>187</ele>
        <time>2018-11-03T23:55:11Z</time>
      </trkpt>
      <trkpt lat="50.65134" lon="5.52504">
        <ele>187</ele>
        <time>2018-11-03T23:56:11Z</time>
      </trkpt>
      <trkpt lat="50.65199" lon="5.52581">
        <ele>186</ele>
        <time>2018-11-03T23:57:11Z</time>
      </trkpt>
      <trkpt lat="50.65247" lon="5.52632">
        <ele>186</ele>
        <time>2018-11-03T23:58:11Z</time>
      </trkpt>
      <trkpt lat="50.65289" lon="5.5268">
        <ele>188</ele>
        <time>2018-11-03T23:59:11Z</time>
      </trkpt>
      <trkpt lat="50.65321" lon="5.52716">
        <ele>189</ele>
        <time>2018-11-04T00:00:11Z</time>
      </trkpt>
      <trkpt lat="50.65399" lon="5.52805">
        <ele>184</ele>
        <time>2018-11-04T00:01:11Z</time>
      </trkpt>
      <trkpt lat="50.65482" lon="5.52903">
        <ele>183</ele>
        <time>2018-11-04T00:02:11Z</time>
      </trkpt>
      <trkpt lat="50.65583" lon="5.53019">
        <ele>183</ele>
        <time>2018-11-04T00:03:11Z</time>
      </trkpt>
      <trkpt lat="50.65601" lon="5.53037">
        <ele>182</ele>
        <time>2018-11-04T00:04:11Z</time>
      </trkpt>
      <trkpt lat="50.65617" lon="5.53051">
        <ele>182</ele>
        <time>2018-11-04T00:05:11Z</time>
      </trkpt>
      <trkpt lat="50.65725" lon="5.53133">
        <ele>185</ele>
        <time>2018-11-04T00:06:11Z</time>
      </trkpt>
      <trkpt lat="50.65795" lon="5.53188">
        <ele>186</ele>
        <time>2018-11-04T00:07:11Z</time>
      </trkpt>
      <trkpt lat="50.65892" lon="5.53263">
        <ele>186</ele>
        <time>2018-11-04T00:08:11Z</time>
      </trkpt>
      <trkpt lat="50.65959" lon="5.53314">
        <ele>185</ele>
        <time>2018-11-04T00:09:11Z</time>
      </trkpt>
      <trkpt lat="50.66023" lon="5.53365">
        <ele>185</ele>
        <time>2018-11-04T00:10:11Z</time>
      </trkpt>
      <trkpt lat="50.66131" lon="5.53449">
        <ele>184</ele>
        <time>2018-11-04T00:11:11Z</time>
      </trkpt>
      <trkpt lat="50.66197" lon="5.535">
        <ele>184</ele>
        <time>2018-11-04T00:12:11Z</time>
      </trkpt>
      <trkpt lat="50.66276" lon="5.53562">
        <ele>183</ele>
        <time>2018-11-04T00:13:11Z</time>
      </trkpt>
      <trkpt lat="50.66376" lon="5.53643">
        <ele>182</ele>
        <time>2018-11-04T00:14:11Z</time>
      </trkpt>
      <trkpt lat="50.66483" lon="5.53727">
        <ele>178</ele>
        <time>2018-11-04T00:15:11Z</time>
      </trkpt>
      <trkpt lat="50.66593" lon="5.53815">
        <ele>177</ele>
        <time>2018-11-04T00:16:11Z</time>
      </trkpt>
      <trkpt lat="50.66668" lon="5.53873">
        <ele>175</ele>
        <time>2018-11-04T00:17:11Z</time>
      </trkpt>
      <trkpt lat="50.66762" lon="5.53949">
        <ele>174</ele>
        <time>2018-11-04T00:18:11Z</time>
      </trkpt>
      <trkpt lat="50.66789" lon="5.5397">
        <ele>173</ele>
        <time>2018-11-04T00:19:11Z</time>
      </trkpt>
      <trkpt lat="50.66842" lon="5.5401">
        <ele>172</ele>
        <time>2018-11-04T00:20:11Z</time>
      </trkpt>
      <trkpt lat="50.66875" lon="5.54036">
        <ele>173</ele>
        <time>2018-11-04T00:21:11Z</time>
      </trkpt>
      <trkpt lat="50.66934" lon="5.54083">
        <ele>173</ele>
        <time>2018-11-04T00:22:11Z</time>
      </trkpt>
      <trkpt lat="50.6704" lon="5.54167">
        <ele>171</ele>
        <time>2018-11-04T00:23:11Z</time>
      </trkpt>
      <trkpt lat="50.67119" lon="5.54228">
        <ele>171</ele>
        <time>2018-11-04T00:24:11Z</time>
      </trkpt>
      <trkpt lat="50.67197" lon="5.54291">
        <ele>171</ele>
        <time>2018-11-04T00:25:11Z</time>
      </trkpt>
      <trkpt lat="50.6725" lon="5.54332">
        <ele>173</ele>
        <time>2018-11-04T00:26:11Z</time>
      </trkpt>
      <trkpt lat="50.673" lon="5.5437">
        <ele>173</ele>
        <time>2018-11-04T00:27:11Z</time>
      </trkpt>
      <trkpt lat="50.67395" lon="5.54442">
        <ele>173</ele>
        <time>2018-11-04T00:28:11Z</time>
      </trkpt>
      <trkpt lat="50.67483" lon="5.54513">
        <ele>173</ele>
        <time>2018-11-04T00:29:11Z</time>
      </trkpt>
      <trkpt lat="50.67573" lon="5.54583">
        <ele>175</ele>
        <time>2018-11-04T00:30:11Z</time>
      </trkpt>
      <trkpt lat="50.67608" lon="5.54607">
        <ele>175</ele>
        <time>2018-11-04T00:31:11Z</time>
      </trkpt>
      <trkpt lat="50.67622" lon="5.54619">
        <ele>175</ele>
        <time>2018-11-04T00:32:11Z</time>
      </trkpt>
      <trkpt lat="50.67688" lon="5.54643">
        <ele>173</ele>
        <time>2018-11-04T00:33:11Z</time>
      </trkpt>
      <trkpt lat="50.67792" lon="5.54681">
        <ele>171</ele>
        <time>2018-11-04T00:34:11Z</time>
      </trkpt>
      <trkpt lat="50.6785" lon="5.547">
        <ele>170</ele>
        <time>2018-11-04T00:35:11Z</time>
      </trkpt>
      <trkpt lat="50.67868" lon="5.54708">
        <ele>170</ele>
        <time>2018-11-04T00:36:11Z</time>
      </trkpt>
      <trkpt lat="50.67888" lon="5.54722">
        <ele>169</ele>
        <time>2018-11-04T00:37:11Z</time>
      </trkpt>
      <trkpt lat="50.67998" lon="5.54793">
        <ele>168</ele>
        <time>2018-11-04T00:38:11Z</time>
      </trkpt>
      <trkpt lat="50.68034" lon="5.54814">
        <ele>168</ele>
        <time>2018-11-04T00:39:11Z</time>
      </trkpt>
      <trkpt lat="50.68061" lon="5.54825">
        <ele>168</ele>
        <time>2018-11-04T00:40:11Z</time>
      </trkpt>
      <trkpt lat="50.6812" lon="5.54841">
        <ele>168</ele>
        <time>2018-11-04T00:41:11Z</time>
      </trkpt>
      <trkpt lat="50.68195" lon="5.54858">
        <ele>166</ele>
        <time>2018-11-04T00:42:11Z</time>
      </trkpt>
      <trkpt lat="50.68257" lon="5.54878">
        <ele>166</ele>
        <time>2018-11-04T00:43:11Z</time>
      </trkpt>
      <trkpt lat="50.68368" lon="5.54932">
        <ele>165</ele>
        <time>2018-11-04T00:44:11Z</time>
      </trkpt>
      <trkpt lat="50.68411" lon="5.54956">
        <ele>165</ele>
        <time>2018-11-04T00:45:11Z</time>
      </trkpt>
      <trkpt lat="50.68452" lon="5.54988">
        <ele>166</ele>
        <time>2018-11-04T00:46:11Z</time>
      </trkpt>
      <trkpt lat="50.68514" lon="5.55063">
        <ele>166</ele>
        <time>2018-11-04T00:47:11Z</time>
      </trkpt>
      <trkpt lat="50.68541" lon="5.55112">
        <ele>166</ele>
        <time>2018-11-04T00:48:11Z</time>
      </trkpt>
      <trkpt lat="50.68573" lon="5.55201">
        <ele>168</ele>
        <time>2018-11-04T00:49:11Z</time>
      </trkpt>
      <trkpt lat="50.68585" lon="5.55235">
        <ele>169</ele>
        <time>2018-11-04T00:50:11Z</time>
      </trkpt>
      <trkpt lat="50.68613" lon="5.5529">
        <ele>169</ele>
        <time>2018-11-04T00:51:11Z</time>
      </trkpt>
      <trkpt lat="50.6867" lon="5.5539">
        <ele>168</ele>
        <time>2018-11-04T00:52:11Z</time>
      </trkpt>
      <trkpt lat="50.68707" lon="5.55458">
        <ele>168</ele>
        <time>2018-11-04T00:53:11Z</time>
      </trkpt>
      <trkpt lat="50.68725" lon="5.55488">
        <ele>168</ele>
        <time>2018-11-04T00:54:11Z</time>
      </trkpt>
      <trkpt lat="50.68778" lon="5.55522">
        <ele>168</ele>
        <time>2018-11-04T00:55:11Z</time>
      </trkpt>
      <trkpt lat="50.68804" lon="5.55542">
        <ele>169</ele>
        <time>2018-11-04T00:56:11Z</time>
      </trkpt>
      <trkpt lat="50.6883" lon="5.55563">
        <ele>169</ele>
        <time>2018-11-04T00:57:11Z</time>
      </trkpt>
      <trkpt lat="50.68863" lon="5.55605">
        <ele>168</ele>
        <time>2018-11-04T00:58:11Z</time>
      </trkpt>
      <trkpt lat="50.68956" lon="5.55715">
        <ele>164</ele>
        <time>2018-11-04T00:59:11Z</time>
      </trkpt>
      <trkpt lat="50.68998" lon="5.55767">
        <ele>161</ele>
        <time>2018-11-04T01:00:11Z</time>
      </trkpt>
      <trkpt lat="50.69033" lon="5.5582">
        <ele>162</ele>
        <time>2018-11-04T01:01:11Z</time>
      </trkpt>
      <trkpt lat="50.6907" lon="5.5588">
        <ele>163</ele>
        <time>2018-11-04T01:02:11Z</time>
      </trkpt>
      <trkpt lat="50.69147" lon="5.5602">
        <ele>164</ele>
        <time>2018-11-04T01:03:11Z</time>
      </trkpt>
      <trkpt lat="50.69163" lon="5.56052">
        <ele>165</ele>
        <time>2018-11-04T01:04:11Z</time>
      </trkpt>
      <trkpt lat="50.69202" lon="5.5612">
        <ele>167</ele>
        <time>2018-11-04T01:05:11Z</time>
      </trkpt>
      <trkpt lat="50.69235" lon="5.5618">
        <ele>167</ele>
        <time>2018-11-04T01:06:11Z</time>
      </trkpt>
      <trkpt lat="50.6926" lon="5.56229">
        <ele>167</ele>
        <time>2018-11-04T01:07:11Z</time>
      </trkpt>
      <trkpt lat="50.69297" lon="5.56296">
        <ele>167</ele>
        <time>2018-11-04T01:08:11Z</time>
      </trkpt>
      <trkpt lat="50.69308" lon="5.56315">
        <ele>167</ele>
        <time>2018-11-04T01:09:11Z</time>
      </trkpt>
      <trkpt lat="50.6936" lon="5.56383">
        <ele>165</ele>
        <time>2018-11-04T01:10:11Z</time>
      </trkpt>
      <trkpt lat="50.69342" lon="5.56405">
        <ele>166</ele>
        <time>2018-11-04T01:11:11Z</time>
      </trkpt>
      <trkpt lat="50.69264" lon="5.56501">
        <ele>168</ele>
        <time>2018-11-04T01:12:11Z</time>
      </trkpt>
      <trkpt lat="50.69223" lon="5.56545">
        <ele>170</ele>
        <time>2018-11-04T01:13:11Z</time>
      </trkpt>
      <trkpt lat="50.69166" lon="5.56606">
        <ele>172</ele>
        <time>2018-11-04T01:14:11Z</time>
      </trkpt>
      <trkpt lat="50.6913" lon="5.56625">
        <ele>172</ele>
        <time>2018-11-04T01:15:11Z</time>
      </trkpt>
      <trkpt lat="50.69092" lon="5.56666">
        <ele>172</ele>
        <time>2018-11-04T01:16:11Z</time>
      </trkpt>
      <trkpt lat="50.69069" lon="5.5671">
        <ele>172</ele>
        <time>2018-11-04T01:17:11Z</time>
      </trkpt>
      <trkpt lat="50.69062" lon="5.56738">
        <ele>171</ele>
        <time>2018-11-04T01:18:11Z</time>
      </trkpt>
      <trkpt lat="50.69059" lon="5.56762">
        <ele>171</ele>
        <time>2018-11-04T01:19:11Z</time>
      </trkpt>
      <trkpt lat="50.69059" lon="5.56789">
        <ele>171</ele>
        <time>2018-11-04T01:20:11Z</time>
      </trkpt>
      <trkpt lat="50.69059" lon="5.56874">
        <ele>171</ele>
        <time>2018-11-04T01:21:11Z</time>
      </trkpt>
      <trkpt lat="50.69067" lon="5.56964">
        <ele>172</ele>
        <time>2018-11-04T01:22:11Z</time>
      </trkpt>
      <trkpt lat="50.69076" lon="5.57057">
        <ele>171</ele>
        <time>2018-11-04T01:23:11Z</time>
      </trkpt>
      <trkpt lat="50.69073" lon="5.57101">
        <ele>171</ele>
        <time>2018-11-04T01:24:11Z</time>
      </trkpt>
      <trkpt lat="50.69053" lon="5.57243">
        <ele>166</ele>
        <time>2018-11-04T01:25:11Z</time>
      </trkpt>
      <trkpt lat="50.69026" lon="5.57421">
        <ele>168</ele>
        <time>2018-11-04T01:26:11Z</time>
      </trkpt>
      <trkpt lat="50.69009" lon="5.57543">
        <ele>171</ele>
        <time>2018-11-04T01:27:11Z</time>
      </trkpt>
      <trkpt lat="50.69002" lon="5.57589">
        <ele>170</ele>
        <time>2018-11-04T01:28:11Z</time>
      </trkpt>
      <trkpt lat="50.68979" lon="5.57607">
        <ele>169</ele>
        <time>2018-11-04T01:29:11Z</time>
      </trkpt>
      <trkpt lat="50.68963" lon="5.57681">
        <ele>168</ele>
        <time>2018-11-04T01:30:11Z</time>
      </trkpt>
      <trkpt lat="50.68981" lon="5.57719">
        <ele>168</ele>
        <time>2018-11-04T01:31:11Z</time>
      </trkpt>
      <trkpt lat="50.68975" lon="5.57756">
        <ele>168</ele>
        <time>2018-11-04T01:32:11Z</time>
      </trkpt>
      <trkpt lat="50.68962" lon="5.57847">
        <ele>170</ele>
        <time>2018-11-04T01:33:11Z</time>
      </trkpt>
      <trkpt lat="50.68919" lon="5.58144">
        <ele>173</ele>
        <time>2018-11-04T01:34:11Z</time>
      </trkpt>
      <trkpt lat="50.68886" lon="5.5837">
        <ele>175</ele>
        <time>2018-11-04T01:35:11Z</time>
      </trkpt>
      <trkpt lat="50.68849" lon="5.58625">
        <ele>177</ele>
        <time>2018-11-04T01:36:11Z</time>
      </trkpt>
      <trkpt lat="50.68848" lon="5.58673">
        <ele>177</ele>
        <time>2018-11-04T01:37:11Z</time>
      </trkpt>
      <trkpt lat="50.68852" lon="5.58714">
        <ele>176</ele>
        <time>2018-11-04T01:38:11Z</time>
      </trkpt>
      <trkpt lat="50.6887" lon="5.58835">
        <ele>175</ele>
        <time>2018-11-04T01:39:11Z</time>
      </trkpt>
      <trkpt lat="50.68879" lon="5.58916">
        <ele>173</ele>
        <time>2018-11-04T01:40:11Z</time>
      </trkpt>
      <trkpt lat="50.68891" lon="5.59204">
        <ele>162</ele>
        <time>2018-11-04T01:41:11Z</time>
      </trkpt>
      <trkpt lat="50.68891" lon="5.59218">
        <ele>161</ele>
        <time>2018-11-04T01:42:11Z</time>
      </trkpt>
      <trkpt lat="50.68914" lon="5.59221">
        <ele>160</ele>
        <time>2018-11-04T01:43:11Z</time>
      </trkpt>
      <trkpt lat="50.68946" lon="5.59224">
        <ele>160</ele>
        <time>2018-11-04T01:44:11Z</time>
      </trkpt>
      <trkpt lat="50.68992" lon="5.59222">
        <ele>160</ele>
        <time>2018-11-04T01:45:11Z</time>
      </trkpt>
      <trkpt lat="50.69034" lon="5.59222">
        <ele>160</ele>
        <time>2018-11-04T01:46:11Z</time>
      </trkpt>
      <trkpt lat="50.69032" lon="5.59249">
        <ele>158</ele>
        <time>2018-11-04T01:47:11Z</time>
      </trkpt>
      <trkpt lat="50.69024" lon="5.59283">
        <ele>155</ele>
        <time>2018-11-04T01:48:11Z</time>
      </trkpt>
      <trkpt lat="50.69015" lon="5.59324">
        <ele>152</ele>
        <time>2018-11-04T01:49:11Z</time>
      </trkpt>
      <trkpt lat="50.69008" lon="5.59366">
        <ele>150</ele>
        <time>2018-11-04T01:50:11Z</time>
      </trkpt>
      <trkpt lat="50.68997" lon="5.59431">
        <ele>146</ele>
        <time>2018-11-04T01:51:11Z</time>
      </trkpt>
      <trkpt lat="50.68994" lon="5.59443">
        <ele>146</ele>
        <time>2018-11-04T01:52:11Z</time>
      </trkpt>
      <trkpt lat="50.68977" lon="5.5949">
        <ele>145</ele>
        <time>2018-11-04T01:53:11Z</time>
      </trkpt>
      <trkpt lat="50.68976" lon="5.59519">
        <ele>144</ele>
        <time>2018-11-04T01:54:11Z</time>
      </trkpt>
      <trkpt lat="50.6898" lon="5.59548">
        <ele>143</ele>
        <time>2018-11-04T01:55:11Z</time>
      </trkpt>
      <trkpt lat="50.68982" lon="5.59572">
        <ele>142</ele>
        <time>2018-11-04T01:56:11Z</time>
      </trkpt>
      <trkpt lat="50.68981" lon="5.59596">
        <ele>142</ele>
        <time>2018-11-04T01:57:11Z</time>
      </trkpt>
      <trkpt lat="50.68975" lon="5.59625">
        <ele>142</ele>
        <time>2018-11-04T01:58:11Z</time>
      </trkpt>
      <trkpt lat="50.68968" lon="5.59641">
        <ele>141</ele>
        <time>2018-11-04T01:59:11Z</time>
      </trkpt>
      <trkpt lat="50.68952" lon="5.59684">
        <ele>141</ele>
        <time>2018-11-04T02:00:11Z</time>
      </trkpt>
      <trkpt lat="50.68911" lon="5.59779">
        <ele>139</ele>
        <time>2018-11-04T02:01:11Z</time>
      </trkpt>
      <trkpt lat="50.68931" lon="5.59807">
        <ele>139</ele>
        <time>2018-11-04T02:02:11Z</time>
      </trkpt>
      <trkpt lat="50.68954" lon="5.59836">
        <ele>139</ele>
        <time>2018-11-04T02:03:11Z</time>
      </trkpt>
      <trkpt lat="50.68988" lon="5.59874">
        <ele>140</ele>
        <time>2018-11-04T02:04:11Z</time>
      </trkpt>
      <trkpt lat="50.69045" lon="5.59894">
        <ele>141</ele>
        <time>2018-11-04T02:05:11Z</time>
      </trkpt>
      <trkpt lat="50.69104" lon="5.59912">
        <ele>142</ele>
        <time>2018-11-04T02:06:11Z</time>
      </trkpt>
      <trkpt lat="50.69136" lon="5.59922">
        <ele>143</ele>
        <time>2018-11-04T02:07:11Z</time>
      </trkpt>
      <trkpt lat="50.69248" lon="5.59994">
        <ele>142</ele>
        <time>2018-11-04T02:08:11Z</time>
      </trkpt>
      <trkpt lat="50.69256" lon="5.60001">
        <ele>142</ele>
        <time>2018-11-04T02:09:11Z</time>
      </trkpt>
      <trkpt lat="50.69268" lon="5.6004">
        <ele>141</ele>
        <time>2018-11-04T02:10:11Z</time>
      </trkpt>
      <trkpt lat="50.6929" lon="5.60058">
        <ele>141</ele>
        <time>2018-11-04T02:11:11Z</time>
      </trkpt>
      <trkpt lat="50.69385" lon="5.60017">
        <ele>140</ele>
        <time>2018-11-04T02:12:11Z</time>
      </trkpt>
      <trkpt lat="50.69456" lon="5.5999">
        <ele>141</ele>
        <time>2018-11-04T02:13:11Z</time>
      </trkpt>
      <trkpt lat="50.69533" lon="5.59964">
        <ele>143</ele>
        <time>2018-11-04T02:14:11Z</time>
      </trkpt>
      <trkpt lat="50.69543" lon="5.59953">
        <ele>142</ele>
        <time>2018-11-04T02:15:11Z</time>
      </trkpt>
      <trkpt lat="50.6963" lon="5.59787">
        <ele>140</ele>
        <time>2018-11-04T02:16:11Z</time>
      </trkpt>
      <trkpt lat="50.69702" lon="5.59652">
        <ele>138</ele>
        <time>2018-11-04T02:17:11Z</time>
      </trkpt>
      <trkpt lat="50.6975" lon="5.59694">
        <ele>139</ele>
        <time>2018-11-04T02:18:11Z</time>
      </trkpt>
      <trkpt lat="50.69794" lon="5.59734">
        <ele>136</ele>
        <time>2018-11-04T02:19:11Z</time>
      </trkpt>
      <trkpt lat="50.69876" lon="5.59603">
        <ele>137</ele>
        <time>2018-11-04T02:20:11Z</time>
      </trkpt>
      <trkpt lat="50.6998" lon="5.59437">
        <ele>138</ele>
        <time>2018-11-04T02:21:11Z</time>
      </trkpt>
      <trkpt lat="50.70042" lon="5.59338">
        <ele>142</ele>
        <time>2018-11-04T02:22:11Z</time>
      </trkpt>
      <trkpt lat="50.70137" lon="5.59277">
        <ele>144</ele>
        <time>2018-11-04T02:23:11Z</time>
      </trkpt>
      <trkpt lat="50.70167" lon="5.5926">
        <ele>144</ele>
        <time>2018-11-04T02:24:11Z</time>
      </trkpt>
      <trkpt lat="50.70199" lon="5.59241">
        <ele>145</ele>
        <time>2018-11-04T02:25:11Z</time>
      </trkpt>
      <trkpt lat="50.7023" lon="5.59226">
        <ele>145</ele>
        <time>2018-11-04T02:26:11Z</time>
      </trkpt>
      <trkpt lat="50.70264" lon="5.59213">
        <ele>146</ele>
        <time>2018-11-04T02:27:11Z</time>
      </trkpt>
      <trkpt lat="50.70331" lon="5.59212">
        <ele>147</ele>
        <time>2018-11-04T02:28:11Z</time>
      </trkpt>
      <trkpt lat="50.70417" lon="5.59201">
        <ele>149</ele>
        <time>2018-11-04T02:29:11Z</time>
      </trkpt>
      <trkpt lat="50.70462" lon="5.59177">
        <ele>150</ele>
        <time>2018-11-04T02:30:11Z</time>
      </trkpt>
      <trkpt lat="50.70505" lon="5.59138">
        <ele>151</ele>
        <time>2018-11-04T02:31:11Z</time>
      </trkpt>
      <trkpt lat="50.7054" lon="5.59104">
        <ele>151</ele>
        <time>2018-11-04T02:32:11Z</time>
      </trkpt>
      <trkpt lat="50.7057" lon="5.5907">
        <ele>152</ele>
        <time>2018-11-04T02:33:11Z</time>
      </trkpt>
      <trkpt lat="50.70616" lon="5.59025">
        <ele>153</ele>
        <time>2018-11-04T02:34:11Z</time>
      </trkpt>
      <trkpt lat="50.70802" lon="5.58845">
        <ele>160</ele>
        <time>2018-11-04T02:35:11Z</time>
      </trkpt>
      <trkpt lat="50.70826" lon="5.58825">
        <ele>160</ele>
        <time>2018-11-04T02:36:11Z</time>
      </trkpt>
      <trkpt lat="50.70871" lon="5.58805">
        <ele>160</ele>
        <time>2018-11-04T02:37:11Z</time>
      </trkpt>
      <trkpt lat="50.70932" lon="5.58791">
        <ele>159</ele>
        <time>2018-11-04T02:38:11Z</time>
      </trkpt>
      <trkpt lat="50.70969" lon="5.58801">
        <ele>158</ele>
        <time>2018-11-04T02:39:11Z</time>
      </trkpt>
      <trkpt lat="50.71" lon="5.58829">
        <ele>157</ele>
        <time>2018-11-04T02:40:11Z</time>
      </trkpt>
      <trkpt lat="50.71047" lon="5.5888">
        <ele>157</ele>
        <time>2018-11-04T02:41:11Z</time>
      </trkpt>
      <trkpt lat="50.71076" lon="5.58913">
        <ele>157</ele>
        <time>2018-11-04T02:42:11Z</time>
      </trkpt>
      <trkpt lat="50.71087" lon="5.58912">
        <ele>157</ele>
        <time>2018-11-04T02:43:11Z</time>
      </trkpt>
      <trkpt lat="50.71099" lon="5.58893">
        <ele>158</ele>
        <time>2018-11-04T02:44:11Z</time>
      </trkpt>
      <trkpt lat="50.71142" lon="5.58769">
        <ele>163</ele>
        <time>2018-11-04T02:45:11Z</time>
      </trkpt>
      <trkpt lat="50.71154" lon="5.58736">
        <ele>164</ele>
        <time>2018-11-04T02:46:11Z</time>
      </trkpt>
      <trkpt lat="50.71179" lon="5.58624">
        <ele>165</ele>
        <time>2018-11-04T02:47:11Z</time>
      </trkpt>
      <trkpt lat="50.71196" lon="5.58556">
        <ele>165</ele>
        <time>2018-11-04T02:48:11Z</time>
      </trkpt>
      <trkpt lat="50.71225" lon="5.58465">
        <ele>164</ele>
        <time>2018-11-04T02:49:11Z</time>
      </trkpt>
      <trkpt lat="50.7123" lon="5.58435">
        <ele>164</ele>
        <time>2018-11-04T02:50:11Z</time>
      </trkpt>
      <trkpt lat="50.7127" lon="5.58503">
        <ele>165</ele>
        <time>2018-11-04T02:51:11Z</time>
      </trkpt>
      <trkpt lat="50.7135" lon="5.58636">
        <ele>166</ele>
        <time>2018-11-04T02:52:11Z</time>
      </trkpt>
      <trkpt lat="50.71372" lon="5.58667">
        <ele>166</ele>
        <time>2018-11-04T02:53:11Z</time>
      </trkpt>
      <trkpt lat="50.71403" lon="5.58706">
        <ele>166</ele>
        <time>2018-11-04T02:54:11Z</time>
      </trkpt>
      <trkpt lat="50.71487" lon="5.58806">
        <ele>165</ele>
        <time>2018-11-04T02:55:11Z</time>
      </trkpt>
      <trkpt lat="50.71558" lon="5.58889">
        <ele>164</ele>
        <time>2018-11-04T02:56:11Z</time>
      </trkpt>
      <trkpt lat="50.7171" lon="5.59069">
        <ele>160</ele>
        <time>2018-11-04T02:57:11Z</time>
      </trkpt>
      <trkpt lat="50.71755" lon="5.59122">
        <ele>160</ele>
        <time>2018-11-04T02:58:11Z</time>
      </trkpt>
      <trkpt lat="50.71834" lon="5.59213">
        <ele>160</ele>
        <time>2018-11-04T02:59:11Z</time>
      </trkpt>
      <trkpt lat="50.71886" lon="5.59261">
        <ele>161</ele>
        <time>2018-11-04T03:00:11Z</time>
      </trkpt>
      <trkpt lat="50.71924" lon="5.59294">
        <ele>161</ele>
        <time>2018-11-04T03:01:11Z</time>
      </trkpt>
      <trkpt lat="50.72017" lon="5.59374">
        <ele>162</ele>
        <time>2018-11-04T03:02:11Z</time>
      </trkpt>
      <trkpt lat="50.72036" lon="5.59397">
        <ele>162</ele>
        <time>2018-11-04T03:03:11Z</time>
      </trkpt>
      <trkpt lat="50.72065" lon="5.5944">
        <ele>162</ele>
        <time>2018-11-04T03:04:11Z</time>
      </trkpt>
      <trkpt lat="50.72125" lon="5.59536">
        <ele>163</ele>
        <time>2018-11-04T03:05:11Z</time>
      </trkpt>
      <trkpt lat="50.72152" lon="5.59583">
        <ele>164</ele>
        <time>2018-11-04T03:06:11Z</time>
      </trkpt>
      <trkpt lat="50.72216" lon="5.59689">
        <ele>164</ele>
        <time>2018-11-04T03:07:11Z</time>
      </trkpt>
      <trkpt lat="50.72258" lon="5.59758">
        <ele>165</ele>
        <time>2018-11-04T03:08:11Z</time>
      </trkpt>
      <trkpt lat="50.72299" lon="5.59817">
        <ele>163</ele>
        <time>2018-11-04T03:09:11Z</time>
      </trkpt>
      <trkpt lat="50.72319" lon="5.59841">
        <ele>162</ele>
        <time>2018-11-04T03:10:11Z</time>
      </trkpt>
      <trkpt lat="50.72334" lon="5.59856">
        <ele>162</ele>
        <time>2018-11-04T03:11:11Z</time>
      </trkpt>
      <trkpt lat="50.72352" lon="5.59865">
        <ele>162</ele>
        <time>2018-11-04T03:12:11Z</time>
      </trkpt>
      <trkpt lat="50.72371" lon="5.59869">
        <ele>162</ele>
        <time>2018-11-04T03:13:11Z</time>
      </trkpt>
      <trkpt lat="50.72387" lon="5.59868">
        <ele>162</ele>
        <time>2018-11-04T03:14:11Z</time>
      </trkpt>
      <trkpt lat="50.72453" lon="5.59853">
        <ele>160</ele>
        <time>2018-11-04T03:15:11Z</time>
      </trkpt>
      <trkpt lat="50.72573" lon="5.59827">
        <ele>157</ele>
        <time>2018-11-04T03:16:11Z</time>
      </trkpt>
      <trkpt lat="50.72746" lon="5.59788">
        <ele>155</ele>
        <time>2018-11-04T03:17:11Z</time>
      </trkpt>
      <trkpt lat="50.72761" lon="5.59784">
        <ele>155</ele>
        <time>2018-11-04T03:18:11Z</time>
      </trkpt>
      <trkpt lat="50.72805" lon="5.59766">
        <ele>155</ele>
        <time>2018-11-04T03:19:11Z</time>
      </trkpt>
      <trkpt lat="50.72855" lon="5.59737">
        <ele>154</ele>
        <time>2018-11-04T03:20:11Z</time>
      </trkpt>
      <trkpt lat="50.72988" lon="5.59665">
        <ele>150</ele>
        <time>2018-11-04T03:21:11Z</time>
      </trkpt>
      <trkpt lat="50.73305" lon="5.59492">
        <ele>147</ele>
        <time>2018-11-04T03:22:11Z</time>
      </trkpt>
      <trkpt lat="50.73407" lon="5.59437">
        <ele>145</ele>
        <time>2018-11-04T03:23:11Z</time>
      </trkpt>
      <trkpt lat="50.73427" lon="5.59514">
        <ele>146</ele>
        <time>2018-11-04T03:24:11Z</time>
      </trkpt>
      <trkpt lat="50.73464" lon="5.5967">
        <ele>150</ele>
        <time>2018-11-04T03:25:11Z</time>
      </trkpt>
      <trkpt lat="50.73521" lon="5.59923">
        <ele>153</ele>
        <time>2018-11-04T03:26:11Z</time>
      </trkpt>
      <trkpt lat="50.73539" lon="5.60016">
        <ele>154</ele>
        <time>2018-11-04T03:27:11Z</time>
      </trkpt>
      <trkpt lat="50.73559" lon="5.60181">
        <ele>153</ele>
        <time>2018-11-04T03:28:11Z</time>
      </trkpt>
      <trkpt lat="50.73581" lon="5.60339">
        <ele>151</ele>
        <time>2018-11-04T03:29:11Z</time>
      </trkpt>
      <trkpt lat="50.73588" lon="5.60392">
        <ele>151</ele>
        <time>2018-11-04T03:30:11Z</time>
      </trkpt>
      <trkpt lat="50.73599" lon="5.60489">
        <ele>151</ele>
        <time>2018-11-04T03:31:11Z</time>
      </trkpt>
      <trkpt lat="50.73642" lon="5.60685">
        <ele>152</ele>
        <time>2018-11-04T03:32:11Z</time>
      </trkpt>
      <trkpt lat="50.73663" lon="5.6072">
        <ele>151</ele>
        <time>2018-11-04T03:33:11Z</time>
      </trkpt>
      <trkpt lat="50.73684" lon="5.60754">
        <ele>151</ele>
        <time>2018-11-04T03:34:11Z</time>
      </trkpt>
      <trkpt lat="50.73704" lon="5.60792">
        <ele>152</ele>
        <time>2018-11-04T03:35:11Z</time>
      </trkpt>
      <trkpt lat="50.73716" lon="5.60818">
        <ele>152</ele>
        <time>2018-11-04T03:36:11Z</time>
      </trkpt>
      <trkpt lat="50.73727" lon="5.60846">
        <ele>152</ele>
        <time>2018-11-04T03:37:11Z</time>
      </trkpt>
      <trkpt lat="50.73757" lon="5.60922">
        <ele>150</ele>
        <time>2018-11-04T03:38:11Z</time>
      </trkpt>
      <trkpt lat="50.73788" lon="5.60998">
        <ele>149</ele>
        <time>2018-11-04T03:39:11Z</time>
      </trkpt>
      <trkpt lat="50.73827" lon="5.61088">
        <ele>147</ele>
        <time>2018-11-04T03:40:11Z</time>
      </trkpt>
      <trkpt lat="50.73844" lon="5.61113">
        <ele>147</ele>
        <time>2018-11-04T03:41:11Z</time>
      </trkpt>
      <trkpt lat="50.73873" lon="5.61129">
        <ele>146</ele>
        <time>2018-11-04T03:42:11Z</time>
      </trkpt>
      <trkpt lat="50.73925" lon="5.61147">
        <ele>145</ele>
        <time>2018-11-04T03:43:11Z</time>
      </trkpt>
      <trkpt lat="50.73947" lon="5.61152">
        <ele>144</ele>
        <time>2018-11-04T03:44:11Z</time>
      </trkpt>
      <trkpt lat="50.73968" lon="5.6117">
        <ele>144</ele>
        <time>2018-11-04T03:45:11Z</time>
      </trkpt>
      <trkpt lat="50.73986" lon="5.6119">
        <ele>143</ele>
        <time>2018-11-04T03:46:11Z</time>
      </trkpt>
      <trkpt lat="50.74002" lon="5.61217">
        <ele>143</ele>
        <time>2018-11-04T03:47:11Z</time>
      </trkpt>
      <trkpt lat="50.74054" lon="5.61284">
        <ele>142</ele>
        <time>2018-11-04T03:48:11Z</time>
      </trkpt>
      <trkpt lat="50.741" lon="5.61328">
        <ele>142</ele>
        <time>2018-11-04T03:49:11Z</time>
      </trkpt>
      <trkpt lat="50.74121" lon="5.61347">
        <ele>142</ele>
        <time>2018-11-04T03:50:11Z</time>
      </trkpt>
      <trkpt lat="50.74155" lon="5.6137">
        <ele>142</ele>
        <time>2018-11-04T03:51:11Z</time>
      </trkpt>
      <trkpt lat="50.74226" lon="5.61416">
        <ele>141</ele>
        <time>2018-11-04T03:52:11Z</time>
      </trkpt>
      <trkpt lat="50.74238" lon="5.61425">
        <ele>140</ele>
        <time>2018-11-04T03:53:11Z</time>
      </trkpt>
      <trkpt lat="50.74254" lon="5.61404">
        <ele>139</ele>
        <time>2018-11-04T03:54:11Z</time>
      </trkpt>
      <trkpt lat="50.74304" lon="5.61341">
        <ele>136</ele>
        <time>2018-11-04T03:55:11Z</time>
      </trkpt>
      <trkpt lat="50.74336" lon="5.61313">
        <ele>135</ele>
        <time>2018-11-04T03:56:11Z</time>
      </trkpt>
      <trkpt lat="50.74392" lon="5.61282">
        <ele>132</ele>
        <time>2018-11-04T03:57:11Z</time>
      </trkpt>
      <trkpt lat="50.74412" lon="5.61273">
        <ele>131</ele>
        <time>2018-11-04T03:58:11Z</time>
      </trkpt>
      <trkpt lat="50.74443" lon="5.61259">
        <ele>130</ele>
        <time>2018-11-04T03:59:11Z</time>
      </trkpt>
      <trkpt lat="50.74529" lon="5.61225">
        <ele>126</ele>
        <time>2018-11-04T04:00:11Z</time>
      </trkpt>
      <trkpt lat="50.74601" lon="5.61197">
        <ele>124</ele>
        <time>2018-11-04T04:01:11Z</time>
      </trkpt>
      <trkpt lat="50.74627" lon="5.61195">
        <ele>124</ele>
        <time>2018-11-04T04:02:11Z</time>
      </trkpt>
      <trkpt lat="50.74651" lon="5.61195">
        <ele>123</ele>
        <time>2018-11-04T04:03:11Z</time>
      </trkpt>
      <trkpt lat="50.7476" lon="5.61203">
        <ele>118</ele>
        <time>2018-11-04T04:04:11Z</time>
      </trkpt>
      <trkpt lat="50.74897" lon="5.61217">
        <ele>112</ele>
        <time>2018-11-04T04:05:11Z</time>
      </trkpt>
      <trkpt lat="50.75025" lon="5.61231">
        <ele>103</ele>
        <time>2018-11-04T04:06:11Z</time>
      </trkpt>
      <trkpt lat="50.75051" lon="5.61234">
        <ele>101</ele>
        <time>2018-11-04T04:07:11Z</time>
      </trkpt>
      <trkpt lat="50.75073" lon="5.61229">
        <ele>99</ele>
        <time>2018-11-04T04:08:11Z</time>
      </trkpt>
      <trkpt lat="50.75103" lon="5.61224">
        <ele>98</ele>
        <time>2018-11-04T04:09:11Z</time>
      </trkpt>
      <trkpt lat="50.75161" lon="5.61199">
        <ele>97</ele>
        <time>2018-11-04T04:10:11Z</time>
      </trkpt>
      <trkpt lat="50.75214" lon="5.61179">
        <ele>92</ele>
        <time>2018-11-04T04:11:11Z</time>
      </trkpt>
      <trkpt lat="50.75241" lon="5.61174">
        <ele>89</ele>
        <time>2018-11-04T04:12:11Z</time>
      </trkpt>
      <trkpt lat="50.75266" lon="5.61175">
        <ele>88</ele>
        <time>2018-11-04T04:13:11Z</time>
      </trkpt>
      <trkpt lat="50.75344" lon="5.61183">
        <ele>86</ele>
        <time>2018-11-04T04:14:11Z</time>
      </trkpt>
      <trkpt lat="50.75414" lon="5.61192">
        <ele>85</ele>
        <time>2018-11-04T04:15:11Z</time>
      </trkpt>
      <trkpt lat="50.75505" lon="5.61202">
        <ele>83</ele>
        <time>2018-11-04T04:16:11Z</time>
      </trkpt>
      <trkpt lat="50.75566" lon="5.61206">
        <ele>82</ele>
        <time>2018-11-04T04:17:11Z</time>
      </trkpt>
      <trkpt lat="50.75625" lon="5.61204">
        <ele>80</ele>
        <time>2018-11-04T04:18:11Z</time>
      </trkpt>
      <trkpt lat="50.75641" lon="5.61198">
        <ele>79</ele>
        <time>2018-11-04T04:19:11Z</time>
      </trkpt>
      <trkpt lat="50.7566" lon="5.61192">
        <ele>78</ele>
        <time>2018-11-04T04:20:11Z</time>
      </trkpt>
      <trkpt lat="50.75698" lon="5.61156">
        <ele>76</ele>
        <time>2018-11-04T04:21:11Z</time>
      </trkpt>
      <trkpt lat="50.75726" lon="5.61128">
        <ele>75</ele>
        <time>2018-11-04T04:22:11Z</time>
      </trkpt>
      <trkpt lat="50.75742" lon="5.61155">
        <ele>74</ele>
        <time>2018-11-04T04:23:11Z</time>
      </trkpt>
      <trkpt lat="50.7583" lon="5.61323">
        <ele>71</ele>
        <time>2018-11-04T04:24:11Z</time>
      </trkpt>
      <trkpt lat="50.7594" lon="5.61531">
        <ele>74</ele>
        <time>2018-11-04T04:25:11Z</time>
      </trkpt>
      <trkpt lat="50.76048" lon="5.6174">
        <ele>72</ele>
        <time>2018-11-04T04:26:11Z</time>
      </trkpt>
      <trkpt lat="50.76151" lon="5.61953">
        <ele>73</ele>
        <time>2018-11-04T04:27:11Z</time>
      </trkpt>
      <trkpt lat="50.76267" lon="5.62191">
        <ele>71</ele>
        <time>2018-11-04T04:28:11Z</time>
      </trkpt>
      <trkpt lat="50.76354" lon="5.62369">
        <ele>70</ele>
        <time>2018-11-04T04:29:11Z</time>
      </trkpt>
      <trkpt lat="50.76386" lon="5.62447">
        <ele>71</ele>
        <time>2018-11-04T04:30:11Z</time>
      </trkpt>
      <trkpt lat="50.76415" lon="5.62545">
        <ele>71</ele>
        <time>2018-11-04T04:31:11Z</time>
      </trkpt>
      <trkpt lat="50.76505" lon="5.62945">
        <ele>68</ele>
        <time>2018-11-04T04:32:11Z</time>
      </trkpt>
      <trkpt lat="50.76533" lon="5.63058">
        <ele>69</ele>
        <time>2018-11-04T04:33:11Z</time>
      </trkpt>
      <trkpt lat="50.76594" lon="5.63286">
        <ele>70</ele>
        <time>2018-11-04T04:34:11Z</time>
      </trkpt>
      <trkpt lat="50.76631" lon="5.6342">
        <ele>69</ele>
        <time>2018-11-04T04:35:11Z</time>
      </trkpt>
      <trkpt lat="50.7664" lon="5.63452">
        <ele>69</ele>
        <time>2018-11-04T04:36:11Z</time>
      </trkpt>
      <trkpt lat="50.76668" lon="5.63526">
        <ele>70</ele>
        <time>2018-11-04T04:37:11Z</time>
      </trkpt>
      <trkpt lat="50.76692" lon="5.63597">
        <ele>70</ele>
        <time>2018-11-04T04:38:11Z</time>
      </trkpt>
      <trkpt lat="50.76811" lon="5.63986">
        <ele>68</ele>
        <time>2018-11-04T04:39:11Z</time>
      </trkpt>
      <trkpt lat="50.76833" lon="5.64053">
        <ele>68</ele>
        <time>2018-11-04T04:40:11Z</time>
      </trkpt>
      <trkpt lat="50.76851" lon="5.64084">
        <ele>68</ele>
        <time>2018-11-04T04:41:11Z</time>
      </trkpt>
      <trkpt lat="50.76951" lon="5.64179">
        <ele>69</ele>
        <time>2018-11-04T04:42:11Z</time>
      </trkpt>
      <trkpt lat="50.77003" lon="5.64231">
        <ele>70</ele>
        <time>2018-11-04T04:43:11Z</time>
      </trkpt>
      <trkpt lat="50.77048" lon="5.64289">
        <ele>72</ele>
        <time>2018-11-04T04:44:11Z</time>
      </trkpt>
      <trkpt lat="50.77083" lon="5.64357">
        <ele>72</ele>
        <time>2018-11-04T04:45:11Z</time>
      </trkpt>
      <trkpt lat="50.77094" lon="5.6439">
        <ele>73</ele>
        <time>2018-11-04T04:46:11Z</time>
      </trkpt>
      <trkpt lat="50.77105" lon="5.64431">
        <ele>74</ele>
        <time>2018-11-04T04:47:11Z</time>
      </trkpt>
      <trkpt lat="50.77114" lon="5.64472">
        <ele>75</ele>
        <time>2018-11-04T04:48:11Z</time>
      </trkpt>
      <trkpt lat="50.77118" lon="5.64508">
        <ele>75</ele>
        <time>2018-11-04T04:49:11Z</time>
      </trkpt>
      <trkpt lat="50.77132" lon="5.64658">
        <ele>71</ele>
        <time>2018-11-04T04:50:11Z</time>
      </trkpt>
      <trkpt lat="50.77157" lon="5.64928">
        <ele>69</ele>
        <time>2018-11-04T04:51:11Z</time>
      </trkpt>
      <trkpt lat="50.77184" lon="5.65248">
        <ele>69</ele>
        <time>2018-11-04T04:52:11Z</time>
      </trkpt>
      <trkpt lat="50.7719" lon="5.65311">
        <ele>69</ele>
        <time>2018-11-04T04:53:11Z</time>
      </trkpt>
      <trkpt lat="50.77196" lon="5.65357">
        <ele>69</ele>
        <time>2018-11-04T04:54:11Z</time>
      </trkpt>
      <trkpt lat="50.77203" lon="5.65405">
        <ele>70</ele>
        <time>2018-11-04T04:55:11Z</time>
      </trkpt>
      <trkpt lat="50.77213" lon="5.65445">
        <ele>70</ele>
        <time>2018-11-04T04:56:11Z</time>
      </trkpt>
      <trkpt lat="50.77227" lon="5.65487">
        <ele>70</ele>
        <time>2018-11-04T04:57:11Z</time>
      </trkpt>
      <trkpt lat="50.77287" lon="5.65669">
        <ele>68</ele>
        <time>2018-11-04T04:58:11Z</time>
      </trkpt>
      <trkpt lat="50.77311" lon="5.65719">
        <ele>69</ele>
        <time>2018-11-04T04:59:11Z</time>
      </trkpt>
      <trkpt lat="50.77333" lon="5.65758">
        <ele>69</ele>
        <time>2018-11-04T05:00:11Z</time>
      </trkpt>
      <trkpt lat="50.77379" lon="5.6582">
        <ele>71</ele>
        <time>2018-11-04T05:01:11Z</time>
      </trkpt>
      <trkpt lat="50.77416" lon="5.65857">
        <ele>74</ele>
        <time>2018-11-04T05:02:11Z</time>
      </trkpt>
      <trkpt lat="50.77451" lon="5.65888">
        <ele>77</ele>
        <time>2018-11-04T05:03:11Z</time>
      </trkpt>
      <trkpt lat="50.77483" lon="5.65902">
        <ele>78</ele>
        <time>2018-11-04T05:04:11Z</time>
      </trkpt>
      <trkpt lat="50.77517" lon="5.65902">
        <ele>78</ele>
        <time>2018-11-04T05:05:11Z</time>
      </trkpt>
      <trkpt lat="50.77598" lon="5.65891">
        <ele>77</ele>
        <time>2018-11-04T05:06:11Z</time>
      </trkpt>
      <trkpt lat="50.77664" lon="5.65877">
        <ele>75</ele>
        <time>2018-11-04T05:07:11Z</time>
      </trkpt>
      <trkpt lat="50.77686" lon="5.65861">
        <ele>72</ele>
        <time>2018-11-04T05:08:11Z</time>
      </trkpt>
      <trkpt lat="50.77703" lon="5.65841">
        <ele>69</ele>
        <time>2018-11-04T05:09:11Z</time>
      </trkpt>
      <trkpt lat="50.77724" lon="5.65804">
        <ele>67</ele>
        <time>2018-11-04T05:10:11Z</time>
      </trkpt>
      <trkpt lat="50.77742" lon="5.65777">
        <ele>66</ele>
        <time>2018-11-04T05:11:11Z</time>
      </trkpt>
      <trkpt lat="50.77761" lon="5.65749">
        <ele>66</ele>
        <time>2018-11-04T05:12:11Z</time>
      </trkpt>
      <trkpt lat="50.77776" lon="5.65731">
        <ele>66</ele>
        <time>2018-11-04T05:13:11Z</time>
      </trkpt>
      <trkpt lat="50.77796" lon="5.65718">
        <ele>66</ele>
        <time>2018-11-04T05:14:11Z</time>
      </trkpt>
      <trkpt lat="50.77834" lon="5.65712">
        <ele>66</ele>
        <time>2018-11-04T05:15:11Z</time>
      </trkpt>
      <trkpt lat="50.77852" lon="5.65714">
        <ele>67</ele>
        <time>2018-11-04T05:16:11Z</time>
      </trkpt>
      <trkpt lat="50.77862" lon="5.65739">
        <ele>66</ele>
        <time>2018-11-04T05:17:11Z</time>
      </trkpt>
      <trkpt lat="50.77882" lon="5.65739">
        <ele>66</ele>
        <time>2018-11-04T05:18:11Z</time>
      </trkpt>
      <trkpt lat="50.77891" lon="5.65711">
        <ele>67</ele>
        <time>2018-11-04T05:19:11Z</time>
      </trkpt>
      <trkpt lat="50.77873" lon="5.6568">
        <ele>68</ele>
        <time>2018-11-04T05:20:11Z</time>
      </trkpt>
      <trkpt lat="50.77874" lon="5.65532">
        <ele>69</ele>
        <time>2018-11-04T05:21:11Z</time>
      </trkpt>
      <trkpt lat="50.77876" lon="5.65365">
        <ele>72</ele>
        <time>2018-11-04T05:22:11Z</time>
      </trkpt>
      <trkpt lat="50.77878" lon="5.65161">
        <ele>86</ele>
        <time>2018-11-04T05:23:11Z</time>
      </trkpt>
      <trkpt lat="50.77881" lon="5.64991">
        <ele>87</ele>
        <time>2018-11-04T05:24:11Z</time>
      </trkpt>
      <trkpt lat="50.77877" lon="5.64935">
        <ele>86</ele>
        <time>2018-11-04T05:25:11Z</time>
      </trkpt>
      <trkpt lat="50.77873" lon="5.64887">
        <ele>85</ele>
        <time>2018-11-04T05:26:11Z</time>
      </trkpt>
      <trkpt lat="50.77866" lon="5.6484">
        <ele>83</ele>
        <time>2018-11-04T05:27:11Z</time>
      </trkpt>
      <trkpt lat="50.77831" lon="5.64697">
        <ele>76</ele>
        <time>2018-11-04T05:28:11Z</time>
      </trkpt>
      <trkpt lat="50.77806" lon="5.64588">
        <ele>77</ele>
        <time>2018-11-04T05:29:11Z</time>
      </trkpt>
      <trkpt lat="50.77793" lon="5.64489">
        <ele>77</ele>
        <time>2018-11-04T05:30:11Z</time>
      </trkpt>
      <trkpt lat="50.77788" lon="5.64402">
        <ele>76</ele>
        <time>2018-11-04T05:31:11Z</time>
      </trkpt>
      <trkpt lat="50.77788" lon="5.64347">
        <ele>77</ele>
        <time>2018-11-04T05:32:11Z</time>
      </trkpt>
      <trkpt lat="50.77793" lon="5.64292">
        <ele>77</ele>
        <time>2018-11-04T05:33:11Z</time>
      </trkpt>
      <trkpt lat="50.77798" lon="5.64249">
        <ele>77</ele>
        <time>2018-11-04T05:34:11Z</time>
      </trkpt>
      <trkpt lat="50.7781" lon="5.64186">
        <ele>76</ele>
        <time>2018-11-04T05:35:11Z</time>
      </trkpt>
      <trkpt lat="50.77825" lon="5.64125">
        <ele>75</ele>
        <time>2018-11-04T05:36:11Z</time>
      </trkpt>
      <trkpt lat="50.77856" lon="5.64046">
        <ele>74</ele>
        <time>2018-11-04T05:37:11Z</time>
      </trkpt>
      <trkpt lat="50.7789" lon="5.63975">
        <ele>74</ele>
        <time>2018-11-04T05:38:11Z</time>
      </trkpt>
      <trkpt lat="50.77904" lon="5.63951">
        <ele>75</ele>
        <time>2018-11-04T05:39:11Z</time>
      </trkpt>
      <trkpt lat="50.77944" lon="5.63892">
        <ele>79</ele>
        <time>2018-11-04T05:40:11Z</time>
      </trkpt>
      <trkpt lat="50.7799" lon="5.63841">
        <ele>80</ele>
        <time>2018-11-04T05:41:11Z</time>
      </trkpt>
      <trkpt lat="50.78039" lon="5.63801">
        <ele>82</ele>
        <time>2018-11-04T05:42:11Z</time>
      </trkpt>
      <trkpt lat="50.78091" lon="5.63773">
        <ele>82</ele>
        <time>2018-11-04T05:43:11Z</time>
      </trkpt>
      <trkpt lat="50.78238" lon="5.63713">
        <ele>86</ele>
        <time>2018-11-04T05:44:11Z</time>
      </trkpt>
      <trkpt lat="50.78277" lon="5.63696">
        <ele>86</ele>
        <time>2018-11-04T05:45:11Z</time>
      </trkpt>
      <trkpt lat="50.78314" lon="5.63686">
        <ele>87</ele>
        <time>2018-11-04T05:46:11Z</time>
      </trkpt>
      <trkpt lat="50.78356" lon="5.6368">
        <ele>89</ele>
        <time>2018-11-04T05:47:11Z</time>
      </trkpt>
      <trkpt lat="50.78412" lon="5.63683">
        <ele>91</ele>
        <time>2018-11-04T05:48:11Z</time>
      </trkpt>
      <trkpt lat="50.78467" lon="5.63696">
        <ele>92</ele>
        <time>2018-11-04T05:49:11Z</time>
      </trkpt>
      <trkpt lat="50.78487" lon="5.63703">
        <ele>93</ele>
        <time>2018-11-04T05:50:11Z</time>
      </trkpt>
      <trkpt lat="50.78531" lon="5.63726">
        <ele>94</ele>
        <time>2018-11-04T05:51:11Z</time>
      </trkpt>
      <trkpt lat="50.78549" lon="5.63737">
        <ele>94</ele>
        <time>2018-11-04T05:52:11Z</time>
      </trkpt>
      <trkpt lat="50.7858" lon="5.63762">
        <ele>93</ele>
        <time>2018-11-04T05:53:11Z</time>
      </trkpt>
      <trkpt lat="50.78603" lon="5.63782">
        <ele>93</ele>
        <time>2018-11-04T05:54:11Z</time>
      </trkpt>
      <trkpt lat="50.78615" lon="5.63795">
        <ele>93</ele>
        <time>2018-11-04T05:55:11Z</time>
      </trkpt>
      <trkpt lat="50.78627" lon="5.63808">
        <ele>92</ele>
        <time>2018-11-04T05:56:11Z</time>
      </trkpt>
      <trkpt lat="50.78639" lon="5.63821">
        <ele>92</ele>
        <time>2018-11-04T05:57:11Z</time>
      </trkpt>
      <trkpt lat="50.7865" lon="5.63835">
        <ele>91</ele>
        <time>2018-11-04T05:58:11Z</time>
      </trkpt>
      <trkpt lat="50.78661" lon="5.63848">
        <ele>91</ele>
        <time>2018-11-04T05:59:11Z</time>
      </trkpt>
      <trkpt lat="50.78674" lon="5.63866">
        <ele>91</ele>
        <time>2018-11-04T06:00:11Z</time>
      </trkpt>
      <trkpt lat="50.78687" lon="5.63886">
        <ele>91</ele>
        <time>2018-11-04T06:01:11Z</time>
      </trkpt>
      <trkpt lat="50.78743" lon="5.63978">
        <ele>94</ele>
        <time>2018-11-04T06:02:11Z</time>
      </trkpt>
      <trkpt lat="50.78759" lon="5.64005">
        <ele>94</ele>
        <time>2018-11-04T06:03:11Z</time>
      </trkpt>
      <trkpt lat="50.78773" lon="5.64025">
        <ele>94</ele>
        <time>2018-11-04T06:04:11Z</time>
      </trkpt>
      <trkpt lat="50.78788" lon="5.64043">
        <ele>95</ele>
        <time>2018-11-04T06:05:11Z</time>
      </trkpt>
      <trkpt lat="50.78806" lon="5.64063">
        <ele>97</ele>
        <time>2018-11-04T06:06:11Z</time>
      </trkpt>
      <trkpt lat="50.78832" lon="5.64088">
        <ele>101</ele>
        <time>2018-11-04T06:07:11Z</time>
      </trkpt>
      <trkpt lat="50.78842" lon="5.64097">
        <ele>101</ele>
        <time>2018-11-04T06:08:11Z</time>
      </trkpt>
      <trkpt lat="50.78859" lon="5.64112">
        <ele>103</ele>
        <time>2018-11-04T06:09:11Z</time>
      </trkpt>
      <trkpt lat="50.78874" lon="5.64122">
        <ele>104</ele>
        <time>2018-11-04T06:10:11Z</time>
      </trkpt>
      <trkpt lat="50.78895" lon="5.64134">
        <ele>105</ele>
        <time>2018-11-04T06:11:11Z</time>
      </trkpt>
      <trkpt lat="50.78909" lon="5.64143">
        <ele>106</ele>
        <time>2018-11-04T06:12:11Z</time>
      </trkpt>
      <trkpt lat="50.78926" lon="5.64163">
        <ele>107</ele>
        <time>2018-11-04T06:13:11Z</time>
      </trkpt>
      <trkpt lat="50.78935" lon="5.64177">
        <ele>107</ele>
        <time>2018-11-04T06:14:11Z</time>
      </trkpt>
      <trkpt lat="50.78947" lon="5.64191">
        <ele>108</ele>
        <time>2018-11-04T06:15:11Z</time>
      </trkpt>
      <trkpt lat="50.78965" lon="5.64176">
        <ele>109</ele>
        <time>2018-11-04T06:16:11Z</time>
      </trkpt>
      <trkpt lat="50.78965" lon="5.64144">
        <ele>109</ele>
        <time>2018-11-04T06:17:11Z</time>
      </trkpt>
      <trkpt lat="50.78966" lon="5.64128">
        <ele>109</ele>
        <time>2018-11-04T06:18:11Z</time>
      </trkpt>
      <trkpt lat="50.78967" lon="5.64112">
        <ele>109</ele>
        <time>2018-11-04T06:19:11Z</time>
      </trkpt>
      <trkpt lat="50.78974" lon="5.64083">
        <ele>110</ele>
        <time>2018-11-04T06:20:11Z</time>
      </trkpt>
      <trkpt lat="50.78982" lon="5.64052">
        <ele>109</ele>
        <time>2018-11-04T06:21:11Z</time>
      </trkpt>
      <trkpt lat="50.79005" lon="5.63945">
        <ele>107</ele>
        <time>2018-11-04T06:22:11Z</time>
      </trkpt>
      <trkpt lat="50.79028" lon="5.63826">
        <ele>105</ele>
        <time>2018-11-04T06:23:11Z</time>
      </trkpt>
      <trkpt lat="50.79032" lon="5.63815">
        <ele>104</ele>
        <time>2018-11-04T06:24:11Z</time>
      </trkpt>
      <trkpt lat="50.79035" lon="5.63793">
        <ele>104</ele>
        <time>2018-11-04T06:25:11Z</time>
      </trkpt>
      <trkpt lat="50.79039" lon="5.6377">
        <ele>103</ele>
        <time>2018-11-04T06:26:11Z</time>
      </trkpt>
      <trkpt lat="50.79046" lon="5.63734">
        <ele>102</ele>
        <time>2018-11-04T06:27:11Z</time>
      </trkpt>
      <trkpt lat="50.79109" lon="5.63446">
        <ele>93</ele>
        <time>2018-11-04T06:28:11Z</time>
      </trkpt>
      <trkpt lat="50.79116" lon="5.63414">
        <ele>92</ele>
        <time>2018-11-04T06:29:11Z</time>
      </trkpt>
      <trkpt lat="50.7917" lon="5.63168">
        <ele>86</ele>
        <time>2018-11-04T06:30:11Z</time>
      </trkpt>
      <trkpt lat="50.79189" lon="5.63103">
        <ele>87</ele>
        <time>2018-11-04T06:31:11Z</time>
      </trkpt>
      <trkpt lat="50.7921" lon="5.63054">
        <ele>88</ele>
        <time>2018-11-04T06:32:11Z</time>
      </trkpt>
      <trkpt lat="50.79267" lon="5.62967">
        <ele>89</ele>
        <time>2018-11-04T06:33:11Z</time>
      </trkpt>
      <trkpt lat="50.79294" lon="5.62912">
        <ele>89</ele>
        <time>2018-11-04T06:34:11Z</time>
      </trkpt>
      <trkpt lat="50.79308" lon="5.62872">
        <ele>89</ele>
        <time>2018-11-04T06:35:11Z</time>
      </trkpt>
      <trkpt lat="50.7931" lon="5.62861">
        <ele>89</ele>
        <time>2018-11-04T06:36:11Z</time>
      </trkpt>
      <trkpt lat="50.79322" lon="5.62806">
        <ele>90</ele>
        <time>2018-11-04T06:37:11Z</time>
      </trkpt>
      <trkpt lat="50.79327" lon="5.6276">
        <ele>90</ele>
        <time>2018-11-04T06:38:11Z</time>
      </trkpt>
      <trkpt lat="50.79332" lon="5.62664">
        <ele>91</ele>
        <time>2018-11-04T06:39:11Z</time>
      </trkpt>
      <trkpt lat="50.79333" lon="5.62484">
        <ele>88</ele>
        <time>2018-11-04T06:40:11Z</time>
      </trkpt>
      <trkpt lat="50.79334" lon="5.62424">
        <ele>88</ele>
        <time>2018-11-04T06:41:11Z</time>
      </trkpt>
      <trkpt lat="50.79345" lon="5.62368">
        <ele>89</ele>
        <time>2018-11-04T06:42:11Z</time>
      </trkpt>
      <trkpt lat="50.79359" lon="5.62321">
        <ele>90</ele>
        <time>2018-11-04T06:43:11Z</time>
      </trkpt>
      <trkpt lat="50.79384" lon="5.62239">
        <ele>89</ele>
        <time>2018-11-04T06:44:11Z</time>
      </trkpt>
      <trkpt lat="50.79479" lon="5.62045">
        <ele>91</ele>
        <time>2018-11-04T06:45:11Z</time>
      </trkpt>
      <trkpt lat="50.79559" lon="5.61877">
        <ele>92</ele>
        <time>2018-11-04T06:46:11Z</time>
      </trkpt>
      <trkpt lat="50.79582" lon="5.6183">
        <ele>93</ele>
        <time>2018-11-04T06:47:11Z</time>
      </trkpt>
      <trkpt lat="50.79735" lon="5.61506">
        <ele>98</ele>
        <time>2018-11-04T06:48:11Z</time>
      </trkpt>
      <trkpt lat="50.79762" lon="5.61446">
        <ele>98</ele>
        <time>2018-11-04T06:49:11Z</time>
      </trkpt>
      <trkpt lat="50.79789" lon="5.61392">
        <ele>96</ele>
        <time>2018-11-04T06:50:11Z</time>
      </trkpt>
      <trkpt lat="50.79841" lon="5.61284">
        <ele>93</ele>
        <time>2018-11-04T06:51:11Z</time>
      </trkpt>
      <trkpt lat="50.7985" lon="5.61263">
        <ele>93</ele>
        <time>2018-11-04T06:52:11Z</time>
      </trkpt>
      <trkpt lat="50.79871" lon="5.61224">
        <ele>93</ele>
        <time>2018-11-04T06:53:11Z</time>
      </trkpt>
      <trkpt lat="50.79887" lon="5.61196">
        <ele>93</ele>
        <time>2018-11-04T06:54:11Z</time>
      </trkpt>
      <trkpt lat="50.79928" lon="5.61135">
        <ele>94</ele>
        <time>2018-11-04T06:55:11Z</time>
      </trkpt>
      <trkpt lat="50.79952" lon="5.61105">
        <ele>94</ele>
        <time>2018-11-04T06:56:11Z</time>
      </trkpt>
      <trkpt lat="50.80001" lon="5.61052">
        <ele>95</ele>
        <time>2018-11-04T06:57:11Z</time>
      </trkpt>
      <trkpt lat="50.80361" lon="5.60668">
        <ele>99</ele>
        <time>2018-11-04T06:58:11Z</time>
      </trkpt>
      <trkpt lat="50.8038" lon="5.60647">
        <ele>98</ele>
        <time>2018-11-04T06:59:11Z</time>
      </trkpt>
      <trkpt lat="50.80387" lon="5.6064">
        <ele>98</ele>
        <time>2018-11-04T07:00:11Z</time>
      </trkpt>
      <trkpt lat="50.80401" lon="5.60628">
        <ele>97</ele>
        <time>2018-11-04T07:01:11Z</time>
      </trkpt>
      <trkpt lat="50.80416" lon="5.60617">
        <ele>97</ele>
        <time>2018-11-04T07:02:11Z</time>
      </trkpt>
      <trkpt lat="50.80444" lon="5.60589">
        <ele>95</ele>
        <time>2018-11-04T07:03:11Z</time>
      </trkpt>
      <trkpt lat="50.80457" lon="5.60577">
        <ele>94</ele>
        <time>2018-11-04T07:04:11Z</time>
      </trkpt>
      <trkpt lat="50.80482" lon="5.6055">
        <ele>93</ele>
        <time>2018-11-04T07:05:11Z</time>
      </trkpt>
      <trkpt lat="50.80489" lon="5.6053">
        <ele>92</ele>
        <time>2018-11-04T07:06:11Z</time>
      </trkpt>
      <trkpt lat="50.8048" lon="5.60508">
        <ele>92</ele>
        <time>2018-11-04T07:07:11Z</time>
      </trkpt>
      <trkpt lat="50.80467" lon="5.60495">
        <ele>93</ele>
        <time>2018-11-04T07:08:11Z</time>
      </trkpt>
      <trkpt lat="50.80431" lon="5.60452">
        <ele>93</ele>
        <time>2018-11-04T07:09:11Z</time>
      </trkpt>
      <trkpt lat="50.80411" lon="5.60424">
        <ele>93</ele>
        <time>2018-11-04T07:10:11Z</time>
      </trkpt>
      <trkpt lat="50.80395" lon="5.60411">
        <ele>93</ele>
        <time>2018-11-04T07:11:11Z</time>
      </trkpt>
      <trkpt lat="50.80369" lon="5.60389">
        <ele>93</ele>
        <time>2018-11-04T07:12:11Z</time>
      </trkpt>
      <trkpt lat="50.8027" lon="5.60313">
        <ele>92</ele>
        <time>2018-11-04T07:13:11Z</time>
      </trkpt>
      <trkpt lat="50.80239" lon="5.60288">
        <ele>92</ele>
        <time>2018-11-04T07:14:11Z</time>
      </trkpt>
      <trkpt lat="50.80203" lon="5.60257">
        <ele>93</ele>
        <time>2018-11-04T07:15:11Z</time>
      </trkpt>
      <trkpt lat="50.80176" lon="5.60226">
        <ele>93</ele>
        <time>2018-11-04T07:16:11Z</time>
      </trkpt>
      <trkpt lat="50.80147" lon="5.6019">
        <ele>92</ele>
        <time>2018-11-04T07:17:11Z</time>
      </trkpt>
      <trkpt lat="50.80103" lon="5.60124">
        <ele>93</ele>
        <time>2018-11-04T07:18:11Z</time>
      </trkpt>
      <trkpt lat="50.80066" lon="5.60052">
        <ele>93</ele>
        <time>2018-11-04T07:19:11Z</time>
      </trkpt>
      <trkpt lat="50.79966" lon="5.59818">
        <ele>94</ele>
        <time>2018-11-04T07:20:11Z</time>
      </trkpt>
      <trkpt lat="50.79933" lon="5.59743">
        <ele>95</ele>
        <time>2018-11-04T07:21:11Z</time>
      </trkpt>
      <trkpt lat="50.79898" lon="5.59666">
        <ele>94</ele>
        <time>2018-11-04T07:22:11Z</time>
      </trkpt>
      <trkpt lat="50.79865" lon="5.59598">
        <ele>94</ele>
        <time>2018-11-04T07:23:11Z</time>
      </trkpt>
      <trkpt lat="50.7983" lon="5.59531">
        <ele>92</ele>
        <time>2018-11-04T07:24:11Z</time>
      </trkpt>
      <trkpt lat="50.79757" lon="5.59416">
        <ele>93</ele>
        <time>2018-11-04T07:25:11Z</time>
      </trkpt>
      <trkpt lat="50.79636" lon="5.59222">
        <ele>94</ele>
        <time>2018-11-04T07:26:11Z</time>
      </trkpt>
      <trkpt lat="50.79552" lon="5.59087">
        <ele>96</ele>
        <time>2018-11-04T07:27:11Z</time>
      </trkpt>
      <trkpt lat="50.79522" lon="5.59032">
        <ele>95</ele>
        <time>2018-11-04T07:28:11Z</time>
      </trkpt>
      <trkpt lat="50.79499" lon="5.58986">
        <ele>95</ele>
        <time>2018-11-04T07:29:11Z</time>
      </trkpt>
      <trkpt lat="50.79468" lon="5.58918">
        <ele>96</ele>
        <time>2018-11-04T07:30:11Z</time>
      </trkpt>
      <trkpt lat="50.79436" lon="5.58835">
        <ele>96</ele>
        <time>2018-11-04T07:31:11Z</time>
      </trkpt>
      <trkpt lat="50.79413" lon="5.58767">
        <ele>97</ele>
        <time>2018-11-04T07:32:11Z</time>
      </trkpt>
      <trkpt lat="50.79376" lon="5.58627">
        <ele>98</ele>
        <time>2018-11-04T07:33:11Z</time>
      </trkpt>
      <trkpt lat="50.79368" lon="5.58593">
        <ele>98</ele>
        <time>2018-11-04T07:34:11Z</time>
      </trkpt>
      <trkpt lat="50.79357" lon="5.58528">
        <ele>98</ele>
        <time>2018-11-04T07:35:11Z</time>
      </trkpt>
      <trkpt lat="50.79347" lon="5.58441">
        <ele>98</ele>
        <time>2018-11-04T07:36:11Z</time>
      </trkpt>
      <trkpt lat="50.79339" lon="5.58352">
        <ele>96</ele>
        <time>2018-11-04T07:37:11Z</time>
      </trkpt>
      <trkpt lat="50.79334" lon="5.58331">
        <ele>95</ele>
        <time>2018-11-04T07:38:11Z</time>
      </trkpt>
      <trkpt lat="50.7933" lon="5.58307">
        <ele>95</ele>
        <time>2018-11-04T07:39:11Z</time>
      </trkpt>
      <trkpt lat="50.79319" lon="5.58246">
        <ele>94</ele>
        <time>2018-11-04T07:40:11Z</time>
      </trkpt>
      <trkpt lat="50.79307" lon="5.58201">
        <ele>95</ele>
        <time>2018-11-04T07:41:11Z</time>
      </trkpt>
      <trkpt lat="50.79289" lon="5.5815">
        <ele>95</ele>
        <time>2018-11-04T07:42:11Z</time>
      </trkpt>
      <trkpt lat="50.79271" lon="5.58115">
        <ele>96</ele>
        <time>2018-11-04T07:43:11Z</time>
      </trkpt>
      <trkpt lat="50.79247" lon="5.58094">
        <ele>96</ele>
        <time>2018-11-04T07:44:11Z</time>
      </trkpt>
      <trkpt lat="50.79213" lon="5.58066">
        <ele>96</ele>
        <time>2018-11-04T07:45:11Z</time>
      </trkpt>
      <trkpt lat="50.79187" lon="5.58045">
        <ele>97</ele>
        <time>2018-11-04T07:46:11Z</time>
      </trkpt>
      <trkpt lat="50.79161" lon="5.58018">
        <ele>98</ele>
        <time>2018-11-04T07:47:11Z</time>
      </trkpt>
      <trkpt lat="50.79142" lon="5.57992">
        <ele>98</ele>
        <time>2018-11-04T07:48:11Z</time>
      </trkpt>
      <trkpt lat="50.79127" lon="5.57965">
        <ele>98</ele>
        <time>2018-11-04T07:49:11Z</time>
      </trkpt>
      <trkpt lat="50.79091" lon="5.57901">
        <ele>98</ele>
        <time>2018-11-04T07:50:11Z</time>
      </trkpt>
      <trkpt lat="50.79065" lon="5.57853">
        <ele>98</ele>
        <time>2018-11-04T07:51:11Z</time>
      </trkpt>
      <trkpt lat="50.7892" lon="5.57584">
        <ele>100</ele>
        <time>2018-11-04T07:52:11Z</time>
      </trkpt>
      <trkpt lat="50.78886" lon="5.57518">
        <ele>99</ele>
        <time>2018-11-04T07:53:11Z</time>
      </trkpt>
      <trkpt lat="50.7886" lon="5.57469">
        <ele>100</ele>
        <time>2018-11-04T07:54:11Z</time>
      </trkpt>
      <trkpt lat="50.78827" lon="5.57402">
        <ele>100</ele>
        <time>2018-11-04T07:55:11Z</time>
      </trkpt>
      <trkpt lat="50.78794" lon="5.57333">
        <ele>99</ele>
        <time>2018-11-04T07:56:11Z</time>
      </trkpt>
      <trkpt lat="50.78762" lon="5.57265">
        <ele>101</ele>
        <time>2018-11-04T07:57:11Z</time>
      </trkpt>
      <trkpt lat="50.78754" lon="5.57248">
        <ele>101</ele>
        <time>2018-11-04T07:58:11Z</time>
      </trkpt>
      <trkpt lat="50.78723" lon="5.57175">
        <ele>100</ele>
        <time>2018-11-04T07:59:11Z</time>
      </trkpt>
      <trkpt lat="50.78695" lon="5.57101">
        <ele>101</ele>
        <time>2018-11-04T08:00:11Z</time>
      </trkpt>
      <trkpt lat="50.7868" lon="5.57054">
        <ele>101</ele>
        <time>2018-11-04T08:01:11Z</time>
      </trkpt>
      <trkpt lat="50.78661" lon="5.56994">
        <ele>101</ele>
        <time>2018-11-04T08:02:11Z</time>
      </trkpt>
      <trkpt lat="50.78656" lon="5.56946">
        <ele>101</ele>
        <time>2018-11-04T08:03:11Z</time>
      </trkpt>
      <trkpt lat="50.78634" lon="5.56866">
        <ele>102</ele>
        <time>2018-11-04T08:04:11Z</time>
      </trkpt>
      <trkpt lat="50.7861" lon="5.56784">
        <ele>103</ele>
        <time>2018-11-04T08:05:11Z</time>
      </trkpt>
      <trkpt lat="50.78585" lon="5.56699">
        <ele>103</ele>
        <time>2018-11-04T08:06:11Z</time>
      </trkpt>
      <trkpt lat="50.78572" lon="5.56663">
        <ele>103</ele>
        <time>2018-11-04T08:07:11Z</time>
      </trkpt>
      <trkpt lat="50.7855" lon="5.56623">
        <ele>103</ele>
        <time>2018-11-04T08:08:11Z</time>
      </trkpt>
      <trkpt lat="50.78534" lon="5.56594">
        <ele>104</ele>
        <time>2018-11-04T08:09:11Z</time>
      </trkpt>
      <trkpt lat="50.7851" lon="5.56562">
        <ele>104</ele>
        <time>2018-11-04T08:10:11Z</time>
      </trkpt>
      <trkpt lat="50.78479" lon="5.56509">
        <ele>104</ele>
        <time>2018-11-04T08:11:11Z</time>
      </trkpt>
      <trkpt lat="50.78459" lon="5.56468">
        <ele>105</ele>
        <time>2018-11-04T08:12:11Z</time>
      </trkpt>
      <trkpt lat="50.78426" lon="5.56401">
        <ele>106</ele>
        <time>2018-11-04T08:13:11Z</time>
      </trkpt>
      <trkpt lat="50.78401" lon="5.56349">
        <ele>106</ele>
        <time>2018-11-04T08:14:11Z</time>
      </trkpt>
      <trkpt lat="50.78364" lon="5.56273">
        <ele>107</ele>
        <time>2018-11-04T08:15:11Z</time>
      </trkpt>
      <trkpt lat="50.78339" lon="5.56219">
        <ele>108</ele>
        <time>2018-11-04T08:16:11Z</time>
      </trkpt>
      <trkpt lat="50.78329" lon="5.56184">
        <ele>108</ele>
        <time>2018-11-04T08:17:11Z</time>
      </trkpt>
      <trkpt lat="50.7831" lon="5.56155">
        <ele>108</ele>
        <time>2018-11-04T08:18:11Z</time>
      </trkpt>
      <trkpt lat="50.78285" lon="5.56111">
        <ele>109</ele>
        <time>2018-11-04T08:19:11Z</time>
      </trkpt>
      <trkpt lat="50.78249" lon="5.56056">
        <ele>109</ele>
        <time>2018-11-04T08:20:11Z</time>
      </trkpt>
      <trkpt lat="50.78213" lon="5.5598">
        <ele>110</ele>
        <time>2018-11-04T08:21:11Z</time>
      </trkpt>
      <trkpt lat="50.78199" lon="5.55948">
        <ele>111</ele>
        <time>2018-11-04T08:22:11Z</time>
      </trkpt>
      <trkpt lat="50.78187" lon="5.55923">
        <ele>111</ele>
        <time>2018-11-04T08:23:11Z</time>
      </trkpt>
      <trkpt lat="50.78177" lon="5.55889">
        <ele>111</ele>
        <time>2018-11-04T08:24:11Z</time>
      </trkpt>
      <trkpt lat="50.78126" lon="5.55707">
        <ele>113</ele>
        <time>2018-11-04T08:25:11Z</time>
      </trkpt>
      <trkpt lat="50.78106" lon="5.55635">
        <ele>114</ele>
        <time>2018-11-04T08:26:11Z</time>
      </trkpt>
      <trkpt lat="50.78085" lon="5.55599">
        <ele>115</ele>
        <time>2018-11-04T08:27:11Z</time>
      </trkpt>
      <trkpt lat="50.78063" lon="5.55567">
        <ele>116</ele>
        <time>2018-11-04T08:28:11Z</time>
      </trkpt>
      <trkpt lat="50.77996" lon="5.55472">
        <ele>118</ele>
        <time>2018-11-04T08:29:11Z</time>
      </trkpt>
      <trkpt lat="50.77965" lon="5.55424">
        <ele>118</ele>
        <time>2018-11-04T08:30:11Z</time>
      </trkpt>
      <trkpt lat="50.7795" lon="5.55395">
        <ele>117</ele>
        <time>2018-11-04T08:31:11Z</time>
      </trkpt>
      <trkpt lat="50.77934" lon="5.55347">
        <ele>116</ele>
        <time>2018-11-04T08:32:11Z</time>
      </trkpt>
      <trkpt lat="50.77922" lon="5.55308">
        <ele>115</ele>
        <time>2018-11-04T08:33:11Z</time>
      </trkpt>
      <trkpt lat="50.77899" lon="5.5523">
        <ele>116</ele>
        <time>2018-11-04T08:34:11Z</time>
      </trkpt>
      <trkpt lat="50.7789" lon="5.55195">
        <ele>115</ele>
        <time>2018-11-04T08:35:11Z</time>
      </trkpt>
      <trkpt lat="50.7788" lon="5.55165">
        <ele>115</ele>
        <time>2018-11-04T08:36:11Z</time>
      </trkpt>
      <trkpt lat="50.77862" lon="5.55109">
        <ele>114</ele>
        <time>2018-11-04T08:37:11Z</time>
      </trkpt>
      <trkpt lat="50.77838" lon="5.55049">
        <ele>112</ele>
        <time>2018-11-04T08:38:11Z</time>
      </trkpt>
      <trkpt lat="50.77818" lon="5.55001">
        <ele>111</ele>
        <time>2018-11-04T08:39:11Z</time>
      </trkpt>
      <trkpt lat="50.77793" lon="5.5496">
        <ele>111</ele>
        <time>2018-11-04T08:40:11Z</time>
      </trkpt>
      <trkpt lat="50.77771" lon="5.54935">
        <ele>111</ele>
        <time>2018-11-04T08:41:11Z</time>
      </trkpt>
      <trkpt lat="50.77746" lon="5.54913">
        <ele>110</ele>
        <time>2018-11-04T08:42:11Z</time>
      </trkpt>
      <trkpt lat="50.77623" lon="5.54819">
        <ele>108</ele>
        <time>2018-11-04T08:43:11Z</time>
      </trkpt>
      <trkpt lat="50.77571" lon="5.5478">
        <ele>109</ele>
        <time>2018-11-04T08:44:11Z</time>
      </trkpt>
      <trkpt lat="50.77527" lon="5.54745">
        <ele>108</ele>
        <time>2018-11-04T08:45:11Z</time>
      </trkpt>
      <trkpt lat="50.77499" lon="5.54719">
        <ele>108</ele>
        <time>2018-11-04T08:46:11Z</time>
      </trkpt>
      <trkpt lat="50.77479" lon="5.54694">
        <ele>107</ele>
        <time>2018-11-04T08:47:11Z</time>
      </trkpt>
      <trkpt lat="50.77308" lon="5.54483">
        <ele>102</ele>
        <time>2018-11-04T08:48:11Z</time>
      </trkpt>
      <trkpt lat="50.77289" lon="5.54458">
        <ele>102</ele>
        <time>2018-11-04T08:49:11Z</time>
      </trkpt>
      <trkpt lat="50.77249" lon="5.54402">
        <ele>101</ele>
        <time>2018-11-04T08:50:11Z</time>
      </trkpt>
      <trkpt lat="50.77224" lon="5.54362">
        <ele>102</ele>
        <time>2018-11-04T08:51:11Z</time>
      </trkpt>
      <trkpt lat="50.77185" lon="5.54288">
        <ele>102</ele>
        <time>2018-11-04T08:52:11Z</time>
      </trkpt>
      <trkpt lat="50.77078" lon="5.54072">
        <ele>99</ele>
        <time>2018-11-04T08:53:11Z</time>
      </trkpt>
      <trkpt lat="50.77056" lon="5.5403">
        <ele>98</ele>
        <time>2018-11-04T08:54:11Z</time>
      </trkpt>
      <trkpt lat="50.77036" lon="5.54002">
        <ele>98</ele>
        <time>2018-11-04T08:55:11Z</time>
      </trkpt>
      <trkpt lat="50.76964" lon="5.53933">
        <ele>101</ele>
        <time>2018-11-04T08:56:11Z</time>
      </trkpt>
      <trkpt lat="50.76947" lon="5.53915">
        <ele>102</ele>
        <time>2018-11-04T08:57:11Z</time>
      </trkpt>
      <trkpt lat="50.76923" lon="5.53867">
        <ele>102</ele>
        <time>2018-11-04T08:58:11Z</time>
      </trkpt>
      <trkpt lat="50.76901" lon="5.53815">
        <ele>102</ele>
        <time>2018-11-04T08:59:11Z</time>
      </trkpt>
      <trkpt lat="50.76872" lon="5.53748">
        <ele>103</ele>
        <time>2018-11-04T09:00:11Z</time>
      </trkpt>
      <trkpt lat="50.76835" lon="5.53673">
        <ele>102</ele>
        <time>2018-11-04T09:01:11Z</time>
      </trkpt>
      <trkpt lat="50.76775" lon="5.53559">
        <ele>101</ele>
        <time>2018-11-04T09:02:11Z</time>
      </trkpt>
      <trkpt lat="50.76766" lon="5.53542">
        <ele>101</ele>
        <time>2018-11-04T09:03:11Z</time>
      </trkpt>
      <trkpt lat="50.76755" lon="5.53521">
        <ele>100</ele>
        <time>2018-11-04T09:04:11Z</time>
      </trkpt>
      <trkpt lat="50.7673" lon="5.53484">
        <ele>100</ele>
        <time>2018-11-04T09:05:11Z</time>
      </trkpt>
      <trkpt lat="50.7671" lon="5.53454">
        <ele>100</ele>
        <time>2018-11-04T09:06:11Z</time>
      </trkpt>
      <trkpt lat="50.76639" lon="5.53343">
        <ele>100</ele>
        <time>2018-11-04T09:07:11Z</time>
      </trkpt>
      <trkpt lat="50.76611" lon="5.53297">
        <ele>99</ele>
        <time>2018-11-04T09:08:11Z</time>
      </trkpt>
      <trkpt lat="50.76561" lon="5.53202">
        <ele>95</ele>
        <time>2018-11-04T09:09:11Z</time>
      </trkpt>
      <trkpt lat="50.76542" lon="5.53164">
        <ele>93</ele>
        <time>2018-11-04T09:10:11Z</time>
      </trkpt>
      <trkpt lat="50.76531" lon="5.53144">
        <ele>92</ele>
        <time>2018-11-04T09:11:11Z</time>
      </trkpt>
      <trkpt lat="50.76522" lon="5.53142">
        <ele>92</ele>
        <time>2018-11-04T09:12:11Z</time>
      </trkpt>
      <trkpt lat="50.76498" lon="5.53123">
        <ele>91</ele>
        <time>2018-11-04T09:13:11Z</time>
      </trkpt>
      <trkpt lat="50.76457" lon="5.5309">
        <ele>89</ele>
        <time>2018-11-04T09:14:11Z</time>
      </trkpt>
      <trkpt lat="50.76396" lon="5.53037">
        <ele>88</ele>
        <time>2018-11-04T09:15:11Z</time>
      </trkpt>
      <trkpt lat="50.76371" lon="5.53012">
        <ele>88</ele>
        <time>2018-11-04T09:16:11Z</time>
      </trkpt>
      <trkpt lat="50.76327" lon="5.52965">
        <ele>88</ele>
        <time>2018-11-04T09:17:11Z</time>
      </trkpt>
      <trkpt lat="50.7631" lon="5.52946">
        <ele>89</ele>
        <time>2018-11-04T09:18:11Z</time>
      </trkpt>
      <trkpt lat="50.76327" lon="5.52922">
        <ele>86</ele>
        <time>2018-11-04T09:19:11Z</time>
      </trkpt>
      <trkpt lat="50.76357" lon="5.52878">
        <ele>84</ele>
        <time>2018-11-04T09:20:11Z</time>
      </trkpt>
      <trkpt lat="50.76391" lon="5.52828">
        <ele>84</ele>
        <time>2018-11-04T09:21:11Z</time>
      </trkpt>
      <trkpt lat="50.76396" lon="5.52811">
        <ele>84</ele>
        <time>2018-11-04T09:22:11Z</time>
      </trkpt>
      <trkpt lat="50.76395" lon="5.52792">
        <ele>84</ele>
        <time>2018-11-04T09:23:11Z</time>
      </trkpt>
      <trkpt lat="50.76386" lon="5.52768">
        <ele>84</ele>
        <time>2018-11-04T09:24:11Z</time>
      </trkpt>
      <trkpt lat="50.76376" lon="5.52743">
        <ele>84</ele>
        <time>2018-11-04T09:25:11Z</time>
      </trkpt>
      <trkpt lat="50.76362" lon="5.52704">
        <ele>85</ele>
        <time>2018-11-04T09:26:11Z</time>
      </trkpt>
      <trkpt lat="50.76367" lon="5.52681">
        <ele>85</ele>
        <time>2018-11-04T09:27:11Z</time>
      </trkpt>
      <trkpt lat="50.76369" lon="5.52662">
        <ele>86</ele>
        <time>2018-11-04T09:28:11Z</time>
      </trkpt>
      <trkpt lat="50.76372" lon="5.52626">
        <ele>87</ele>
        <time>2018-11-04T09:29:11Z</time>
      </trkpt>
      <trkpt lat="50.7637" lon="5.52593">
        <ele>88</ele>
        <time>2018-11-04T09:30:11Z</time>
      </trkpt>
      <trkpt lat="50.76366" lon="5.52561">
        <ele>88</ele>
        <time>2018-11-04T09:31:11Z</time>
      </trkpt>
      <trkpt lat="50.76357" lon="5.52536">
        <ele>88</ele>
        <time>2018-11-04T09:32:11Z</time>
      </trkpt>
      <trkpt lat="50.76342" lon="5.52513">
        <ele>88</ele>
        <time>2018-11-04T09:33:11Z</time>
      </trkpt>
      <trkpt lat="50.7633" lon="5.52491">
        <ele>88</ele>
        <time>2018-11-04T09:34:11Z</time>
      </trkpt>
      <trkpt lat="50.76317" lon="5.52442">
        <ele>90</ele>
        <time>2018-11-04T09:35:11Z</time>
      </trkpt>
      <trkpt lat="50.76301" lon="5.52362">
        <ele>92</ele>
        <time>2018-11-04T09:36:11Z</time>
      </trkpt>
      <trkpt lat="50.76297" lon="5.5234">
        <ele>93</ele>
        <time>2018-11-04T09:37:11Z</time>
      </trkpt>
      <trkpt lat="50.76294" lon="5.52318">
        <ele>93</ele>
        <time>2018-11-04T09:38:11Z</time>
      </trkpt>
      <trkpt lat="50.76292" lon="5.52254">
        <ele>93</ele>
        <time>2018-11-04T09:39:11Z</time>
      </trkpt>
      <trkpt lat="50.76291" lon="5.52224">
        <ele>93</ele>
        <time>2018-11-04T09:40:11Z</time>
      </trkpt>
      <trkpt lat="50.7629" lon="5.52206">
        <ele>93</ele>
        <time>2018-11-04T09:41:11Z</time>
      </trkpt>
      <trkpt lat="50.76283" lon="5.52184">
        <ele>93</ele>
        <time>2018-11-04T09:42:11Z</time>
      </trkpt>
      <trkpt lat="50.76271" lon="5.52155">
        <ele>93</ele>
        <time>2018-11-04T09:43:11Z</time>
      </trkpt>
      <trkpt lat="50.76254" lon="5.52113">
        <ele>93</ele>
        <time>2018-11-04T09:44:11Z</time>
      </trkpt>
      <trkpt lat="50.762" lon="5.51982">
        <ele>93</ele>
        <time>2018-11-04T09:45:11Z</time>
      </trkpt>
      <trkpt lat="50.76148" lon="5.51851">
        <ele>94</ele>
        <time>2018-11-04T09:46:11Z</time>
      </trkpt>
      <trkpt lat="50.76118" lon="5.51772">
        <ele>95</ele>
        <time>2018-11-04T09:47:11Z</time>
      </trkpt>
      <trkpt lat="50.76091" lon="5.51689">
        <ele>97</ele>
        <time>2018-11-04T09:48:11Z</time>
      </trkpt>
      <trkpt lat="50.76089" lon="5.51674">
        <ele>97</ele>
        <time>2018-11-04T09:49:11Z</time>
      </trkpt>
      <trkpt lat="50.76095" lon="5.51659">
        <ele>97</ele>
        <time>2018-11-04T09:50:11Z</time>
      </trkpt>
      <trkpt lat="50.76132" lon="5.5157">
        <ele>100</ele>
        <time>2018-11-04T09:51:11Z</time>
      </trkpt>
      <trkpt lat="50.76149" lon="5.51524">
        <ele>99</ele>
        <time>2018-11-04T09:52:11Z</time>
      </trkpt>
      <trkpt lat="50.76195" lon="5.51368">
        <ele>98</ele>
        <time>2018-11-04T09:53:11Z</time>
      </trkpt>
      <trkpt lat="50.76205" lon="5.51339">
        <ele>97</ele>
        <time>2018-11-04T09:54:11Z</time>
      </trkpt>
      <trkpt lat="50.76219" lon="5.51323">
        <ele>97</ele>
        <time>2018-11-04T09:55:11Z</time>
      </trkpt>
      <trkpt lat="50.76268" lon="5.51282">
        <ele>96</ele>
        <time>2018-11-04T09:56:11Z</time>
      </trkpt>
      <trkpt lat="50.76284" lon="5.51262">
        <ele>96</ele>
        <time>2018-11-04T09:57:11Z</time>
      </trkpt>
      <trkpt lat="50.76293" lon="5.51244">
        <ele>96</ele>
        <time>2018-11-04T09:58:11Z</time>
      </trkpt>
      <trkpt lat="50.76308" lon="5.5121">
        <ele>95</ele>
        <time>2018-11-04T09:59:11Z</time>
      </trkpt>
      <trkpt lat="50.76314" lon="5.51181">
        <ele>94</ele>
        <time>2018-11-04T10:00:11Z</time>
      </trkpt>
      <trkpt lat="50.76312" lon="5.51164">
        <ele>94</ele>
        <time>2018-11-04T10:01:11Z</time>
      </trkpt>
      <trkpt lat="50.76292" lon="5.51123">
        <ele>92</ele>
        <time>2018-11-04T10:02:11Z</time>
      </trkpt>
      <trkpt lat="50.76286" lon="5.51081">
        <ele>90</ele>
        <time>2018-11-04T10:03:11Z</time>
      </trkpt>
      <trkpt lat="50.76287" lon="5.51047">
        <ele>90</ele>
        <time>2018-11-04T10:04:11Z</time>
      </trkpt>
      <trkpt lat="50.76291" lon="5.51011">
        <ele>90</ele>
        <time>2018-11-04T10:05:11Z</time>
      </trkpt>
      <trkpt lat="50.76298" lon="5.50978">
        <ele>89</ele>
        <time>2018-11-04T10:06:11Z</time>
      </trkpt>
      <trkpt lat="50.76306" lon="5.50941">
        <ele>89</ele>
        <time>2018-11-04T10:07:11Z</time>
      </trkpt>
      <trkpt lat="50.76296" lon="5.50937">
        <ele>89</ele>
        <time>2018-11-04T10:08:11Z</time>
      </trkpt>
      <trkpt lat="50.76232" lon="5.50905">
        <ele>90</ele>
        <time>2018-11-04T10:09:11Z</time>
      </trkpt>
      <trkpt lat="50.76202" lon="5.50874">
        <ele>89</ele>
        <time>2018-11-04T10:10:11Z</time>
      </trkpt>
      <trkpt lat="50.76158" lon="5.50821">
        <ele>87</ele>
        <time>2018-11-04T10:11:11Z</time>
      </trkpt>
      <trkpt lat="50.76122" lon="5.5077">
        <ele>88</ele>
        <time>2018-11-04T10:12:11Z</time>
      </trkpt>
      <trkpt lat="50.76095" lon="5.50731">
        <ele>88</ele>
        <time>2018-11-04T10:13:11Z</time>
      </trkpt>
      <trkpt lat="50.76064" lon="5.50693">
        <ele>89</ele>
        <time>2018-11-04T10:14:11Z</time>
      </trkpt>
      <trkpt lat="50.76009" lon="5.50606">
        <ele>89</ele>
        <time>2018-11-04T10:15:11Z</time>
      </trkpt>
      <trkpt lat="50.75995" lon="5.50567">
        <ele>89</ele>
        <time>2018-11-04T10:16:11Z</time>
      </trkpt>
      <trkpt lat="50.75985" lon="5.50533">
        <ele>89</ele>
        <time>2018-11-04T10:17:11Z</time>
      </trkpt>
      <trkpt lat="50.7597" lon="5.5048">
        <ele>89</ele>
        <time>2018-11-04T10:18:11Z</time>
      </trkpt>
      <trkpt lat="50.75958" lon="5.50449">
        <ele>89</ele>
        <time>2018-11-04T10:19:11Z</time>
      </trkpt>
      <trkpt lat="50.75943" lon="5.50416">
        <ele>89</ele>
        <time>2018-11-04T10:20:11Z</time>
      </trkpt>
      <trkpt lat="50.75923" lon="5.50377">
        <ele>88</ele>
        <time>2018-11-04T10:21:11Z</time>
      </trkpt>
      <trkpt lat="50.75903" lon="5.50342">
        <ele>88</ele>
        <time>2018-11-04T10:22:11Z</time>
      </trkpt>
      <trkpt lat="50.7588" lon="5.5031">
        <ele>89</ele>
        <time>2018-11-04T10:23:11Z</time>
      </trkpt>
      <trkpt lat="50.75856" lon="5.50277">
        <ele>90</ele>
        <time>2018-11-04T10:24:11Z</time>
      </trkpt>
      <trkpt lat="50.75836" lon="5.50244">
        <ele>91</ele>
        <time>2018-11-04T10:25:11Z</time>
      </trkpt>
      <trkpt lat="50.75809" lon="5.50168">
        <ele>91</ele>
        <time>2018-11-04T10:26:11Z</time>
      </trkpt>
      <trkpt lat="50.75781" lon="5.50098">
        <ele>91</ele>
        <time>2018-11-04T10:27:11Z</time>
      </trkpt>
      <trkpt lat="50.75766" lon="5.50065">
        <ele>91</ele>
        <time>2018-11-04T10:28:11Z</time>
      </trkpt>
      <trkpt lat="50.75735" lon="5.50007">
        <ele>91</ele>
        <time>2018-11-04T10:29:11Z</time>
      </trkpt>
      <trkpt lat="50.75693" lon="5.49939">
        <ele>92</ele>
        <time>2018-11-04T10:30:11Z</time>
      </trkpt>
      <trkpt lat="50.75652" lon="5.4987">
        <ele>92</ele>
        <time>2018-11-04T10:31:11Z</time>
      </trkpt>
      <trkpt lat="50.7563" lon="5.49836">
        <ele>91</ele>
        <time>2018-11-04T10:32:11Z</time>
      </trkpt>
      <trkpt lat="50.75609" lon="5.49808">
        <ele>91</ele>
        <time>2018-11-04T10:33:11Z</time>
      </trkpt>
      <trkpt lat="50.7559" lon="5.49771">
        <ele>90</ele>
        <time>2018-11-04T10:34:11Z</time>
      </trkpt>
      <trkpt lat="50.75574" lon="5.49732">
        <ele>91</ele>
        <time>2018-11-04T10:35:11Z</time>
      </trkpt>
      <trkpt lat="50.75495" lon="5.49514">
        <ele>94</ele>
        <time>2018-11-04T10:36:11Z</time>
      </trkpt>
      <trkpt lat="50.75479" lon="5.49472">
        <ele>95</ele>
        <time>2018-11-04T10:37:11Z</time>
      </trkpt>
      <trkpt lat="50.75465" lon="5.49446">
        <ele>95</ele>
        <time>2018-11-04T10:38:11Z</time>
      </trkpt>
      <trkpt lat="50.75444" lon="5.49409">
        <ele>96</ele>
        <time>2018-11-04T10:39:11Z</time>
      </trkpt>
      <trkpt lat="50.75402" lon="5.49339">
        <ele>94</ele>
        <time>2018-11-04T10:40:11Z</time>
      </trkpt>
      <trkpt lat="50.75362" lon="5.49269">
        <ele>94</ele>
        <time>2018-11-04T10:41:11Z</time>
      </trkpt>
      <trkpt lat="50.75321" lon="5.492">
        <ele>95</ele>
        <time>2018-11-04T10:42:11Z</time>
      </trkpt>
      <trkpt lat="50.75283" lon="5.49133">
        <ele>96</ele>
        <time>2018-11-04T10:43:11Z</time>
      </trkpt>
      <trkpt lat="50.75263" lon="5.49093">
        <ele>96</ele>
        <time>2018-11-04T10:44:11Z</time>
      </trkpt>
      <trkpt lat="50.75248" lon="5.49059">
        <ele>97</ele>
        <time>2018-11-04T10:45:11Z</time>
      </trkpt>
      <trkpt lat="50.75226" lon="5.48999">
        <ele>97</ele>
        <time>2018-11-04T10:46:11Z</time>
      </trkpt>
      <trkpt lat="50.75176" lon="5.4887">
        <ele>98</ele>
        <time>2018-11-04T10:47:11Z</time>
      </trkpt>
      <trkpt lat="50.75163" lon="5.4885">
        <ele>98</ele>
        <time>2018-11-04T10:48:11Z</time>
      </trkpt>
      <trkpt lat="50.7515" lon="5.48811">
        <ele>98</ele>
        <time>2018-11-04T10:49:11Z</time>
      </trkpt>
      <trkpt lat="50.75126" lon="5.48716">
        <ele>99</ele>
        <time>2018-11-04T10:50:11Z</time>
      </trkpt>
      <trkpt lat="50.75089" lon="5.48573">
        <ele>103</ele>
        <time>2018-11-04T10:51:11Z</time>
      </trkpt>
      <trkpt lat="50.75075" lon="5.48506">
        <ele>104</ele>
        <time>2018-11-04T10:52:11Z</time>
      </trkpt>
      <trkpt lat="50.75071" lon="5.48453">
        <ele>104</ele>
        <time>2018-11-04T10:53:11Z</time>
      </trkpt>
      <trkpt lat="50.75063" lon="5.484">
        <ele>105</ele>
        <time>2018-11-04T10:54:11Z</time>
      </trkpt>
      <trkpt lat="50.75051" lon="5.48343">
        <ele>105</ele>
        <time>2018-11-04T10:55:11Z</time>
      </trkpt>
      <trkpt lat="50.75021" lon="5.48209">
        <ele>106</ele>
        <time>2018-11-04T10:56:11Z</time>
      </trkpt>
      <trkpt lat="50.75008" lon="5.48164">
        <ele>106</ele>
        <time>2018-11-04T10:57:11Z</time>
      </trkpt>
      <trkpt lat="50.74994" lon="5.48127">
        <ele>107</ele>
        <time>2018-11-04T10:58:11Z</time>
      </trkpt>
      <trkpt lat="50.74986" lon="5.48112">
        <ele>108</ele>
        <time>2018-11-04T10:59:11Z</time>
      </trkpt>
      <trkpt lat="50.74972" lon="5.48093">
        <ele>108</ele>
        <time>2018-11-04T11:00:11Z</time>
      </trkpt>
      <trkpt lat="50.74878" lon="5.47973">
        <ele>111</ele>
        <time>2018-11-04T11:01:11Z</time>
      </trkpt>
      <trkpt lat="50.74808" lon="5.47886">
        <ele>111</ele>
        <time>2018-11-04T11:02:11Z</time>
      </trkpt>
      <trkpt lat="50.74727" lon="5.4779">
        <ele>114</ele>
        <time>2018-11-04T11:03:11Z</time>
      </trkpt>
      <trkpt lat="50.74681" lon="5.47739">
        <ele>115</ele>
        <time>2018-11-04T11:04:11Z</time>
      </trkpt>
      <trkpt lat="50.74696" lon="5.47661">
        <ele>114</ele>
        <time>2018-11-04T11:05:11Z</time>
      </trkpt>
      <trkpt lat="50.74718" lon="5.47577">
        <ele>111</ele>
        <time>2018-11-04T11:06:11Z</time>
      </trkpt>
      <trkpt lat="50.74728" lon="5.47534">
        <ele>110</ele>
        <time>2018-11-04T11:07:11Z</time>
      </trkpt>
      <trkpt lat="50.74735" lon="5.47499">
        <ele>110</ele>
        <time>2018-11-04T11:08:11Z</time>
      </trkpt>
      <trkpt lat="50.74762" lon="5.47272">
        <ele>107</ele>
        <time>2018-11-04T11:09:11Z</time>
      </trkpt>
      <trkpt lat="50.74767" lon="5.47228">
        <ele>107</ele>
        <time>2018-11-04T11:10:11Z</time>
      </trkpt>
      <trkpt lat="50.74779" lon="5.47159">
        <ele>106</ele>
        <time>2018-11-04T11:11:11Z</time>
      </trkpt>
      <trkpt lat="50.74805" lon="5.47055">
        <ele>106</ele>
        <time>2018-11-04T11:12:11Z</time>
      </trkpt>
      <trkpt lat="50.74819" lon="5.4701">
        <ele>107</ele>
        <time>2018-11-04T11:13:11Z</time>
      </trkpt>
      <trkpt lat="50.74836" lon="5.46943">
        <ele>107</ele>
        <time>2018-11-04T11:14:11Z</time>
      </trkpt>
      <trkpt lat="50.74848" lon="5.46857">
        <ele>105</ele>
        <time>2018-11-04T11:15:11Z</time>
      </trkpt>
      <trkpt lat="50.7485" lon="5.46813">
        <ele>104</ele>
        <time>2018-11-04T11:16:11Z</time>
      </trkpt>
      <trkpt lat="50.74849" lon="5.46765">
        <ele>103</ele>
        <time>2018-11-04T11:17:11Z</time>
      </trkpt>
      <trkpt lat="50.74838" lon="5.4659">
        <ele>102</ele>
        <time>2018-11-04T11:18:11Z</time>
      </trkpt>
      <trkpt lat="50.74824" lon="5.46359">
        <ele>108</ele>
        <time>2018-11-04T11:19:11Z</time>
      </trkpt>
      <trkpt lat="50.74822" lon="5.46329">
        <ele>109</ele>
        <time>2018-11-04T11:20:11Z</time>
      </trkpt>
      <trkpt lat="50.74793" lon="5.46069">
        <ele>108</ele>
        <time>2018-11-04T11:21:11Z</time>
      </trkpt>
      <trkpt lat="50.74773" lon="5.46076">
        <ele>109</ele>
        <time>2018-11-04T11:22:11Z</time>
      </trkpt>
      <trkpt lat="50.74686" lon="5.46108">
        <ele>110</ele>
        <time>2018-11-04T11:23:11Z</time>
      </trkpt>
      <trkpt lat="50.74668" lon="5.46119">
        <ele>111</ele>
        <time>2018-11-04T11:24:11Z</time>
      </trkpt>
      <trkpt lat="50.74648" lon="5.46135">
        <ele>111</ele>
        <time>2018-11-04T11:25:11Z</time>
      </trkpt>
      <trkpt lat="50.74629" lon="5.46156">
        <ele>112</ele>
        <time>2018-11-04T11:26:11Z</time>
      </trkpt>
      <trkpt lat="50.7461" lon="5.46183">
        <ele>112</ele>
        <time>2018-11-04T11:27:11Z</time>
      </trkpt>
      <trkpt lat="50.74574" lon="5.46232">
        <ele>113</ele>
        <time>2018-11-04T11:28:11Z</time>
      </trkpt>
      <trkpt lat="50.7456" lon="5.46248">
        <ele>112</ele>
        <time>2018-11-04T11:29:11Z</time>
      </trkpt>
      <trkpt lat="50.74511" lon="5.46291">
        <ele>112</ele>
        <time>2018-11-04T11:30:11Z</time>
      </trkpt>
      <trkpt lat="50.74473" lon="5.46322">
        <ele>110</ele>
        <time>2018-11-04T11:31:11Z</time>
      </trkpt>
      <trkpt lat="50.74441" lon="5.46337">
        <ele>108</ele>
        <time>2018-11-04T11:32:11Z</time>
      </trkpt>
      <trkpt lat="50.74423" lon="5.46342">
        <ele>108</ele>
        <time>2018-11-04T11:33:11Z</time>
      </trkpt>
      <trkpt lat="50.74401" lon="5.46344">
        <ele>108</ele>
        <time>2018-11-04T11:34:11Z</time>
      </trkpt>
      <trkpt lat="50.74284" lon="5.46346">
        <ele>108</ele>
        <time>2018-11-04T11:35:11Z</time>
      </trkpt>
      <trkpt lat="50.74223" lon="5.46349">
        <ele>108</ele>
        <time>2018-11-04T11:36:11Z</time>
      </trkpt>
      <trkpt lat="50.74015" lon="5.46352">
        <ele>110</ele>
        <time>2018-11-04T11:37:11Z</time>
      </trkpt>
      <trkpt lat="50.73994" lon="5.46352">
        <ele>110</ele>
        <time>2018-11-04T11:38:11Z</time>
      </trkpt>
      <trkpt lat="50.73971" lon="5.46358">
        <ele>110</ele>
        <time>2018-11-04T11:39:11Z</time>
      </trkpt>
      <trkpt lat="50.73913" lon="5.46384">
        <ele>111</ele>
        <time>2018-11-04T11:40:11Z</time>
      </trkpt>
      <trkpt lat="50.73887" lon="5.46396">
        <ele>112</ele>
        <time>2018-11-04T11:41:11Z</time>
      </trkpt>
      <trkpt lat="50.73856" lon="5.46404">
        <ele>112</ele>
        <time>2018-11-04T11:42:11Z</time>
      </trkpt>
      <trkpt lat="50.73818" lon="5.46402">
        <ele>112</ele>
        <time>2018-11-04T11:43:11Z</time>
      </trkpt>
      <trkpt lat="50.73794" lon="5.46398">
        <ele>113</ele>
        <time>2018-11-04T11:44:11Z</time>
      </trkpt>
      <trkpt lat="50.73764" lon="5.46397">
        <ele>114</ele>
        <time>2018-11-04T11:45:11Z</time>
      </trkpt>
      <trkpt lat="50.73733" lon="5.46399">
        <ele>114</ele>
        <time>2018-11-04T11:46:11Z</time>
      </trkpt>
      <trkpt lat="50.73705" lon="5.46403">
        <ele>115</ele>
        <time>2018-11-04T11:47:11Z</time>
      </trkpt>
      <trkpt lat="50.7366" lon="5.46416">
        <ele>116</ele>
        <time>2018-11-04T11:48:11Z</time>
      </trkpt>
      <trkpt lat="50.73618" lon="5.46429">
        <ele>117</ele>
        <time>2018-11-04T11:49:11Z</time>
      </trkpt>
      <trkpt lat="50.73577" lon="5.46445">
        <ele>117</ele>
        <time>2018-11-04T11:50:11Z</time>
      </trkpt>
      <trkpt lat="50.73549" lon="5.46462">
        <ele>118</ele>
        <time>2018-11-04T11:51:11Z</time>
      </trkpt>
      <trkpt lat="50.7352" lon="5.46483">
        <ele>118</ele>
        <time>2018-11-04T11:52:11Z</time>
      </trkpt>
      <trkpt lat="50.73498" lon="5.46504">
        <ele>118</ele>
        <time>2018-11-04T11:53:11Z</time>
      </trkpt>
      <trkpt lat="50.73479" lon="5.46527">
        <ele>119</ele>
        <time>2018-11-04T11:54:11Z</time>
      </trkpt>
      <trkpt lat="50.7346" lon="5.46555">
        <ele>120</ele>
        <time>2018-11-04T11:55:11Z</time>
      </trkpt>
      <trkpt lat="50.73436" lon="5.46578">
        <ele>120</ele>
        <time>2018-11-04T11:56:11Z</time>
      </trkpt>
      <trkpt lat="50.73414" lon="5.4659">
        <ele>120</ele>
        <time>2018-11-04T11:57:11Z</time>
      </trkpt>
      <trkpt lat="50.73373" lon="5.466">
        <ele>122</ele>
        <time>2018-11-04T11:58:11Z</time>
      </trkpt>
      <trkpt lat="50.73289" lon="5.46624">
        <ele>125</ele>
        <time>2018-11-04T11:59:11Z</time>
      </trkpt>
      <trkpt lat="50.73203" lon="5.46651">
        <ele>128</ele>
        <time>2018-11-04T12:00:11Z</time>
      </trkpt>
      <trkpt lat="50.7317" lon="5.46662">
        <ele>129</ele>
        <time>2018-11-04T12:01:11Z</time>
      </trkpt>
      <trkpt lat="50.7307" lon="5.46694">
        <ele>129</ele>
        <time>2018-11-04T12:02:11Z</time>
      </trkpt>
      <trkpt lat="50.73057" lon="5.46692">
        <ele>129</ele>
        <time>2018-11-04T12:03:11Z</time>
      </trkpt>
      <trkpt lat="50.73041" lon="5.46687">
        <ele>129</ele>
        <time>2018-11-04T12:04:11Z</time>
      </trkpt>
      <trkpt lat="50.73027" lon="5.46679">
        <ele>129</ele>
        <time>2018-11-04T12:05:11Z</time>
      </trkpt>
      <trkpt lat="50.73011" lon="5.46669">
        <ele>129</ele>
        <time>2018-11-04T12:06:11Z</time>
      </trkpt>
      <trkpt lat="50.72979" lon="5.46647">
        <ele>129</ele>
        <time>2018-11-04T12:07:11Z</time>
      </trkpt>
      <trkpt lat="50.72946" lon="5.46616">
        <ele>129</ele>
        <time>2018-11-04T12:08:11Z</time>
      </trkpt>
      <trkpt lat="50.72897" lon="5.46573">
        <ele>130</ele>
        <time>2018-11-04T12:09:11Z</time>
      </trkpt>
      <trkpt lat="50.72869" lon="5.46556">
        <ele>131</ele>
        <time>2018-11-04T12:10:11Z</time>
      </trkpt>
      <trkpt lat="50.72843" lon="5.46544">
        <ele>132</ele>
        <time>2018-11-04T12:11:11Z</time>
      </trkpt>
      <trkpt lat="50.72811" lon="5.46537">
        <ele>133</ele>
        <time>2018-11-04T12:12:11Z</time>
      </trkpt>
      <trkpt lat="50.72799" lon="5.46533">
        <ele>133</ele>
        <time>2018-11-04T12:13:11Z</time>
      </trkpt>
      <trkpt lat="50.72768" lon="5.46517">
        <ele>134</ele>
        <time>2018-11-04T12:14:11Z</time>
      </trkpt>
      <trkpt lat="50.72712" lon="5.4649">
        <ele>133</ele>
        <time>2018-11-04T12:15:11Z</time>
      </trkpt>
      <trkpt lat="50.72654" lon="5.46463">
        <ele>132</ele>
        <time>2018-11-04T12:16:11Z</time>
      </trkpt>
      <trkpt lat="50.72625" lon="5.46455">
        <ele>132</ele>
        <time>2018-11-04T12:17:11Z</time>
      </trkpt>
      <trkpt lat="50.72604" lon="5.46452">
        <ele>132</ele>
        <time>2018-11-04T12:18:11Z</time>
      </trkpt>
      <trkpt lat="50.72539" lon="5.46454">
        <ele>131</ele>
        <time>2018-11-04T12:19:11Z</time>
      </trkpt>
      <trkpt lat="50.72447" lon="5.46462">
        <ele>132</ele>
        <time>2018-11-04T12:20:11Z</time>
      </trkpt>
      <trkpt lat="50.72403" lon="5.46468">
        <ele>133</ele>
        <time>2018-11-04T12:21:11Z</time>
      </trkpt>
      <trkpt lat="50.7235" lon="5.46479">
        <ele>132</ele>
        <time>2018-11-04T12:22:11Z</time>
      </trkpt>
      <trkpt lat="50.72329" lon="5.4648">
        <ele>132</ele>
        <time>2018-11-04T12:23:11Z</time>
      </trkpt>
      <trkpt lat="50.72306" lon="5.4647">
        <ele>132</ele>
        <time>2018-11-04T12:24:11Z</time>
      </trkpt>
      <trkpt lat="50.72288" lon="5.46458">
        <ele>132</ele>
        <time>2018-11-04T12:25:11Z</time>
      </trkpt>
      <trkpt lat="50.72276" lon="5.46456">
        <ele>132</ele>
        <time>2018-11-04T12:26:11Z</time>
      </trkpt>
      <trkpt lat="50.72213" lon="5.4646">
        <ele>132</ele>
        <time>2018-11-04T12:27:11Z</time>
      </trkpt>
      <trkpt lat="50.72182" lon="5.46462">
        <ele>132</ele>
        <time>2018-11-04T12:28:11Z</time>
      </trkpt>
      <trkpt lat="50.72133" lon="5.46456">
        <ele>133</ele>
        <time>2018-11-04T12:29:11Z</time>
      </trkpt>
      <trkpt lat="50.7209" lon="5.46503">
        <ele>134</ele>
        <time>2018-11-04T12:30:11Z</time>
      </trkpt>
      <trkpt lat="50.7204" lon="5.46564">
        <ele>135</ele>
        <time>2018-11-04T12:31:11Z</time>
      </trkpt>
      <trkpt lat="50.72018" lon="5.46585">
        <ele>136</ele>
        <time>2018-11-04T12:32:11Z</time>
      </trkpt>
      <trkpt lat="50.71997" lon="5.46603">
        <ele>137</ele>
        <time>2018-11-04T12:33:11Z</time>
      </trkpt>
      <trkpt lat="50.71947" lon="5.46637">
        <ele>139</ele>
        <time>2018-11-04T12:34:11Z</time>
      </trkpt>
      <trkpt lat="50.7191" lon="5.46658">
        <ele>140</ele>
        <time>2018-11-04T12:35:11Z</time>
      </trkpt>
      <trkpt lat="50.71892" lon="5.46673">
        <ele>140</ele>
        <time>2018-11-04T12:36:11Z</time>
      </trkpt>
      <trkpt lat="50.71841" lon="5.46733">
        <ele>140</ele>
        <time>2018-11-04T12:37:11Z</time>
      </trkpt>
      <trkpt lat="50.71787" lon="5.46806">
        <ele>140</ele>
        <time>2018-11-04T12:38:11Z</time>
      </trkpt>
      <trkpt lat="50.71768" lon="5.46824">
        <ele>141</ele>
        <time>2018-11-04T12:39:11Z</time>
      </trkpt>
      <trkpt lat="50.71748" lon="5.46829">
        <ele>141</ele>
        <time>2018-11-04T12:40:11Z</time>
      </trkpt>
      <trkpt lat="50.71735" lon="5.46815">
        <ele>142</ele>
        <time>2018-11-04T12:41:11Z</time>
      </trkpt>
      <trkpt lat="50.71724" lon="5.468">
        <ele>142</ele>
        <time>2018-11-04T12:42:11Z</time>
      </trkpt>
      <trkpt lat="50.71687" lon="5.46753">
        <ele>143</ele>
        <time>2018-11-04T12:43:11Z</time>
      </trkpt>
      <trkpt lat="50.71669" lon="5.46735">
        <ele>143</ele>
        <time>2018-11-04T12:44:11Z</time>
      </trkpt>
      <trkpt lat="50.71651" lon="5.46723">
        <ele>144</ele>
        <time>2018-11-04T12:45:11Z</time>
      </trkpt>
      <trkpt lat="50.71624" lon="5.46721">
        <ele>145</ele>
        <time>2018-11-04T12:46:11Z</time>
      </trkpt>
      <trkpt lat="50.71573" lon="5.46721">
        <ele>146</ele>
        <time>2018-11-04T12:47:11Z</time>
      </trkpt>
      <trkpt lat="50.71541" lon="5.46684">
        <ele>145</ele>
        <time>2018-11-04T12:48:11Z</time>
      </trkpt>
      <trkpt lat="50.71494" lon="5.46631">
        <ele>144</ele>
        <time>2018-11-04T12:49:11Z</time>
      </trkpt>
      <trkpt lat="50.71447" lon="5.46572">
        <ele>142</ele>
        <time>2018-11-04T12:50:11Z</time>
      </trkpt>
      <trkpt lat="50.71431" lon="5.4655">
        <ele>142</ele>
        <time>2018-11-04T12:51:11Z</time>
      </trkpt>
      <trkpt lat="50.71389" lon="5.46506">
        <ele>141</ele>
        <time>2018-11-04T12:52:11Z</time>
      </trkpt>
      <trkpt lat="50.71341" lon="5.46454">
        <ele>140</ele>
        <time>2018-11-04T12:53:11Z</time>
      </trkpt>
      <trkpt lat="50.71306" lon="5.46408">
        <ele>139</ele>
        <time>2018-11-04T12:54:11Z</time>
      </trkpt>
      <trkpt lat="50.71248" lon="5.46337">
        <ele>135</ele>
        <time>2018-11-04T12:55:11Z</time>
      </trkpt>
      <trkpt lat="50.71179" lon="5.46255">
        <ele>132</ele>
        <time>2018-11-04T12:56:11Z</time>
      </trkpt>
      <trkpt lat="50.71154" lon="5.46225">
        <ele>132</ele>
        <time>2018-11-04T12:57:11Z</time>
      </trkpt>
      <trkpt lat="50.71135" lon="5.46184">
        <ele>132</ele>
        <time>2018-11-04T12:58:11Z</time>
      </trkpt>
      <trkpt lat="50.71068" lon="5.46026">
        <ele>133</ele>
        <time>2018-11-04T12:59:11Z</time>
      </trkpt>
      <trkpt lat="50.71046" lon="5.45973">
        <ele>134</ele>
        <time>2018-11-04T13:00:11Z</time>
      </trkpt>
      <trkpt lat="50.71021" lon="5.45895">
        <ele>136</ele>
        <time>2018-11-04T13:01:11Z</time>
      </trkpt>
      <trkpt lat="50.71012" lon="5.4585">
        <ele>137</ele>
        <time>2018-11-04T13:02:11Z</time>
      </trkpt>
      <trkpt lat="50.71004" lon="5.45824">
        <ele>137</ele>
        <time>2018-11-04T13:03:11Z</time>
      </trkpt>
      <trkpt lat="50.70993" lon="5.45796">
        <ele>138</ele>
        <time>2018-11-04T13:04:11Z</time>
      </trkpt>
      <trkpt lat="50.70978" lon="5.45769">
        <ele>138</ele>
        <time>2018-11-04T13:05:11Z</time>
      </trkpt>
      <trkpt lat="50.70928" lon="5.45708">
        <ele>139</ele>
        <time>2018-11-04T13:06:11Z</time>
      </trkpt>
      <trkpt lat="50.70861" lon="5.45643">
        <ele>138</ele>
        <time>2018-11-04T13:07:11Z</time>
      </trkpt>
      <trkpt lat="50.70762" lon="5.45575">
        <ele>137</ele>
        <time>2018-11-04T13:08:11Z</time>
      </trkpt>
      <trkpt lat="50.70694" lon="5.45522">
        <ele>137</ele>
        <time>2018-11-04T13:09:11Z</time>
      </trkpt>
      <trkpt lat="50.70676" lon="5.45512">
        <ele>136</ele>
        <time>2018-11-04T13:10:11Z</time>
      </trkpt>
      <trkpt lat="50.70648" lon="5.455">
        <ele>136</ele>
        <time>2018-11-04T13:11:11Z</time>
      </trkpt>
      <trkpt lat="50.706" lon="5.45488">
        <ele>138</ele>
        <time>2018-11-04T13:12:11Z</time>
      </trkpt>
      <trkpt lat="50.70583" lon="5.45481">
        <ele>138</ele>
        <time>2018-11-04T13:13:11Z</time>
      </trkpt>
      <trkpt lat="50.70567" lon="5.45462">
        <ele>139</ele>
        <time>2018-11-04T13:14:11Z</time>
      </trkpt>
      <trkpt lat="50.705" lon="5.45311">
        <ele>139</ele>
        <time>2018-11-04T13:15:11Z</time>
      </trkpt>
      <trkpt lat="50.70476" lon="5.4526">
        <ele>140</ele>
        <time>2018-11-04T13:16:11Z</time>
      </trkpt>
      <trkpt lat="50.70447" lon="5.45207">
        <ele>141</ele>
        <time>2018-11-04T13:17:11Z</time>
      </trkpt>
      <trkpt lat="50.70367" lon="5.45069">
        <ele>145</ele>
        <time>2018-11-04T13:18:11Z</time>
      </trkpt>
      <trkpt lat="50.70355" lon="5.45047">
        <ele>145</ele>
        <time>2018-11-04T13:19:11Z</time>
      </trkpt>
      <trkpt lat="50.7035" lon="5.45032">
        <ele>146</ele>
        <time>2018-11-04T13:20:11Z</time>
      </trkpt>
      <trkpt lat="50.70344" lon="5.45004">
        <ele>147</ele>
        <time>2018-11-04T13:21:11Z</time>
      </trkpt>
      <trkpt lat="50.7034" lon="5.44986">
        <ele>147</ele>
        <time>2018-11-04T13:22:11Z</time>
      </trkpt>
      <trkpt lat="50.70329" lon="5.44965">
        <ele>146</ele>
        <time>2018-11-04T13:23:11Z</time>
      </trkpt>
      <trkpt lat="50.70301" lon="5.44905">
        <ele>145</ele>
        <time>2018-11-04T13:24:11Z</time>
      </trkpt>
      <trkpt lat="50.7027" lon="5.4482">
        <ele>144</ele>
        <time>2018-11-04T13:25:11Z</time>
      </trkpt>
      <trkpt lat="50.70236" lon="5.44719">
        <ele>142</ele>
        <time>2018-11-04T13:26:11Z</time>
      </trkpt>
      <trkpt lat="50.70219" lon="5.44671">
        <ele>141</ele>
        <time>2018-11-04T13:27:11Z</time>
      </trkpt>
      <trkpt lat="50.70196" lon="5.44683">
        <ele>141</ele>
        <time>2018-11-04T13:28:11Z</time>
      </trkpt>
      <trkpt lat="50.7018" lon="5.44686">
        <ele>141</ele>
        <time>2018-11-04T13:29:11Z</time>
      </trkpt>
      <trkpt lat="50.7019" lon="5.44532">
        <ele>140</ele>
        <time>2018-11-04T13:30:11Z</time>
      </trkpt>
      <trkpt lat="50.70191" lon="5.44477">
        <ele>140</ele>
        <time>2018-11-04T13:31:11Z</time>
      </trkpt>
      <trkpt lat="50.70186" lon="5.44448">
        <ele>140</ele>
        <time>2018-11-04T13:32:11Z</time>
      </trkpt>
      <trkpt lat="50.70156" lon="5.44271">
        <ele>136</ele>
        <time>2018-11-04T13:33:11Z</time>
      </trkpt>
      <trkpt lat="50.70143" lon="5.442">
        <ele>135</ele>
        <time>2018-11-04T13:34:11Z</time>
      </trkpt>
      <trkpt lat="50.70142" lon="5.44148">
        <ele>135</ele>
        <time>2018-11-04T13:35:11Z</time>
      </trkpt>
      <trkpt lat="50.70148" lon="5.44062">
        <ele>135</ele>
        <time>2018-11-04T13:36:11Z</time>
      </trkpt>
      <trkpt lat="50.70153" lon="5.44013">
        <ele>135</ele>
        <time>2018-11-04T13:37:11Z</time>
      </trkpt>
      <trkpt lat="50.70076" lon="5.43989">
        <ele>138</ele>
        <time>2018-11-04T13:38:11Z</time>
      </trkpt>
      <trkpt lat="50.70047" lon="5.43981">
        <ele>138</ele>
        <time>2018-11-04T13:39:11Z</time>
      </trkpt>
      <trkpt lat="50.69954" lon="5.43969">
        <ele>139</ele>
        <time>2018-11-04T13:40:11Z</time>
      </trkpt>
      <trkpt lat="50.69859" lon="5.43955">
        <ele>141</ele>
        <time>2018-11-04T13:41:11Z</time>
      </trkpt>
      <trkpt lat="50.69821" lon="5.43944">
        <ele>141</ele>
        <time>2018-11-04T13:42:11Z</time>
      </trkpt>
      <trkpt lat="50.69771" lon="5.43921">
        <ele>142</ele>
        <time>2018-11-04T13:43:11Z</time>
      </trkpt>
      <trkpt lat="50.69715" lon="5.43895">
        <ele>143</ele>
        <time>2018-11-04T13:44:11Z</time>
      </trkpt>
      <trkpt lat="50.69653" lon="5.43867">
        <ele>145</ele>
        <time>2018-11-04T13:45:11Z</time>
      </trkpt>
      <trkpt lat="50.69606" lon="5.43844">
        <ele>145</ele>
        <time>2018-11-04T13:46:11Z</time>
      </trkpt>
      <trkpt lat="50.69555" lon="5.43822">
        <ele>145</ele>
        <time>2018-11-04T13:47:11Z</time>
      </trkpt>
      <trkpt lat="50.69532" lon="5.4381">
        <ele>144</ele>
        <time>2018-11-04T13:48:11Z</time>
      </trkpt>
      <trkpt lat="50.69517" lon="5.4381">
        <ele>144</ele>
        <time>2018-11-04T13:49:11Z</time>
      </trkpt>
      <trkpt lat="50.69471" lon="5.43819">
        <ele>143</ele>
        <time>2018-11-04T13:50:11Z</time>
      </trkpt>
      <trkpt lat="50.69373" lon="5.43836">
        <ele>142</ele>
        <time>2018-11-04T13:51:11Z</time>
      </trkpt>
      <trkpt lat="50.69349" lon="5.43841">
        <ele>143</ele>
        <time>2018-11-04T13:52:11Z</time>
      </trkpt>
      <trkpt lat="50.69343" lon="5.43841">
        <ele>143</ele>
        <time>2018-11-04T13:53:11Z</time>
      </trkpt>
      <trkpt lat="50.69326" lon="5.4384">
        <ele>143</ele>
        <time>2018-11-04T13:54:11Z</time>
      </trkpt>
      <trkpt lat="50.69298" lon="5.4383">
        <ele>143</ele>
        <time>2018-11-04T13:55:11Z</time>
      </trkpt>
      <trkpt lat="50.69287" lon="5.43823">
        <ele>144</ele>
        <time>2018-11-04T13:56:11Z</time>
      </trkpt>
      <trkpt lat="50.69245" lon="5.43801">
        <ele>144</ele>
        <time>2018-11-04T13:57:11Z</time>
      </trkpt>
      <trkpt lat="50.69207" lon="5.4378">
        <ele>143</ele>
        <time>2018-11-04T13:58:11Z</time>
      </trkpt>
      <trkpt lat="50.69094" lon="5.43721">
        <ele>144</ele>
        <time>2018-11-04T13:59:11Z</time>
      </trkpt>
      <trkpt lat="50.69049" lon="5.43701">
        <ele>145</ele>
        <time>2018-11-04T14:00:11Z</time>
      </trkpt>
      <trkpt lat="50.69006" lon="5.43682">
        <ele>145</ele>
        <time>2018-11-04T14:01:11Z</time>
      </trkpt>
      <trkpt lat="50.68967" lon="5.43673">
        <ele>146</ele>
        <time>2018-11-04T14:02:11Z</time>
      </trkpt>
      <trkpt lat="50.68734" lon="5.43617">
        <ele>146</ele>
        <time>2018-11-04T14:03:11Z</time>
      </trkpt>
      <trkpt lat="50.68593" lon="5.43585">
        <ele>146</ele>
        <time>2018-11-04T14:04:11Z</time>
      </trkpt>
      <trkpt lat="50.68455" lon="5.43553">
        <ele>146</ele>
        <time>2018-11-04T14:05:11Z</time>
      </trkpt>
      <trkpt lat="50.68401" lon="5.43533">
        <ele>147</ele>
        <time>2018-11-04T14:06:11Z</time>
      </trkpt>
      <trkpt lat="50.68367" lon="5.43517">
        <ele>148</ele>
        <time>2018-11-04T14:07:11Z</time>
      </trkpt>
      <trkpt lat="50.68347" lon="5.43508">
        <ele>149</ele>
        <time>2018-11-04T14:08:11Z</time>
      </trkpt>
      <trkpt lat="50.68324" lon="5.43494">
        <ele>150</ele>
        <time>2018-11-04T14:09:11Z</time>
      </trkpt>
      <trkpt lat="50.68306" lon="5.43484">
        <ele>150</ele>
        <time>2018-11-04T14:10:11Z</time>
      </trkpt>
      <trkpt lat="50.6824" lon="5.43451">
        <ele>148</ele>
        <time>2018-11-04T14:11:11Z</time>
      </trkpt>
      <trkpt lat="50.68215" lon="5.43437">
        <ele>148</ele>
        <time>2018-11-04T14:12:11Z</time>
      </trkpt>
      <trkpt lat="50.68197" lon="5.43444">
        <ele>148</ele>
        <time>2018-11-04T14:13:11Z</time>
      </trkpt>
      <trkpt lat="50.68184" lon="5.43464">
        <ele>148</ele>
        <time>2018-11-04T14:14:11Z</time>
      </trkpt>
      <trkpt lat="50.68166" lon="5.43492">
        <ele>148</ele>
        <time>2018-11-04T14:15:11Z</time>
      </trkpt>
      <trkpt lat="50.68129" lon="5.43549">
        <ele>148</ele>
        <time>2018-11-04T14:16:11Z</time>
      </trkpt>
      <trkpt lat="50.68106" lon="5.43586">
        <ele>149</ele>
        <time>2018-11-04T14:17:11Z</time>
      </trkpt>
      <trkpt lat="50.68083" lon="5.43642">
        <ele>150</ele>
        <time>2018-11-04T14:18:11Z</time>
      </trkpt>
      <trkpt lat="50.68066" lon="5.43678">
        <ele>152</ele>
        <time>2018-11-04T14:19:11Z</time>
      </trkpt>
      <trkpt lat="50.68052" lon="5.43695">
        <ele>152</ele>
        <time>2018-11-04T14:20:11Z</time>
      </trkpt>
      <trkpt lat="50.68023" lon="5.43722">
        <ele>153</ele>
        <time>2018-11-04T14:21:11Z</time>
      </trkpt>
      <trkpt lat="50.68" lon="5.43741">
        <ele>153</ele>
        <time>2018-11-04T14:22:11Z</time>
      </trkpt>
      <trkpt lat="50.67973" lon="5.43739">
        <ele>154</ele>
        <time>2018-11-04T14:23:11Z</time>
      </trkpt>
      <trkpt lat="50.67945" lon="5.43719">
        <ele>154</ele>
        <time>2018-11-04T14:24:11Z</time>
      </trkpt>
      <trkpt lat="50.67925" lon="5.43716">
        <ele>155</ele>
        <time>2018-11-04T14:25:11Z</time>
      </trkpt>
      <trkpt lat="50.67908" lon="5.43736">
        <ele>155</ele>
        <time>2018-11-04T14:26:11Z</time>
      </trkpt>
      <trkpt lat="50.67871" lon="5.43802">
        <ele>156</ele>
        <time>2018-11-04T14:27:11Z</time>
      </trkpt>
      <trkpt lat="50.67853" lon="5.43815">
        <ele>156</ele>
        <time>2018-11-04T14:28:11Z</time>
      </trkpt>
      <trkpt lat="50.67839" lon="5.43818">
        <ele>156</ele>
        <time>2018-11-04T14:29:11Z</time>
      </trkpt>
      <trkpt lat="50.67817" lon="5.4381">
        <ele>156</ele>
        <time>2018-11-04T14:30:11Z</time>
      </trkpt>
      <trkpt lat="50.678" lon="5.43795">
        <ele>156</ele>
        <time>2018-11-04T14:31:11Z</time>
      </trkpt>
      <trkpt lat="50.67677" lon="5.43677">
        <ele>154</ele>
        <time>2018-11-04T14:32:11Z</time>
      </trkpt>
      <trkpt lat="50.67619" lon="5.43621">
        <ele>154</ele>
        <time>2018-11-04T14:33:11Z</time>
      </trkpt>
      <trkpt lat="50.67601" lon="5.43602">
        <ele>154</ele>
        <time>2018-11-04T14:34:11Z</time>
      </trkpt>
      <trkpt lat="50.6759" lon="5.4361">
        <ele>154</ele>
        <time>2018-11-04T14:35:11Z</time>
      </trkpt>
      <trkpt lat="50.67577" lon="5.43606">
        <ele>154</ele>
        <time>2018-11-04T14:36:11Z</time>
      </trkpt>
      <trkpt lat="50.67518" lon="5.43588">
        <ele>155</ele>
        <time>2018-11-04T14:37:11Z</time>
      </trkpt>
      <trkpt lat="50.67493" lon="5.43579">
        <ele>155</ele>
        <time>2018-11-04T14:38:11Z</time>
      </trkpt>
      <trkpt lat="50.67418" lon="5.43553">
        <ele>156</ele>
        <time>2018-11-04T14:39:11Z</time>
      </trkpt>
      <trkpt lat="50.67354" lon="5.43532">
        <ele>157</ele>
        <time>2018-11-04T14:40:11Z</time>
      </trkpt>
      <trkpt lat="50.67309" lon="5.43519">
        <ele>156</ele>
        <time>2018-11-04T14:41:11Z</time>
      </trkpt>
      <trkpt lat="50.67258" lon="5.43508">
        <ele>155</ele>
        <time>2018-11-04T14:42:11Z</time>
      </trkpt>
      <trkpt lat="50.67222" lon="5.43502">
        <ele>154</ele>
        <time>2018-11-04T14:43:11Z</time>
      </trkpt>
      <trkpt lat="50.67177" lon="5.43485">
        <ele>153</ele>
        <time>2018-11-04T14:44:11Z</time>
      </trkpt>
      <trkpt lat="50.67159" lon="5.43477">
        <ele>152</ele>
        <time>2018-11-04T14:45:11Z</time>
      </trkpt>
      <trkpt lat="50.67119" lon="5.43447">
        <ele>153</ele>
        <time>2018-11-04T14:46:11Z</time>
      </trkpt>
      <trkpt lat="50.6708" lon="5.43419">
        <ele>153</ele>
        <time>2018-11-04T14:47:11Z</time>
      </trkpt>
      <trkpt lat="50.67029" lon="5.43379">
        <ele>153</ele>
        <time>2018-11-04T14:48:11Z</time>
      </trkpt>
      <trkpt lat="50.66977" lon="5.43347">
        <ele>152</ele>
        <time>2018-11-04T14:49:11Z</time>
      </trkpt>
      <trkpt lat="50.66939" lon="5.43327">
        <ele>153</ele>
        <time>2018-11-04T14:50:11Z</time>
      </trkpt>
      <trkpt lat="50.66889" lon="5.4332">
        <ele>154</ele>
        <time>2018-11-04T14:51:11Z</time>
      </trkpt>
      <trkpt lat="50.66842" lon="5.43318">
        <ele>155</ele>
        <time>2018-11-04T14:52:11Z</time>
      </trkpt>
      <trkpt lat="50.66813" lon="5.43318">
        <ele>155</ele>
        <time>2018-11-04T14:53:11Z</time>
      </trkpt>
      <trkpt lat="50.66797" lon="5.43314">
        <ele>155</ele>
        <time>2018-11-04T14:54:11Z</time>
      </trkpt>
      <trkpt lat="50.66781" lon="5.43309">
        <ele>156</ele>
        <time>2018-11-04T14:55:11Z</time>
      </trkpt>
      <trkpt lat="50.66681" lon="5.43264">
        <ele>157</ele>
        <time>2018-11-04T14:56:11Z</time>
      </trkpt>
      <trkpt lat="50.66586" lon="5.43223">
        <ele>157</ele>
        <time>2018-11-04T14:57:11Z</time>
      </trkpt>
      <trkpt lat="50.66509" lon="5.43189">
        <ele>158</ele>
        <time>2018-11-04T14:58:11Z</time>
      </trkpt>
      <trkpt lat="50.66459" lon="5.43164">
        <ele>157</ele>
        <time>2018-11-04T14:59:11Z</time>
      </trkpt>
      <trkpt lat="50.66427" lon="5.43149">
        <ele>156</ele>
        <time>2018-11-04T15:00:11Z</time>
      </trkpt>
      <trkpt lat="50.66403" lon="5.43139">
        <ele>155</ele>
        <time>2018-11-04T15:01:11Z</time>
      </trkpt>
      <trkpt lat="50.66346" lon="5.43129">
        <ele>154</ele>
        <time>2018-11-04T15:02:11Z</time>
      </trkpt>
      <trkpt lat="50.66282" lon="5.43144">
        <ele>155</ele>
        <time>2018-11-04T15:03:11Z</time>
      </trkpt>
      <trkpt lat="50.66243" lon="5.43165">
        <ele>156</ele>
        <time>2018-11-04T15:04:11Z</time>
      </trkpt>
      <trkpt lat="50.66214" lon="5.43171">
        <ele>157</ele>
        <time>2018-11-04T15:05:11Z</time>
      </trkpt>
      <trkpt lat="50.66181" lon="5.43173">
        <ele>158</ele>
        <time>2018-11-04T15:06:11Z</time>
      </trkpt>
      <trkpt lat="50.66159" lon="5.43163">
        <ele>158</ele>
        <time>2018-11-04T15:07:11Z</time>
      </trkpt>
      <trkpt lat="50.66101" lon="5.43144">
        <ele>161</ele>
        <time>2018-11-04T15:08:11Z</time>
      </trkpt>
      <trkpt lat="50.6604" lon="5.43123">
        <ele>160</ele>
        <time>2018-11-04T15:09:11Z</time>
      </trkpt>
      <trkpt lat="50.66014" lon="5.43113">
        <ele>160</ele>
        <time>2018-11-04T15:10:11Z</time>
      </trkpt>
      <trkpt lat="50.65986" lon="5.43116">
        <ele>160</ele>
        <time>2018-11-04T15:11:11Z</time>
      </trkpt>
      <trkpt lat="50.65973" lon="5.43117">
        <ele>161</ele>
        <time>2018-11-04T15:12:11Z</time>
      </trkpt>
      <trkpt lat="50.65957" lon="5.43118">
        <ele>162</ele>
        <time>2018-11-04T15:13:11Z</time>
      </trkpt>
      <trkpt lat="50.65941" lon="5.43112">
        <ele>162</ele>
        <time>2018-11-04T15:14:11Z</time>
      </trkpt>
      <trkpt lat="50.65909" lon="5.43098">
        <ele>164</ele>
        <time>2018-11-04T15:15:11Z</time>
      </trkpt>
      <trkpt lat="50.65879" lon="5.43084">
        <ele>164</ele>
        <time>2018-11-04T15:16:11Z</time>
      </trkpt>
      <trkpt lat="50.65842" lon="5.43065">
        <ele>163</ele>
        <time>2018-11-04T15:17:11Z</time>
      </trkpt>
      <trkpt lat="50.65823" lon="5.43057">
        <ele>163</ele>
        <time>2018-11-04T15:18:11Z</time>
      </trkpt>
      <trkpt lat="50.65765" lon="5.43037">
        <ele>162</ele>
        <time>2018-11-04T15:19:11Z</time>
      </trkpt>
      <trkpt lat="50.65726" lon="5.43024">
        <ele>162</ele>
        <time>2018-11-04T15:20:11Z</time>
      </trkpt>
      <trkpt lat="50.65681" lon="5.4301">
        <ele>163</ele>
        <time>2018-11-04T15:21:11Z</time>
      </trkpt>
      <trkpt lat="50.65627" lon="5.42984">
        <ele>163</ele>
        <time>2018-11-04T15:22:11Z</time>
      </trkpt>
      <trkpt lat="50.65574" lon="5.42954">
        <ele>162</ele>
        <time>2018-11-04T15:23:11Z</time>
      </trkpt>
      <trkpt lat="50.65546" lon="5.42938">
        <ele>163</ele>
        <time>2018-11-04T15:24:11Z</time>
      </trkpt>
      <trkpt lat="50.65509" lon="5.42922">
        <ele>164</ele>
        <time>2018-11-04T15:25:11Z</time>
      </trkpt>
      <trkpt lat="50.65482" lon="5.42911">
        <ele>164</ele>
        <time>2018-11-04T15:26:11Z</time>
      </trkpt>
      <trkpt lat="50.6545" lon="5.429">
        <ele>163</ele>
        <time>2018-11-04T15:27:11Z</time>
      </trkpt>
      <trkpt lat="50.65437" lon="5.42896">
        <ele>163</ele>
        <time>2018-11-04T15:28:11Z</time>
      </trkpt>
      <trkpt lat="50.65411" lon="5.429">
        <ele>162</ele>
        <time>2018-11-04T15:29:11Z</time>
      </trkpt>
      <trkpt lat="50.6539" lon="5.42903">
        <ele>162</ele>
        <time>2018-11-04T15:30:11Z</time>
      </trkpt>
      <trkpt lat="50.65359" lon="5.42905">
        <ele>162</ele>
        <time>2018-11-04T15:31:11Z</time>
      </trkpt>
      <trkpt lat="50.65326" lon="5.42899">
        <ele>162</ele>
        <time>2018-11-04T15:32:11Z</time>
      </trkpt>
      <trkpt lat="50.65286" lon="5.42888">
        <ele>162</ele>
        <time>2018-11-04T15:33:11Z</time>
      </trkpt>
      <trkpt lat="50.65232" lon="5.42891">
        <ele>162</ele>
        <time>2018-11-04T15:34:11Z</time>
      </trkpt>
      <trkpt lat="50.65208" lon="5.4289">
        <ele>162</ele>
        <time>2018-11-04T15:35:11Z</time>
      </trkpt>
      <trkpt lat="50.6515" lon="5.42872">
        <ele>162</ele>
        <time>2018-11-04T15:36:11Z</time>
      </trkpt>
      <trkpt lat="50.651" lon="5.42861">
        <ele>163</ele>
        <time>2018-11-04T15:37:11Z</time>
      </trkpt>
      <trkpt lat="50.65083" lon="5.42851">
        <ele>163</ele>
        <time>2018-11-04T15:38:11Z</time>
      </trkpt>
      <trkpt lat="50.6503" lon="5.42822">
        <ele>164</ele>
        <time>2018-11-04T15:39:11Z</time>
      </trkpt>
      <trkpt lat="50.65006" lon="5.42809">
        <ele>164</ele>
        <time>2018-11-04T15:40:11Z</time>
      </trkpt>
      <trkpt lat="50.64977" lon="5.42797">
        <ele>164</ele>
        <time>2018-11-04T15:41:11Z</time>
      </trkpt>
      <trkpt lat="50.64912" lon="5.42804">
        <ele>164</ele>
        <time>2018-11-04T15:42:11Z</time>
      </trkpt>
      <trkpt lat="50.64836" lon="5.42794">
        <ele>164</ele>
        <time>2018-11-04T15:43:11Z</time>
      </trkpt>
      <trkpt lat="50.64774" lon="5.42776">
        <ele>165</ele>
        <time>2018-11-04T15:44:11Z</time>
      </trkpt>
      <trkpt lat="50.64735" lon="5.42742">
        <ele>166</ele>
        <time>2018-11-04T15:45:11Z</time>
      </trkpt>
      <trkpt lat="50.64702" lon="5.42704">
        <ele>168</ele>
        <time>2018-11-04T15:46:11Z</time>
      </trkpt>
      <trkpt lat="50.64682" lon="5.42731">
        <ele>167</ele>
        <time>2018-11-04T15:47:11Z</time>
      </trkpt>
      <trkpt lat="50.64666" lon="5.42752">
        <ele>167</ele>
        <time>2018-11-04T15:48:11Z</time>
      </trkpt>
      <trkpt lat="50.64655" lon="5.42758">
        <ele>167</ele>
        <time>2018-11-04T15:49:11Z</time>
      </trkpt>
      <trkpt lat="50.64643" lon="5.4275">
        <ele>168</ele>
        <time>2018-11-04T15:50:11Z</time>
      </trkpt>
      <trkpt lat="50.64628" lon="5.42731">
        <ele>168</ele>
        <time>2018-11-04T15:51:11Z</time>
      </trkpt>
      <trkpt lat="50.64588" lon="5.42675">
        <ele>169</ele>
        <time>2018-11-04T15:52:11Z</time>
      </trkpt>
      <trkpt lat="50.64567" lon="5.4265">
        <ele>170</ele>
        <time>2018-11-04T15:53:11Z</time>
      </trkpt>
      <trkpt lat="50.6454" lon="5.42623">
        <ele>171</ele>
        <time>2018-11-04T15:54:11Z</time>
      </trkpt>
      <trkpt lat="50.6446" lon="5.4257">
        <ele>172</ele>
        <time>2018-11-04T15:55:11Z</time>
      </trkpt>
      <trkpt lat="50.64434" lon="5.42556">
        <ele>173</ele>
        <time>2018-11-04T15:56:11Z</time>
      </trkpt>
      <trkpt lat="50.6441" lon="5.42548">
        <ele>173</ele>
        <time>2018-11-04T15:57:11Z</time>
      </trkpt>
      <trkpt lat="50.64386" lon="5.42551">
        <ele>173</ele>
        <time>2018-11-04T15:58:11Z</time>
      </trkpt>
      <trkpt lat="50.64372" lon="5.4255">
        <ele>172</ele>
        <time>2018-11-04T15:59:11Z</time>
      </trkpt>
      <trkpt lat="50.64353" lon="5.42539">
        <ele>173</ele>
        <time>2018-11-04T16:00:11Z</time>
      </trkpt>
      <trkpt lat="50.64339" lon="5.42515">
        <ele>173</ele>
        <time>2018-11-04T16:01:11Z</time>
      </trkpt>
      <trkpt lat="50.64306" lon="5.4247">
        <ele>174</ele>
        <time>2018-11-04T16:02:11Z</time>
      </trkpt>
      <trkpt lat="50.64293" lon="5.42449">
        <ele>175</ele>
        <time>2018-11-04T16:03:11Z</time>
      </trkpt>
      <trkpt lat="50.64282" lon="5.42457">
        <ele>175</ele>
        <time>2018-11-04T16:04:11Z</time>
      </trkpt>
      <trkpt lat="50.64228" lon="5.42527">
        <ele>176</ele>
        <time>2018-11-04T16:05:11Z</time>
      </trkpt>
      <trkpt lat="50.64203" lon="5.42562">
        <ele>177</ele>
        <time>2018-11-04T16:06:11Z</time>
      </trkpt>
      <trkpt lat="50.64117" lon="5.42677">
        <ele>181</ele>
        <time>2018-11-04T16:07:11Z</time>
      </trkpt>
      <trkpt lat="50.64069" lon="5.42729">
        <ele>182</ele>
        <time>2018-11-04T16:08:11Z</time>
      </trkpt>
      <trkpt lat="50.64035" lon="5.42773">
        <ele>183</ele>
        <time>2018-11-04T16:09:11Z</time>
      </trkpt>
      <trkpt lat="50.64024" lon="5.42779">
        <ele>184</ele>
        <time>2018-11-04T16:10:11Z</time>
      </trkpt>
      <trkpt lat="50.6401" lon="5.42775">
        <ele>184</ele>
        <time>2018-11-04T16:11:11Z</time>
      </trkpt>
      <trkpt lat="50.63991" lon="5.42746">
        <ele>184</ele>
        <time>2018-11-04T16:12:11Z</time>
      </trkpt>
      <trkpt lat="50.63941" lon="5.42656">
        <ele>184</ele>
        <time>2018-11-04T16:13:11Z</time>
      </trkpt>
      <trkpt lat="50.63918" lon="5.42625">
        <ele>184</ele>
        <time>2018-11-04T16:14:11Z</time>
      </trkpt>
      <trkpt lat="50.63864" lon="5.42595">
        <ele>184</ele>
        <time>2018-11-04T16:15:11Z</time>
      </trkpt>
      <trkpt lat="50.6378" lon="5.42552">
        <ele>185</ele>
        <time>2018-11-04T16:16:11Z</time>
      </trkpt>
      <trkpt lat="50.63732" lon="5.42527">
        <ele>185</ele>
        <time>2018-11-04T16:17:11Z</time>
      </trkpt>
      <trkpt lat="50.63705" lon="5.42512">
        <ele>184</ele>
        <time>2018-11-04T16:18:11Z</time>
      </trkpt>
      <trkpt lat="50.63695" lon="5.42477">
        <ele>183</ele>
        <time>2018-11-04T16:19:11Z</time>
      </trkpt>
      <trkpt lat="50.63678" lon="5.4247">
        <ele>183</ele>
        <time>2018-11-04T16:20:11Z</time>
      </trkpt>
      <trkpt lat="50.63658" lon="5.42484">
        <ele>183</ele>
        <time>2018-11-04T16:21:11Z</time>
      </trkpt>
      <trkpt lat="50.63635" lon="5.42471">
        <ele>183</ele>
        <time>2018-11-04T16:22:11Z</time>
      </trkpt>
      <trkpt lat="50.63574" lon="5.42439">
        <ele>181</ele>
        <time>2018-11-04T16:23:11Z</time>
      </trkpt>
      <trkpt lat="50.63432" lon="5.42364">
        <ele>177</ele>
        <time>2018-11-04T16:24:11Z</time>
      </trkpt>
      <trkpt lat="50.63289" lon="5.42289">
        <ele>173</ele>
        <time>2018-11-04T16:25:11Z</time>
      </trkpt>
      <trkpt lat="50.63219" lon="5.42252">
        <ele>171</ele>
        <time>2018-11-04T16:26:11Z</time>
      </trkpt>
      <trkpt lat="50.63162" lon="5.42217">
        <ele>172</ele>
        <time>2018-11-04T16:27:11Z</time>
      </trkpt>
      <trkpt lat="50.63117" lon="5.42191">
        <ele>172</ele>
        <time>2018-11-04T16:28:11Z</time>
      </trkpt>
      <trkpt lat="50.63072" lon="5.42164">
        <ele>172</ele>
        <time>2018-11-04T16:29:11Z</time>
      </trkpt>
      <trkpt lat="50.63034" lon="5.42134">
        <ele>172</ele>
        <time>2018-11-04T16:30:11Z</time>
      </trkpt>
      <trkpt lat="50.62978" lon="5.42095">
        <ele>172</ele>
        <time>2018-11-04T16:31:11Z</time>
      </trkpt>
      <trkpt lat="50.62951" lon="5.42072">
        <ele>172</ele>
        <time>2018-11-04T16:32:11Z</time>
      </trkpt>
      <trkpt lat="50.62925" lon="5.42049">
        <ele>173</ele>
        <time>2018-11-04T16:33:11Z</time>
      </trkpt>
      <trkpt lat="50.62787" lon="5.41928">
        <ele>176</ele>
        <time>2018-11-04T16:34:11Z</time>
      </trkpt>
      <trkpt lat="50.62765" lon="5.41915">
        <ele>176</ele>
        <time>2018-11-04T16:35:11Z</time>
      </trkpt>
      <trkpt lat="50.62747" lon="5.41907">
        <ele>176</ele>
        <time>2018-11-04T16:36:11Z</time>
      </trkpt>
      <trkpt lat="50.62676" lon="5.41932">
        <ele>175</ele>
        <time>2018-11-04T16:37:11Z</time>
      </trkpt>
      <trkpt lat="50.6267" lon="5.41888">
        <ele>175</ele>
        <time>2018-11-04T16:38:11Z</time>
      </trkpt>
      <trkpt lat="50.62658" lon="5.4181">
        <ele>174</ele>
        <time>2018-11-04T16:39:11Z</time>
      </trkpt>
      <trkpt lat="50.62647" lon="5.41774">
        <ele>173</ele>
        <time>2018-11-04T16:40:11Z</time>
      </trkpt>
      <trkpt lat="50.62617" lon="5.41685">
        <ele>170</ele>
        <time>2018-11-04T16:41:11Z</time>
      </trkpt>
      <trkpt lat="50.62608" lon="5.41663">
        <ele>170</ele>
        <time>2018-11-04T16:42:11Z</time>
      </trkpt>
      <trkpt lat="50.62572" lon="5.41553">
        <ele>170</ele>
        <time>2018-11-04T16:43:11Z</time>
      </trkpt>
      <trkpt lat="50.62548" lon="5.41523">
        <ele>170</ele>
        <time>2018-11-04T16:44:11Z</time>
      </trkpt>
      <trkpt lat="50.62497" lon="5.41462">
        <ele>170</ele>
        <time>2018-11-04T16:45:11Z</time>
      </trkpt>
      <trkpt lat="50.6249" lon="5.41448">
        <ele>170</ele>
        <time>2018-11-04T16:46:11Z</time>
      </trkpt>
      <trkpt lat="50.62452" lon="5.41295">
        <ele>171</ele>
        <time>2018-11-04T16:47:11Z</time>
      </trkpt>
      <trkpt lat="50.62436" lon="5.41235">
        <ele>172</ele>
        <time>2018-11-04T16:48:11Z</time>
      </trkpt>
      <trkpt lat="50.62458" lon="5.41157">
        <ele>170</ele>
        <time>2018-11-04T16:49:11Z</time>
      </trkpt>
      <trkpt lat="50.62476" lon="5.4109">
        <ele>169</ele>
        <time>2018-11-04T16:50:11Z</time>
      </trkpt>
      <trkpt lat="50.62492" lon="5.40997">
        <ele>167</ele>
        <time>2018-11-04T16:51:11Z</time>
      </trkpt>
      <trkpt lat="50.62519" lon="5.40845">
        <ele>167</ele>
        <time>2018-11-04T16:52:11Z</time>
      </trkpt>
      <trkpt lat="50.62544" lon="5.40709">
        <ele>164</ele>
        <time>2018-11-04T16:53:11Z</time>
      </trkpt>
      <trkpt lat="50.6256" lon="5.4062">
        <ele>163</ele>
        <time>2018-11-04T16:54:11Z</time>
      </trkpt>
      <trkpt lat="50.62587" lon="5.40472">
        <ele>160</ele>
        <time>2018-11-04T16:55:11Z</time>
      </trkpt>
      <trkpt lat="50.62668" lon="5.40431">
        <ele>159</ele>
        <time>2018-11-04T16:56:11Z</time>
      </trkpt>
      <trkpt lat="50.6269" lon="5.40436">
        <ele>159</ele>
        <time>2018-11-04T16:57:11Z</time>
      </trkpt>
      <trkpt lat="50.62716" lon="5.40446">
        <ele>158</ele>
        <time>2018-11-04T16:58:11Z</time>
      </trkpt>
      <trkpt lat="50.62717" lon="5.40414">
        <ele>158</ele>
        <time>2018-11-04T16:59:11Z</time>
      </trkpt>
      <trkpt lat="50.62721" lon="5.40174">
        <ele>158</ele>
        <time>2018-11-04T17:00:11Z</time>
      </trkpt>
      <trkpt lat="50.6272" lon="5.40086">
        <ele>156</ele>
        <time>2018-11-04T17:01:11Z</time>
      </trkpt>
      <trkpt lat="50.62714" lon="5.40045">
        <ele>153</ele>
        <time>2018-11-04T17:02:11Z</time>
      </trkpt>
      <trkpt lat="50.62704" lon="5.39971">
        <ele>149</ele>
        <time>2018-11-04T17:03:11Z</time>
      </trkpt>
      <trkpt lat="50.62685" lon="5.39898">
        <ele>147</ele>
        <time>2018-11-04T17:04:11Z</time>
      </trkpt>
      <trkpt lat="50.62678" lon="5.39877">
        <ele>147</ele>
        <time>2018-11-04T17:05:11Z</time>
      </trkpt>
      <trkpt lat="50.62697" lon="5.39837">
        <ele>147</ele>
        <time>2018-11-04T17:06:11Z</time>
      </trkpt>
      <trkpt lat="50.62727" lon="5.39769">
        <ele>148</ele>
        <time>2018-11-04T17:07:11Z</time>
      </trkpt>
      <trkpt lat="50.62727" lon="5.3974">
        <ele>147</ele>
        <time>2018-11-04T17:08:11Z</time>
      </trkpt>
      <trkpt lat="50.62704" lon="5.39705">
        <ele>147</ele>
        <time>2018-11-04T17:09:11Z</time>
      </trkpt>
      <trkpt lat="50.62686" lon="5.39682">
        <ele>147</ele>
        <time>2018-11-04T17:10:11Z</time>
      </trkpt>
      <trkpt lat="50.62665" lon="5.39658">
        <ele>146</ele>
        <time>2018-11-04T17:11:11Z</time>
      </trkpt>
      <trkpt lat="50.62645" lon="5.39633">
        <ele>146</ele>
        <time>2018-11-04T17:12:11Z</time>
      </trkpt>
      <trkpt lat="50.62629" lon="5.39603">
        <ele>146</ele>
        <time>2018-11-04T17:13:11Z</time>
      </trkpt>
      <trkpt lat="50.62574" lon="5.39604">
        <ele>144</ele>
        <time>2018-11-04T17:14:11Z</time>
      </trkpt>
      <trkpt lat="50.62495" lon="5.39604">
        <ele>142</ele>
        <time>2018-11-04T17:15:11Z</time>
      </trkpt>
      <trkpt lat="50.62425" lon="5.39607">
        <ele>142</ele>
        <time>2018-11-04T17:16:11Z</time>
      </trkpt>
      <trkpt lat="50.62299" lon="5.39609">
        <ele>135</ele>
        <time>2018-11-04T17:17:11Z</time>
      </trkpt>
      <trkpt lat="50.62263" lon="5.3961">
        <ele>134</ele>
        <time>2018-11-04T17:18:11Z</time>
      </trkpt>
      <trkpt lat="50.62165" lon="5.39614">
        <ele>136</ele>
        <time>2018-11-04T17:19:11Z</time>
      </trkpt>
      <trkpt lat="50.62123" lon="5.39583">
        <ele>139</ele>
        <time>2018-11-04T17:20:11Z</time>
      </trkpt>
      <trkpt lat="50.62077" lon="5.39546">
        <ele>138</ele>
        <time>2018-11-04T17:21:11Z</time>
      </trkpt>
      <trkpt lat="50.61975" lon="5.39456">
        <ele>137</ele>
        <time>2018-11-04T17:22:11Z</time>
      </trkpt>
      <trkpt lat="50.61912" lon="5.39401">
        <ele>139</ele>
        <time>2018-11-04T17:23:11Z</time>
      </trkpt>
      <trkpt lat="50.61841" lon="5.39299">
        <ele>136</ele>
        <time>2018-11-04T17:24:11Z</time>
      </trkpt>
      <trkpt lat="50.61756" lon="5.39176">
        <ele>131</ele>
        <time>2018-11-04T17:25:11Z</time>
      </trkpt>
      <trkpt lat="50.61706" lon="5.39106">
        <ele>130</ele>
        <time>2018-11-04T17:26:11Z</time>
      </trkpt>
      <trkpt lat="50.61633" lon="5.39046">
        <ele>128</ele>
        <time>2018-11-04T17:27:11Z</time>
      </trkpt>
      <trkpt lat="50.61549" lon="5.38979">
        <ele>124</ele>
        <time>2018-11-04T17:28:11Z</time>
      </trkpt>
      <trkpt lat="50.61519" lon="5.38957">
        <ele>124</ele>
        <time>2018-11-04T17:29:11Z</time>
      </trkpt>
      <trkpt lat="50.61482" lon="5.38936">
        <ele>121</ele>
        <time>2018-11-04T17:30:11Z</time>
      </trkpt>
      <trkpt lat="50.61453" lon="5.38929">
        <ele>119</ele>
        <time>2018-11-04T17:31:11Z</time>
      </trkpt>
      <trkpt lat="50.61435" lon="5.38936">
        <ele>118</ele>
        <time>2018-11-04T17:32:11Z</time>
      </trkpt>
      <trkpt lat="50.61396" lon="5.38965">
        <ele>117</ele>
        <time>2018-11-04T17:33:11Z</time>
      </trkpt>
      <trkpt lat="50.61363" lon="5.39">
        <ele>116</ele>
        <time>2018-11-04T17:34:11Z</time>
      </trkpt>
      <trkpt lat="50.61331" lon="5.39037">
        <ele>112</ele>
        <time>2018-11-04T17:35:11Z</time>
      </trkpt>
      <trkpt lat="50.61269" lon="5.39117">
        <ele>112</ele>
        <time>2018-11-04T17:36:11Z</time>
      </trkpt>
      <trkpt lat="50.61219" lon="5.39172">
        <ele>110</ele>
        <time>2018-11-04T17:37:11Z</time>
      </trkpt>
      <trkpt lat="50.61196" lon="5.39186">
        <ele>111</ele>
        <time>2018-11-04T17:38:11Z</time>
      </trkpt>
      <trkpt lat="50.6117" lon="5.39196">
        <ele>111</ele>
        <time>2018-11-04T17:39:11Z</time>
      </trkpt>
      <trkpt lat="50.61139" lon="5.39202">
        <ele>111</ele>
        <time>2018-11-04T17:40:11Z</time>
      </trkpt>
      <trkpt lat="50.61021" lon="5.39221">
        <ele>110</ele>
        <time>2018-11-04T17:41:11Z</time>
      </trkpt>
      <trkpt lat="50.60987" lon="5.39237">
        <ele>110</ele>
        <time>2018-11-04T17:42:11Z</time>
      </trkpt>
      <trkpt lat="50.60958" lon="5.3926">
        <ele>110</ele>
        <time>2018-11-04T17:43:11Z</time>
      </trkpt>
      <trkpt lat="50.60934" lon="5.3929">
        <ele>110</ele>
        <time>2018-11-04T17:44:11Z</time>
      </trkpt>
      <trkpt lat="50.60893" lon="5.39345">
        <ele>112</ele>
        <time>2018-11-04T17:45:11Z</time>
      </trkpt>
      <trkpt lat="50.60874" lon="5.39373">
        <ele>115</ele>
        <time>2018-11-04T17:46:11Z</time>
      </trkpt>
      <trkpt lat="50.6085" lon="5.39421">
        <ele>116</ele>
        <time>2018-11-04T17:47:11Z</time>
      </trkpt>
      <trkpt lat="50.60823" lon="5.39513">
        <ele>111</ele>
        <time>2018-11-04T17:48:11Z</time>
      </trkpt>
      <trkpt lat="50.60808" lon="5.39565">
        <ele>109</ele>
        <time>2018-11-04T17:49:11Z</time>
      </trkpt>
      <trkpt lat="50.60786" lon="5.39635">
        <ele>110</ele>
        <time>2018-11-04T17:50:11Z</time>
      </trkpt>
      <trkpt lat="50.6076" lon="5.39722">
        <ele>109</ele>
        <time>2018-11-04T17:51:11Z</time>
      </trkpt>
      <trkpt lat="50.6073" lon="5.39814">
        <ele>105</ele>
        <time>2018-11-04T17:52:11Z</time>
      </trkpt>
      <trkpt lat="50.60704" lon="5.39896">
        <ele>103</ele>
        <time>2018-11-04T17:53:11Z</time>
      </trkpt>
      <trkpt lat="50.60691" lon="5.39937">
        <ele>102</ele>
        <time>2018-11-04T17:54:11Z</time>
      </trkpt>
      <trkpt lat="50.60645" lon="5.40053">
        <ele>100</ele>
        <time>2018-11-04T17:55:11Z</time>
      </trkpt>
      <trkpt lat="50.60633" lon="5.4008">
        <ele>99</ele>
        <time>2018-11-04T17:56:11Z</time>
      </trkpt>
      <trkpt lat="50.60624" lon="5.40097">
        <ele>99</ele>
        <time>2018-11-04T17:57:11Z</time>
      </trkpt>
      <trkpt lat="50.60611" lon="5.40116">
        <ele>99</ele>
        <time>2018-11-04T17:58:11Z</time>
      </trkpt>
      <trkpt lat="50.60573" lon="5.40162">
        <ele>98</ele>
        <time>2018-11-04T17:59:11Z</time>
      </trkpt>
      <trkpt lat="50.60522" lon="5.40218">
        <ele>97</ele>
        <time>2018-11-04T18:00:11Z</time>
      </trkpt>
      <trkpt lat="50.60476" lon="5.40271">
        <ele>95</ele>
        <time>2018-11-04T18:01:11Z</time>
      </trkpt>
      <trkpt lat="50.60406" lon="5.40318">
        <ele>96</ele>
        <time>2018-11-04T18:02:11Z</time>
      </trkpt>
      <trkpt lat="50.60382" lon="5.40331">
        <ele>97</ele>
        <time>2018-11-04T18:03:11Z</time>
      </trkpt>
      <trkpt lat="50.60274" lon="5.40386">
        <ele>97</ele>
        <time>2018-11-04T18:04:11Z</time>
      </trkpt>
      <trkpt lat="50.60223" lon="5.40413">
        <ele>95</ele>
        <time>2018-11-04T18:05:11Z</time>
      </trkpt>
      <trkpt lat="50.60203" lon="5.40422">
        <ele>94</ele>
        <time>2018-11-04T18:06:11Z</time>
      </trkpt>
      <trkpt lat="50.60149" lon="5.40459">
        <ele>93</ele>
        <time>2018-11-04T18:07:11Z</time>
      </trkpt>
      <trkpt lat="50.60065" lon="5.40507">
        <ele>90</ele>
        <time>2018-11-04T18:08:11Z</time>
      </trkpt>
      <trkpt lat="50.60017" lon="5.40534">
        <ele>89</ele>
        <time>2018-11-04T18:09:11Z</time>
      </trkpt>
      <trkpt lat="50.60002" lon="5.40561">
        <ele>88</ele>
        <time>2018-11-04T18:10:11Z</time>
      </trkpt>
      <trkpt lat="50.59992" lon="5.40588">
        <ele>88</ele>
        <time>2018-11-04T18:11:11Z</time>
      </trkpt>
      <trkpt lat="50.59962" lon="5.40689">
        <ele>89</ele>
        <time>2018-11-04T18:12:11Z</time>
      </trkpt>
      <trkpt lat="50.59918" lon="5.40836">
        <ele>87</ele>
        <time>2018-11-04T18:13:11Z</time>
      </trkpt>
      <trkpt lat="50.59879" lon="5.40973">
        <ele>89</ele>
        <time>2018-11-04T18:14:11Z</time>
      </trkpt>
      <trkpt lat="50.59868" lon="5.41011">
        <ele>88</ele>
        <time>2018-11-04T18:15:11Z</time>
      </trkpt>
      <trkpt lat="50.59848" lon="5.41045">
        <ele>88</ele>
        <time>2018-11-04T18:16:11Z</time>
      </trkpt>
      <trkpt lat="50.59818" lon="5.41083">
        <ele>87</ele>
        <time>2018-11-04T18:17:11Z</time>
      </trkpt>
      <trkpt lat="50.59798" lon="5.411">
        <ele>87</ele>
        <time>2018-11-04T18:18:11Z</time>
      </trkpt>
      <trkpt lat="50.59779" lon="5.41108">
        <ele>87</ele>
        <time>2018-11-04T18:19:11Z</time>
      </trkpt>
      <trkpt lat="50.59693" lon="5.41112">
        <ele>86</ele>
        <time>2018-11-04T18:20:11Z</time>
      </trkpt>
      <trkpt lat="50.59657" lon="5.41113">
        <ele>85</ele>
        <time>2018-11-04T18:21:11Z</time>
      </trkpt>
      <trkpt lat="50.59554" lon="5.4109">
        <ele>82</ele>
        <time>2018-11-04T18:22:11Z</time>
      </trkpt>
      <trkpt lat="50.59514" lon="5.41081">
        <ele>82</ele>
        <time>2018-11-04T18:23:11Z</time>
      </trkpt>
      <trkpt lat="50.59467" lon="5.41086">
        <ele>82</ele>
        <time>2018-11-04T18:24:11Z</time>
      </trkpt>
      <trkpt lat="50.59404" lon="5.41098">
        <ele>83</ele>
        <time>2018-11-04T18:25:11Z</time>
      </trkpt>
      <trkpt lat="50.59282" lon="5.41123">
        <ele>88</ele>
        <time>2018-11-04T18:26:11Z</time>
      </trkpt>
      <trkpt lat="50.59225" lon="5.41149">
        <ele>88</ele>
        <time>2018-11-04T18:27:11Z</time>
      </trkpt>
      <trkpt lat="50.59207" lon="5.41149">
        <ele>86</ele>
        <time>2018-11-04T18:28:11Z</time>
      </trkpt>
      <trkpt lat="50.59171" lon="5.41139">
        <ele>84</ele>
        <time>2018-11-04T18:29:11Z</time>
      </trkpt>
      <trkpt lat="50.59101" lon="5.41113">
        <ele>84</ele>
        <time>2018-11-04T18:30:11Z</time>
      </trkpt>
      <trkpt lat="50.59048" lon="5.4109">
        <ele>79</ele>
        <time>2018-11-04T18:31:11Z</time>
      </trkpt>
      <trkpt lat="50.59026" lon="5.41084">
        <ele>78</ele>
        <time>2018-11-04T18:32:11Z</time>
      </trkpt>
      <trkpt lat="50.59004" lon="5.41085">
        <ele>76</ele>
        <time>2018-11-04T18:33:11Z</time>
      </trkpt>
      <trkpt lat="50.58978" lon="5.41102">
        <ele>76</ele>
        <time>2018-11-04T18:34:11Z</time>
      </trkpt>
      <trkpt lat="50.58962" lon="5.4113">
        <ele>77</ele>
        <time>2018-11-04T18:35:11Z</time>
      </trkpt>
      <trkpt lat="50.58908" lon="5.41277">
        <ele>72</ele>
        <time>2018-11-04T18:36:11Z</time>
      </trkpt>
      <trkpt lat="50.58889" lon="5.41321">
        <ele>72</ele>
        <time>2018-11-04T18:37:11Z</time>
      </trkpt>
      <trkpt lat="50.58881" lon="5.41337">
        <ele>71</ele>
        <time>2018-11-04T18:38:11Z</time>
      </trkpt>
      <trkpt lat="50.58865" lon="5.41356">
        <ele>70</ele>
        <time>2018-11-04T18:39:11Z</time>
      </trkpt>
      <trkpt lat="50.58834" lon="5.41383">
        <ele>68</ele>
        <time>2018-11-04T18:40:11Z</time>
      </trkpt>
      <trkpt lat="50.58797" lon="5.41423">
        <ele>68</ele>
        <time>2018-11-04T18:41:11Z</time>
      </trkpt>
      <trkpt lat="50.58726" lon="5.41523">
        <ele>71</ele>
        <time>2018-11-04T18:42:11Z</time>
      </trkpt>
      <trkpt lat="50.58706" lon="5.4154">
        <ele>70</ele>
        <time>2018-11-04T18:43:11Z</time>
      </trkpt>
      <trkpt lat="50.58684" lon="5.41548">
        <ele>69</ele>
        <time>2018-11-04T18:44:11Z</time>
      </trkpt>
      <trkpt lat="50.58653" lon="5.4156">
        <ele>67</ele>
        <time>2018-11-04T18:45:11Z</time>
      </trkpt>
      <trkpt lat="50.58611" lon="5.41578">
        <ele>68</ele>
        <time>2018-11-04T18:46:11Z</time>
      </trkpt>
      <trkpt lat="50.5861" lon="5.41605">
        <ele>67</ele>
        <time>2018-11-04T18:47:11Z</time>
      </trkpt>
      <trkpt lat="50.58608" lon="5.41682">
        <ele>66</ele>
        <time>2018-11-04T18:48:11Z</time>
      </trkpt>
      <trkpt lat="50.58609" lon="5.41743">
        <ele>65</ele>
        <time>2018-11-04T18:49:11Z</time>
      </trkpt>
      <trkpt lat="50.58621" lon="5.41877">
        <ele>66</ele>
        <time>2018-11-04T18:50:11Z</time>
      </trkpt>
      <trkpt lat="50.5865" lon="5.42154">
        <ele>64</ele>
        <time>2018-11-04T18:51:11Z</time>
      </trkpt>
      <trkpt lat="50.58683" lon="5.42474">
        <ele>65</ele>
        <time>2018-11-04T18:52:11Z</time>
      </trkpt>
      <trkpt lat="50.58692" lon="5.42557">
        <ele>64</ele>
        <time>2018-11-04T18:53:11Z</time>
      </trkpt>
      <trkpt lat="50.58706" lon="5.42636">
        <ele>63</ele>
        <time>2018-11-04T18:54:11Z</time>
      </trkpt>
      <trkpt lat="50.58788" lon="5.42969">
        <ele>66</ele>
        <time>2018-11-04T18:55:11Z</time>
      </trkpt>
      <trkpt lat="50.58856" lon="5.43237">
        <ele>71</ele>
        <time>2018-11-04T18:56:11Z</time>
      </trkpt>
      <trkpt lat="50.58868" lon="5.43283">
        <ele>73</ele>
        <time>2018-11-04T18:57:11Z</time>
      </trkpt>
      <trkpt lat="50.58874" lon="5.43335">
        <ele>72</ele>
        <time>2018-11-04T18:58:11Z</time>
      </trkpt>
      <trkpt lat="50.58883" lon="5.43432">
        <ele>71</ele>
        <time>2018-11-04T18:59:11Z</time>
      </trkpt>
      <trkpt lat="50.58897" lon="5.43618">
        <ele>70</ele>
        <time>2018-11-04T19:00:11Z</time>
      </trkpt>
      <trkpt lat="50.58905" lon="5.43703">
        <ele>69</ele>
        <time>2018-11-04T19:01:11Z</time>
      </trkpt>
      <trkpt lat="50.58931" lon="5.43884">
        <ele>65</ele>
        <time>2018-11-04T19:02:11Z</time>
      </trkpt>
      <trkpt lat="50.58974" lon="5.44201">
        <ele>70</ele>
        <time>2018-11-04T19:03:11Z</time>
      </trkpt>
      <trkpt lat="50.58992" lon="5.44311">
        <ele>71</ele>
        <time>2018-11-04T19:04:11Z</time>
      </trkpt>
      <trkpt lat="50.59026" lon="5.44482">
        <ele>67</ele>
        <time>2018-11-04T19:05:11Z</time>
      </trkpt>
      <trkpt lat="50.59041" lon="5.44558">
        <ele>67</ele>
        <time>2018-11-04T19:06:11Z</time>
      </trkpt>
      <trkpt lat="50.59064" lon="5.44621">
        <ele>67</ele>
        <time>2018-11-04T19:07:11Z</time>
      </trkpt>
      <trkpt lat="50.59111" lon="5.44725">
        <ele>65</ele>
        <time>2018-11-04T19:08:11Z</time>
      </trkpt>
      <trkpt lat="50.59155" lon="5.44815">
        <ele>63</ele>
        <time>2018-11-04T19:09:11Z</time>
      </trkpt>
      <trkpt lat="50.59176" lon="5.44869">
        <ele>64</ele>
        <time>2018-11-04T19:10:11Z</time>
      </trkpt>
      <trkpt lat="50.59188" lon="5.44921">
        <ele>65</ele>
        <time>2018-11-04T19:11:11Z</time>
      </trkpt>
      <trkpt lat="50.5922" lon="5.45091">
        <ele>66</ele>
        <time>2018-11-04T19:12:11Z</time>
      </trkpt>
      <trkpt lat="50.59235" lon="5.45192">
        <ele>66</ele>
        <time>2018-11-04T19:13:11Z</time>
      </trkpt>
      <trkpt lat="50.5924" lon="5.45251">
        <ele>64</ele>
        <time>2018-11-04T19:14:11Z</time>
      </trkpt>
      <trkpt lat="50.59235" lon="5.4536">
        <ele>65</ele>
        <time>2018-11-04T19:15:11Z</time>
      </trkpt>
      <trkpt lat="50.59236" lon="5.45388">
        <ele>66</ele>
        <time>2018-11-04T19:16:11Z</time>
      </trkpt>
      <trkpt lat="50.59248" lon="5.45395">
        <ele>66</ele>
        <time>2018-11-04T19:17:11Z</time>
      </trkpt>
      <trkpt lat="50.59268" lon="5.45402">
        <ele>67</ele>
        <time>2018-11-04T19:18:11Z</time>
      </trkpt>
      <trkpt lat="50.59276" lon="5.45417">
        <ele>67</ele>
        <time>2018-11-04T19:19:11Z</time>
      </trkpt>
      <trkpt lat="50.59296" lon="5.45464">
        <ele>66</ele>
        <time>2018-11-04T19:20:11Z</time>
      </trkpt>
      <trkpt lat="50.59335" lon="5.45532">
        <ele>67</ele>
        <time>2018-11-04T19:21:11Z</time>
      </trkpt>
      <trkpt lat="50.59368" lon="5.45592">
        <ele>67</ele>
        <time>2018-11-04T19:22:11Z</time>
      </trkpt>
      <trkpt lat="50.59378" lon="5.45611">
        <ele>68</ele>
        <time>2018-11-04T19:23:11Z</time>
      </trkpt>
      <trkpt lat="50.59407" lon="5.45693">
        <ele>67</ele>
        <time>2018-11-04T19:24:11Z</time>
      </trkpt>
      <trkpt lat="50.5944" lon="5.45775">
        <ele>66</ele>
        <time>2018-11-04T19:25:11Z</time>
      </trkpt>
      <trkpt lat="50.59471" lon="5.45854">
        <ele>67</ele>
        <time>2018-11-04T19:26:11Z</time>
      </trkpt>
      <trkpt lat="50.59559" lon="5.46077">
        <ele>68</ele>
        <time>2018-11-04T19:27:11Z</time>
      </trkpt>
      <trkpt lat="50.59596" lon="5.46173">
        <ele>68</ele>
        <time>2018-11-04T19:28:11Z</time>
      </trkpt>
      <trkpt lat="50.5964" lon="5.46293">
        <ele>66</ele>
        <time>2018-11-04T19:29:11Z</time>
      </trkpt>
      <trkpt lat="50.59691" lon="5.46426">
        <ele>66</ele>
        <time>2018-11-04T19:30:11Z</time>
      </trkpt>
      <trkpt lat="50.59722" lon="5.46506">
        <ele>67</ele>
        <time>2018-11-04T19:31:11Z</time>
      </trkpt>
      <trkpt lat="50.59763" lon="5.46606">
        <ele>68</ele>
        <time>2018-11-04T19:32:11Z</time>
      </trkpt>
      <trkpt lat="50.59786" lon="5.46645">
        <ele>67</ele>
        <time>2018-11-04T19:33:11Z</time>
      </trkpt>
      <trkpt lat="50.59811" lon="5.46698">
        <ele>67</ele>
        <time>2018-11-04T19:34:11Z</time>
      </trkpt>
      <trkpt lat="50.59841" lon="5.46768">
        <ele>68</ele>
        <time>2018-11-04T19:35:11Z</time>
      </trkpt>
      <trkpt lat="50.5986" lon="5.46831">
        <ele>68</ele>
        <time>2018-11-04T19:36:11Z</time>
      </trkpt>
      <trkpt lat="50.59873" lon="5.46888">
        <ele>67</ele>
        <time>2018-11-04T19:37:11Z</time>
      </trkpt>
      <trkpt lat="50.59895" lon="5.47013">
        <ele>65</ele>
        <time>2018-11-04T19:38:11Z</time>
      </trkpt>
      <trkpt lat="50.59909" lon="5.47102">
        <ele>64</ele>
        <time>2018-11-04T19:39:11Z</time>
      </trkpt>
      <trkpt lat="50.59922" lon="5.47178">
        <ele>64</ele>
        <time>2018-11-04T19:40:11Z</time>
      </trkpt>
      <trkpt lat="50.59931" lon="5.47213">
        <ele>64</ele>
        <time>2018-11-04T19:41:11Z</time>
      </trkpt>
      <trkpt lat="50.59945" lon="5.47263">
        <ele>65</ele>
        <time>2018-11-04T19:42:11Z</time>
      </trkpt>
      <trkpt lat="50.59983" lon="5.4733">
        <ele>66</ele>
        <time>2018-11-04T19:43:11Z</time>
      </trkpt>
      <trkpt lat="50.60073" lon="5.4749">
        <ele>66</ele>
        <time>2018-11-04T19:44:11Z</time>
      </trkpt>
      <trkpt lat="50.60152" lon="5.47629">
        <ele>66</ele>
        <time>2018-11-04T19:45:11Z</time>
      </trkpt>
      <trkpt lat="50.60253" lon="5.47808">
        <ele>65</ele>
        <time>2018-11-04T19:46:11Z</time>
      </trkpt>
      <trkpt lat="50.60263" lon="5.47827">
        <ele>65</ele>
        <time>2018-11-04T19:47:11Z</time>
      </trkpt>
      <trkpt lat="50.60333" lon="5.47949">
        <ele>67</ele>
        <time>2018-11-04T19:48:11Z</time>
      </trkpt>
      <trkpt lat="50.60353" lon="5.47984">
        <ele>67</ele>
        <time>2018-11-04T19:49:11Z</time>
      </trkpt>
      <trkpt lat="50.60365" lon="5.48006">
        <ele>67</ele>
        <time>2018-11-04T19:50:11Z</time>
      </trkpt>
      <trkpt lat="50.60404" lon="5.48095">
        <ele>67</ele>
        <time>2018-11-04T19:51:11Z</time>
      </trkpt>
      <trkpt lat="50.60435" lon="5.48171">
        <ele>68</ele>
        <time>2018-11-04T19:52:11Z</time>
      </trkpt>
      <trkpt lat="50.60448" lon="5.48211">
        <ele>68</ele>
        <time>2018-11-04T19:53:11Z</time>
      </trkpt>
      <trkpt lat="50.60473" lon="5.48294">
        <ele>68</ele>
        <time>2018-11-04T19:54:11Z</time>
      </trkpt>
      <trkpt lat="50.60488" lon="5.48345">
        <ele>68</ele>
        <time>2018-11-04T19:55:11Z</time>
      </trkpt>
      <trkpt lat="50.60501" lon="5.48374">
        <ele>68</ele>
        <time>2018-11-04T19:56:11Z</time>
      </trkpt>
      <trkpt lat="50.60499" lon="5.48393">
        <ele>67</ele>
        <time>2018-11-04T19:57:11Z</time>
      </trkpt>
      <trkpt lat="50.60485" lon="5.48394">
        <ele>67</ele>
        <time>2018-11-04T19:58:11Z</time>
      </trkpt>
      <trkpt lat="50.60422" lon="5.48469">
        <ele>64</ele>
        <time>2018-11-04T19:59:11Z</time>
      </trkpt>
      <trkpt lat="50.60408" lon="5.48449">
        <ele>65</ele>
        <time>2018-11-04T20:00:11Z</time>
      </trkpt>
      <trkpt lat="50.60428" lon="5.48437">
        <ele>65</ele>
        <time>2018-11-04T20:01:11Z</time>
      </trkpt>
    </trkseg>
  </trk>
</gpx>